Provisional Data: Pine Creek near Telescope, PA


Please select a monitoring station.
Please select start date.
Please select start date.

Toggle Unit: C/F Toggle Unit: C/F
Sample Time Temperature (C) Temperature (F) Specific Conductivity (mS/cm) pH   Turbidity (NTU+) DO (mg/L)
3/23/2021 12:00:00 AM 5.24 41.432 0.062 6.75 4.97 12.03
3/23/2021 12:15:00 AM 5.15 41.27 0.063 6.75 4.95 12.06
3/23/2021 12:30:00 AM 5.07 41.126 0.063 6.74 5.05 12.09
3/23/2021 12:45:00 AM 4.99 40.982 0.063 6.75 5.09 12.11
3/23/2021 1:00:00 AM 4.92 40.856 0.062 6.75 4.87 12.14
3/23/2021 1:15:00 AM 4.84 40.712 0.062 6.74 5 12.17
3/23/2021 1:30:00 AM 4.77 40.586 0.062 6.74 5.08 12.19
3/23/2021 1:45:00 AM 4.7 40.46 0.062 6.74 4.95 12.22
3/23/2021 2:00:00 AM 4.64 40.352 0.062 6.73 4.92 12.24
3/23/2021 2:15:00 AM 4.58 40.244 0.062 6.73 5 12.26
3/23/2021 2:30:00 AM 4.52 40.136 0.062 6.73 5 12.28
3/23/2021 2:45:00 AM 4.46 40.028 0.062 6.72 4.85 12.3
3/23/2021 3:00:00 AM 4.4 39.92 0.062 6.76 4.92 12.33
3/23/2021 3:15:00 AM 4.34 39.812 0.062 6.75 4.89 12.35
3/23/2021 3:30:00 AM 4.28 39.704 0.062 6.76 4.91 12.36
3/23/2021 3:45:00 AM 4.23 39.614 0.062 6.76 4.96 12.38
3/23/2021 4:00:00 AM 4.18 39.524 0.062 6.74 4.82 12.4
3/23/2021 4:15:00 AM 4.13 39.434 0.062 6.74 4.83 12.41
3/23/2021 4:30:00 AM 4.08 39.344 0.062 6.74 4.94 12.43
3/23/2021 4:45:00 AM 4.03 39.254 0.062 6.74 4.98 12.45
3/23/2021 5:00:00 AM 3.98 39.164 0.062 6.73 4.92 12.47
3/23/2021 5:15:00 AM 3.93 39.074 0.062 6.72 4.87 12.49
3/23/2021 5:30:00 AM 3.89 39.002 0.062 6.71 4.9 12.5
3/23/2021 5:45:00 AM 3.84 38.912 0.062 6.72 4.87 12.52
3/23/2021 6:00:00 AM 3.8 38.84 0.062 6.71 4.84 12.54
3/23/2021 6:15:00 AM 3.75 38.75 0.062 6.7 4.91 12.55
3/23/2021 6:30:00 AM 3.71 38.678 0.062 6.7 4.95 12.57
3/23/2021 6:45:00 AM 3.67 38.606 0.062 6.7 4.96 12.58
3/23/2021 7:00:00 AM 3.63 38.534 0.062 6.68 4.83 12.6
3/23/2021 7:15:00 AM 3.6 38.48 0.062 6.69 4.86 12.62
3/23/2021 7:30:00 AM 3.56 38.408 0.062 6.7 4.73 12.66
3/23/2021 7:45:00 AM 3.54 38.372 0.062 6.71 4.84 12.72
3/23/2021 8:00:00 AM 3.52 38.336 0.062 6.72 4.9 12.76
3/23/2021 8:15:00 AM 3.52 38.336 0.061 6.74 4.7 12.83
3/23/2021 8:30:00 AM 3.52 38.336 0.061 6.77 4.67 12.87
3/23/2021 8:45:00 AM 3.55 38.39 0.061 6.79 4.69 12.91
3/23/2021 9:00:00 AM 3.58 38.444 0.061 6.81 4.58 12.94
3/23/2021 9:15:00 AM 3.62 38.516 0.061 6.82 4.64 12.96
3/23/2021 9:30:00 AM 3.69 38.642 0.061 6.85 4.57 12.97
3/23/2021 9:45:00 AM 3.79 38.822 0.061 6.87 4.55 12.97
3/23/2021 10:00:00 AM 3.92 39.056 0.061 6.89 4.55 12.95
3/23/2021 10:15:00 AM 4.09 39.362 0.061 6.92 4.64 12.93
3/23/2021 10:30:00 AM 4.29 39.722 0.061 6.95 4.67 12.89
3/23/2021 10:45:00 AM 4.5 40.1 0.06 6.95 4.61 12.84
3/23/2021 11:00:00 AM 4.73 40.514 0.06 6.98 4.51 12.77
3/23/2021 11:15:00 AM 4.99 40.982 0.06 7.01 4.51 12.71
3/23/2021 11:30:00 AM 5.26 41.468 0.06 7.03 4.54 12.64
3/23/2021 11:45:00 AM 5.52 41.936 0.06 7.04 4.5 12.56
3/23/2021 12:00:00 PM 5.79 42.422 0.06 7.06 4.49 12.47
3/23/2021 12:15:00 PM 6.06 42.908 0.06 7.08 4.52 12.39
3/23/2021 12:30:00 PM 6.35 43.43 0.06 7.1 4.56 12.3
3/23/2021 12:45:00 PM 6.62 43.916 0.06 7.11 4.59 12.22
3/23/2021 1:00:00 PM 6.83 44.294 0.06 7.13 4.56 12.14
3/23/2021 1:15:00 PM 7.04 44.672 0.059 7.14 4.55 12.08
3/23/2021 1:30:00 PM 7.22 44.996 0.059 7.15 4.56 12.01
3/23/2021 1:45:00 PM 7.41 45.338 0.059 7.16 4.56 11.95
3/23/2021 2:00:00 PM 7.58 45.644 0.059 7.18 4.69 11.89
3/23/2021 2:15:00 PM 7.75 45.95 0.059 7.2 4.61 11.83
3/23/2021 2:30:00 PM 7.9 46.22 0.059 7.22 4.64 11.78
3/23/2021 2:45:00 PM 8.02 46.436 0.059 7.23 4.59 11.73
3/23/2021 3:00:00 PM 8.09 46.562 0.059 7.22 4.74 11.7
3/23/2021 3:15:00 PM 8.17 46.706 0.059 7.23 4.73 11.67
3/23/2021 3:30:00 PM 8.23 46.814 0.059 7.22 4.79 11.64
3/23/2021 3:45:00 PM 8.26 46.868 0.06 7.25 4.72 11.61
3/23/2021 4:00:00 PM 8.27 46.886 0.06 7.22 4.7 11.6
3/23/2021 4:15:00 PM 8.3 46.94 0.06 7.23 4.76 11.59
3/23/2021 4:30:00 PM 8.31 46.958 0.06 7.22 4.79 11.57
3/23/2021 4:45:00 PM 8.29 46.922 0.06 7.21 4.88 11.56
3/23/2021 5:00:00 PM 8.27 46.886 0.06 7.21 4.99 11.57
3/23/2021 5:15:00 PM 8.26 46.868 0.06 7.2 4.91 11.56
3/23/2021 5:30:00 PM 8.22 46.796 0.06 7.19 4.89 11.54
3/23/2021 5:45:00 PM 8.16 46.688 0.06 7.16 5.01 11.52
3/23/2021 6:00:00 PM 8.11 46.598 0.06 7.13 5 11.52
3/23/2021 6:15:00 PM 8.06 46.508 0.06 7.12 5.06 11.51
3/23/2021 6:30:00 PM 8 46.4 0.06 7.1 5.09 11.49
3/23/2021 6:45:00 PM 7.93 46.274 0.06 7.07 5.04 11.47
3/23/2021 7:00:00 PM 7.84 46.112 0.06 7.04 5.13 11.44
3/23/2021 7:15:00 PM 7.76 45.968 0.06 7.01 5.15 11.4
3/23/2021 7:30:00 PM 7.67 45.806 0.061 6.98 5.22 11.37
3/23/2021 7:45:00 PM 7.59 45.662 0.061 6.95 5.25 11.33
3/23/2021 8:00:00 PM 7.51 45.518 0.061 6.93 5.32 11.33
3/23/2021 8:15:00 PM 7.43 45.374 0.061 6.92 5.41 11.34
3/23/2021 8:30:00 PM 7.34 45.212 0.061 6.88 5.45 11.35
3/23/2021 8:45:00 PM 7.25 45.05 0.061 6.86 5.48 11.37
3/23/2021 9:00:00 PM 7.16 44.888 0.061 6.86 5.47 11.4
3/23/2021 9:15:00 PM 7.08 44.744 0.061 6.85 5.46 11.42
3/23/2021 9:30:00 PM 6.99 44.582 0.061 6.84 5.65 11.44
3/23/2021 9:45:00 PM 6.9 44.42 0.061 6.83 5.64 11.47
3/23/2021 10:00:00 PM 6.82 44.276 0.061 6.82 5.52 11.49
3/23/2021 10:15:00 PM 6.74 44.132 0.061 6.82 5.56 11.52
3/23/2021 10:30:00 PM 6.66 43.988 0.061 6.82 5.57 11.53
3/23/2021 10:45:00 PM 6.58 43.844 0.061 6.81 5.48 11.56
3/23/2021 11:00:00 PM 6.5 43.7 0.061 6.8 5.41 11.58
3/23/2021 11:15:00 PM 6.42 43.556 0.061 6.8 5.52 11.61
3/23/2021 11:30:00 PM 6.35 43.43 0.061 6.8 5.41 11.63
3/23/2021 11:45:00 PM 6.28 43.304 0.061 6.79 5.4 11.65
3/24/2021 12:00:00 AM 6.21 43.178 0.061 6.78 5.42 11.67
3/24/2021 12:15:00 AM 6.14 43.052 0.061 6.78 5.54 11.7
3/24/2021 12:30:00 AM 6.09 42.962 0.061 6.78 5.58 11.71
3/24/2021 12:45:00 AM 6.03 42.854 0.06 6.78 5.54 11.74
3/24/2021 1:00:00 AM 5.99 42.782 0.06 6.78 5.53 11.76
3/24/2021 1:15:00 AM 5.95 42.71 0.06 6.78 5.54 11.77
3/24/2021 1:30:00 AM 5.91 42.638 0.06 6.78 5.53 11.78
3/24/2021 1:45:00 AM 5.86 42.548 0.06 6.77 5.54 11.79
3/24/2021 2:00:00 AM 5.83 42.494 0.06 6.77 5.56 11.8
3/24/2021 2:15:00 AM 5.81 42.458 0.06 6.77 5.43 11.81
3/24/2021 2:30:00 AM 5.79 42.422 0.06 6.77 5.41 11.81
3/24/2021 2:45:00 AM 5.77 42.386 0.06 6.77 5.51 11.82
3/24/2021 3:00:00 AM 5.76 42.368 0.06 6.77 5.41 11.83
3/24/2021 3:15:00 AM 5.76 42.368 0.06 6.77 5.38 11.83
3/24/2021 3:30:00 AM 5.75 42.35 0.06 6.76 5.36 11.83
3/24/2021 3:45:00 AM 5.75 42.35 0.06 6.76 5.33 11.84
3/24/2021 4:00:00 AM 5.75 42.35 0.06 6.76 5.53 11.83
3/24/2021 4:15:00 AM 5.75 42.35 0.06 6.76 5.49 11.83
3/24/2021 4:30:00 AM 5.76 42.368 0.06 6.77 5.31 11.83
3/24/2021 4:45:00 AM 5.76 42.368 0.059 6.77 5.39 11.83
3/24/2021 5:00:00 AM 5.77 42.386 0.059 6.77 5.45 11.82
3/24/2021 5:15:00 AM 5.79 42.422 0.059 6.77 5.51 11.82
3/24/2021 5:30:00 AM 5.81 42.458 0.059 6.77 5.41 11.81
3/24/2021 5:45:00 AM 5.83 42.494 0.059 6.77 5.44 11.81
3/24/2021 6:00:00 AM 5.86 42.548 0.059 6.77 5.4 11.8
3/24/2021 6:15:00 AM 5.88 42.584 0.059 6.77 5.53 11.78
3/24/2021 6:30:00 AM 5.9 42.62 0.059 6.77 5.5 11.77
3/24/2021 6:45:00 AM 5.93 42.674 0.059 6.77 5.5 11.77
3/24/2021 7:00:00 AM 5.95 42.71 0.059 6.77 5.46 11.76
3/24/2021 7:15:00 AM 5.98 42.764 0.059 6.77 5.47 11.76
3/24/2021 7:30:00 AM 6 42.8 0.059 6.76 5.51 11.75
3/24/2021 7:45:00 AM 6.01 42.818 0.059 6.76 5.51 11.75
3/24/2021 8:00:00 AM 6.03 42.854 0.059 6.77 5.61 11.76
3/24/2021 8:15:00 AM 6.05 42.89 0.059 6.77 5.69 11.76
3/24/2021 8:30:00 AM 6.07 42.926 0.059 6.77 5.99 11.77
3/24/2021 8:45:00 AM 6.09 42.962 0.058 6.78 5.91 11.79
3/24/2021 9:00:00 AM 6.12 43.016 0.058 6.79 5.91 11.83
3/24/2021 9:15:00 AM 6.14 43.052 0.059 6.79 6.18 11.84
3/24/2021 9:30:00 AM 6.17 43.106 0.059 6.8 6.66 11.87
3/24/2021 9:45:00 AM 6.21 43.178 0.059 6.81 6.81 11.9
3/24/2021 10:00:00 AM 6.24 43.232 0.06 6.83 7.1 11.92
3/24/2021 10:15:00 AM 6.3 43.34 0.059 6.83 7.12 11.96
3/24/2021 10:30:00 AM 6.35 43.43 0.059 6.87 7.14 11.98
3/24/2021 10:45:00 AM 6.4 43.52 0.059 6.87 7.32 11.99
3/24/2021 11:00:00 AM 6.44 43.592 0.059 6.88 7.22 11.97
3/24/2021 11:15:00 AM 6.49 43.682 0.059 6.9 7.49 11.96
3/24/2021 11:30:00 AM 6.55 43.79 0.06 6.92 7.75 11.96
3/24/2021 11:45:00 AM 6.6 43.88 0.06 6.92 7.85 11.93
3/24/2021 12:00:00 PM 6.65 43.97 0.06 6.92 7.89 11.9
3/24/2021 12:15:00 PM 6.69 44.042 0.061 6.93 7.94 11.88
3/24/2021 12:30:00 PM 6.74 44.132 0.061 6.93 7.98 11.87
3/24/2021 12:45:00 PM 6.87 44.366 0.057 7.42 5.96 11.59
3/24/2021 1:00:00 PM 6.92 44.456 0.057 7.24 5.64 11.68
3/24/2021 1:15:00 PM 6.98 44.564 0.058 7.17 5.55 11.69
3/24/2021 1:30:00 PM 7.05 44.69 0.058 7.16 5.19 11.69
3/24/2021 1:45:00 PM 7.12 44.816 0.058 7.17 5.08 11.68
3/24/2021 2:00:00 PM 7.2 44.96 0.058 7.13 4.76 11.68
3/24/2021 2:15:00 PM 7.26 45.068 0.058 7.17 4.47 11.66
3/24/2021 2:30:00 PM 7.3 45.14 0.058 7.18 4.63 11.63
3/24/2021 2:45:00 PM 7.36 45.248 0.057 7.2 4.78 11.61
3/24/2021 3:00:00 PM 7.42 45.356 0.057 7.18 4.6 11.59
3/24/2021 3:15:00 PM 7.49 45.482 0.057 7.19 4.5 11.57
3/24/2021 3:30:00 PM 7.57 45.626 0.057 7.18 5.34 11.57
3/24/2021 3:45:00 PM 7.65 45.77 0.057 7.2 4.71 11.56
3/24/2021 4:00:00 PM 7.73 45.914 0.057 7.21 4.53 11.55
3/24/2021 4:15:00 PM 7.79 46.022 0.057 7.21 4.29 11.53
3/24/2021 4:30:00 PM 7.83 46.094 0.057 7.21 4.29 11.5
3/24/2021 4:45:00 PM 7.87 46.166 0.057 7.19 4.35 11.48
3/24/2021 5:00:00 PM 7.91 46.238 0.057 7.19 4.33 11.45
3/24/2021 5:15:00 PM 7.94 46.292 0.057 7.2 4.25 11.41
3/24/2021 5:30:00 PM 7.95 46.31 0.057 7.16 4.5 11.35
3/24/2021 5:45:00 PM 7.95 46.31 0.057 7.15 4.63 11.28
3/24/2021 6:00:00 PM 7.95 46.31 0.057 7.13 4.49 11.25
3/24/2021 6:15:00 PM 7.95 46.31 0.057 7.13 4.29 11.24
3/24/2021 6:30:00 PM 7.94 46.292 0.057 7.14 4.32 11.21
3/24/2021 6:45:00 PM 7.92 46.256 0.057 7.12 4.31 11.19
3/24/2021 7:00:00 PM 7.9 46.22 0.057 7.08 4.38 11.16
3/24/2021 7:15:00 PM 7.87 46.166 0.057 7.07 4.24 11.13
3/24/2021 7:30:00 PM 7.84 46.112 0.057 7.04 4.43 11.11
3/24/2021 7:45:00 PM 7.8 46.04 0.057 7.02 4.64 11.08
3/24/2021 8:00:00 PM 7.77 45.986 0.057 7.01 4.52 11.08
3/24/2021 8:15:00 PM 7.74 45.932 0.057 7.01 4.56 11.08
3/24/2021 8:30:00 PM 7.71 45.878 0.057 7 4.5 11.08
3/24/2021 8:45:00 PM 7.68 45.824 0.057 7.02 4.55 11.08
3/24/2021 9:00:00 PM 7.65 45.77 0.056 6.99 4.65 11.09
3/24/2021 9:15:00 PM 7.62 45.716 0.056 7.01 4.53 11.1
3/24/2021 9:30:00 PM 7.59 45.662 0.056 6.99 4.43 11.11
3/24/2021 9:45:00 PM 7.56 45.608 0.056 6.99 4.48 11.12
3/24/2021 10:00:00 PM 7.54 45.572 0.056 6.99 4.14 11.13
3/24/2021 10:15:00 PM 7.51 45.518 0.056 6.97 3.96 11.14
3/24/2021 10:30:00 PM 7.49 45.482 0.056 6.98 4.25 11.14
3/24/2021 10:45:00 PM 7.47 45.446 0.056 6.99 3.95 11.15
3/24/2021 11:00:00 PM 7.45 45.41 0.056 6.97 4.11 11.15
3/24/2021 11:15:00 PM 7.44 45.392 0.056 6.98 4.07 11.16
3/24/2021 11:30:00 PM 7.43 45.374 0.056 6.97 4.21 11.16
3/24/2021 11:45:00 PM 7.42 45.356 0.056 6.97 4.21 11.17
3/25/2021 12:00:00 AM 7.4 45.32 0.056 6.98 4.06 11.17
3/25/2021 12:15:00 AM 7.39 45.302 0.056 6.96 3.89 11.17
3/25/2021 12:30:00 AM 7.38 45.284 0.056 6.97 4.15 11.17
3/25/2021 12:45:00 AM 7.37 45.266 0.056 6.96 4.2 11.18
3/25/2021 1:00:00 AM 7.37 45.266 0.055 6.97 4.02 11.18
3/25/2021 1:15:00 AM 7.37 45.266 0.055 6.98 4.3 11.18
3/25/2021 1:30:00 AM 7.36 45.248 0.055 6.96 4.36 11.18
3/25/2021 1:45:00 AM 7.36 45.248 0.055 6.96 4.03 11.18
3/25/2021 2:00:00 AM 7.36 45.248 0.055 6.97 3.97 11.18
3/25/2021 2:15:00 AM 7.36 45.248 0.055 6.95 4.23 11.18
3/25/2021 2:30:00 AM 7.36 45.248 0.055 6.96 4.16 11.18
3/25/2021 2:45:00 AM 7.36 45.248 0.055 6.96 4.11 11.18
3/25/2021 3:00:00 AM 7.35 45.23 0.055 6.98 4.19 11.19
3/25/2021 3:15:00 AM 7.34 45.212 0.055 6.98 4.07 11.19
3/25/2021 3:30:00 AM 7.32 45.176 0.055 6.95 4.2 11.19
3/25/2021 3:45:00 AM 7.31 45.158 0.055 6.96 4.01 11.2
3/25/2021 4:00:00 AM 7.29 45.122 0.055 6.96 4.22 11.2
3/25/2021 4:15:00 AM 7.28 45.104 0.055 6.97 4.07 11.2
3/25/2021 4:30:00 AM 7.27 45.086 0.055 6.95 4.08 11.21
3/25/2021 4:45:00 AM 7.26 45.068 0.055 6.97 4.3 11.21
3/25/2021 5:00:00 AM 7.25 45.05 0.055 6.99 4.07 11.22
3/25/2021 5:15:00 AM 7.23 45.014 0.055 6.95 4.25 11.22
3/25/2021 5:30:00 AM 7.22 44.996 0.055 6.96 4.03 11.22
3/25/2021 5:45:00 AM 7.2 44.96 0.055 6.96 4.11 11.23
3/25/2021 6:00:00 AM 7.19 44.942 0.054 6.97 4.07 11.23
3/25/2021 6:15:00 AM 7.18 44.924 0.054 6.98 4.19 11.24
3/25/2021 6:30:00 AM 7.18 44.924 0.054 6.95 4.19 11.24
3/25/2021 6:45:00 AM 7.17 44.906 0.054 6.97 4.12 11.25
3/25/2021 7:00:00 AM 7.16 44.888 0.054 6.92 3.87 11.25
3/25/2021 7:15:00 AM 7.15 44.87 0.054 6.97 4.19 11.26
3/25/2021 7:30:00 AM 7.14 44.852 0.054 6.97 4 11.27
3/25/2021 7:45:00 AM 7.14 44.852 0.054 6.99 3.77 11.31
3/25/2021 8:00:00 AM 7.14 44.852 0.054 6.98 3.84 11.34
3/25/2021 8:15:00 AM 7.14 44.852 0.054 6.98 5.91 11.36
3/25/2021 8:30:00 AM 7.15 44.87 0.054 6.97 3.55 11.41
3/25/2021 8:45:00 AM 7.16 44.888 0.054 7.02 3.79 11.44
3/25/2021 9:00:00 AM 7.21 44.978 0.054 7.04 3.48 11.51
3/25/2021 9:15:00 AM 7.25 45.05 0.054 7.06 3.38 11.55
3/25/2021 9:30:00 AM 7.33 45.194 0.054 7.07 3.49 11.59
3/25/2021 9:45:00 AM 7.39 45.302 0.054 7.12 3.49 11.6
3/25/2021 10:00:00 AM 7.45 45.41 0.053 7.13 3.5 11.61
3/25/2021 10:15:00 AM 7.56 45.608 0.053 7.14 3.37 11.62
3/25/2021 10:30:00 AM 7.68 45.824 0.053 7.15 3.4 11.62
3/25/2021 10:45:00 AM 7.75 45.95 0.053 7.17 3.3 11.61
3/25/2021 11:00:00 AM 7.9 46.22 0.053 7.21 3.38 11.6
3/25/2021 11:15:00 AM 8.07 46.526 0.053 7.21 3.45 11.58
3/25/2021 11:30:00 AM 8.23 46.814 0.053 7.22 3.59 11.54
3/25/2021 11:45:00 AM 8.45 47.21 0.053 7.24 3.47 11.5
3/25/2021 12:00:00 PM 8.69 47.642 0.053 7.25 3.53 11.44
3/25/2021 12:15:00 PM 8.94 48.092 0.053 7.24 3.46 11.38
3/25/2021 12:30:00 PM 9.14 48.452 0.053 7.24 3.43 11.33
3/25/2021 12:45:00 PM 9.38 48.884 0.053 7.25 3.32 11.28
3/25/2021 1:00:00 PM 9.58 49.244 0.053 7.25 3.55 11.22
3/25/2021 1:15:00 PM 9.69 49.442 0.053 7.3 3.78 11.18
3/25/2021 1:30:00 PM 9.89 49.802 0.052 7.26 3.51 11.14
3/25/2021 1:45:00 PM 10.08 50.144 0.053 7.27 3.63 11.09
3/25/2021 2:00:00 PM 10.25 50.45 0.053 7.29 3.49 11.04
3/25/2021 2:15:00 PM 10.38 50.684 0.053 7.28 3.65 11
3/25/2021 2:30:00 PM 10.48 50.864 0.053 7.32 3.67 10.96
3/25/2021 2:45:00 PM 10.57 51.026 0.052 7.3 3.59 10.93
3/25/2021 3:00:00 PM 10.66 51.188 0.052 7.3 3.67 10.9
3/25/2021 3:15:00 PM 10.73 51.314 0.053 7.32 3.87 10.87
3/25/2021 3:30:00 PM 10.77 51.386 0.053 7.3 3.57 10.85
3/25/2021 3:45:00 PM 10.79 51.422 0.053 7.29 3.9 10.84
3/25/2021 4:00:00 PM 10.78 51.404 0.053 7.32 3.82 10.82
3/25/2021 4:15:00 PM 10.75 51.35 0.053 7.36 3.67 10.81
3/25/2021 4:30:00 PM 10.7 51.26 0.053 7.33 3.83 10.79
3/25/2021 4:45:00 PM 10.64 51.152 0.053 7.32 3.83 10.78
3/25/2021 5:00:00 PM 10.56 51.008 0.053 7.32 3.85 10.77
3/25/2021 5:15:00 PM 10.49 50.882 0.053 7.28 3.66 10.76
3/25/2021 5:30:00 PM 10.41 50.738 0.053 7.28 4.18 10.76
3/25/2021 5:45:00 PM 10.31 50.558 0.053 7.26 4.27 10.74
3/25/2021 6:00:00 PM 10.22 50.396 0.053 7.23 4.09 10.72
3/25/2021 6:15:00 PM 10.13 50.234 0.053 7.2 3.91 10.69
3/25/2021 6:30:00 PM 10.03 50.054 0.053 7.18 4.2 10.66
3/25/2021 6:45:00 PM 9.93 49.874 0.053 7.14 4.13 10.63
3/25/2021 7:00:00 PM 9.84 49.712 0.053 7.14 3.97 10.61
3/25/2021 7:15:00 PM 9.73 49.514 0.053 7.11 4.01 10.59
3/25/2021 7:30:00 PM 9.63 49.334 0.054 7.08 4.07 10.58
3/25/2021 7:45:00 PM 9.52 49.136 0.054 7.05 4.18 10.58
3/25/2021 8:00:00 PM 9.43 48.974 0.054 7.06 4.2 10.59
3/25/2021 8:15:00 PM 9.33 48.794 0.054 7.03 4.17 10.6
3/25/2021 8:30:00 PM 9.25 48.65 0.054 7.04 4.12 10.62
3/25/2021 8:45:00 PM 9.18 48.524 0.054 7.02 4.26 10.63
3/25/2021 9:00:00 PM 9.11 48.398 0.054 7.03 4.15 10.64
3/25/2021 9:15:00 PM 9.05 48.29 0.054 7.02 4.28 10.67
3/25/2021 9:30:00 PM 9.01 48.218 0.054 7.03 4.32 10.69
3/25/2021 9:45:00 PM 8.97 48.146 0.054 7.02 4.05 10.69
3/25/2021 10:00:00 PM 8.93 48.074 0.054 7.02 3.92 10.69
3/25/2021 10:15:00 PM 8.89 48.002 0.054 7.03 3.9 10.71
3/25/2021 10:30:00 PM 8.86 47.948 0.054 7.02 3.94 10.71
3/25/2021 10:45:00 PM 8.83 47.894 0.054 6.98 4.01 10.71
3/25/2021 11:00:00 PM 8.81 47.858 0.054 7.01 3.99 10.73
3/25/2021 11:15:00 PM 8.79 47.822 0.054 7.01 3.95 10.72
3/25/2021 11:30:00 PM 8.76 47.768 0.054 7 3.75 10.73
3/25/2021 11:45:00 PM 8.74 47.732 0.054 7 3.79 10.73
3/26/2021 12:00:00 AM 8.73 47.714 0.054 6.99 3.89 10.74
3/26/2021 12:15:00 AM 8.71 47.678 0.054 7.01 3.82 10.74
3/26/2021 12:30:00 AM 8.7 47.66 0.054 7 3.8 10.75
3/26/2021 12:45:00 AM 8.68 47.624 0.054 7.01 3.93 10.74
3/26/2021 1:00:00 AM 8.65 47.57 0.054 7 3.88 10.75
3/26/2021 1:15:00 AM 8.64 47.552 0.054 7 3.88 10.76
3/26/2021 1:30:00 AM 8.62 47.516 0.054 6.99 4.07 10.75
3/26/2021 1:45:00 AM 8.61 47.498 0.054 7 3.94 10.75
3/26/2021 2:00:00 AM 8.6 47.48 0.053 6.99 3.67 10.75
3/26/2021 2:15:00 AM 8.61 47.498 0.053 7 4 10.75
3/26/2021 2:30:00 AM 8.6 47.48 0.054 7 3.94 10.75
3/26/2021 2:45:00 AM 8.61 47.498 0.053 6.99 3.79 10.74
3/26/2021 3:00:00 AM 8.61 47.498 0.053 7.01 3.8 10.74
3/26/2021 3:15:00 AM 8.62 47.516 0.053 6.99 3.86 10.73
3/26/2021 3:30:00 AM 8.64 47.552 0.053 7 3.85 10.72
3/26/2021 3:45:00 AM 8.66 47.588 0.053 6.99 3.75 10.72
3/26/2021 4:00:00 AM 8.66 47.588 0.053 6.99 3.87 10.71
3/26/2021 4:15:00 AM 8.64 47.552 0.054 7 3.92 10.71
3/26/2021 4:30:00 AM 8.64 47.552 0.053 7 3.88 10.71
3/26/2021 4:45:00 AM 8.64 47.552 0.053 7 3.87 10.7
3/26/2021 5:00:00 AM 8.62 47.516 0.053 6.99 3.71 10.7
3/26/2021 5:15:00 AM 8.59 47.462 0.054 6.97 4.02 10.7
3/26/2021 5:30:00 AM 8.57 47.426 0.053 6.99 3.72 10.7
3/26/2021 5:45:00 AM 8.55 47.39 0.053 6.99 3.86 10.7
3/26/2021 6:00:00 AM 8.54 47.372 0.053 6.99 3.74 10.71
3/26/2021 6:15:00 AM 8.55 47.39 0.053 6.99 3.91 10.69
3/26/2021 6:30:00 AM 8.55 47.39 0.053 6.99 3.99 10.7
3/26/2021 6:45:00 AM 8.53 47.354 0.053 6.98 3.91 10.71
3/26/2021 7:00:00 AM 8.52 47.336 0.053 6.99 3.77 10.71
3/26/2021 7:15:00 AM 8.54 47.372 0.053 6.99 4.09 10.71
3/26/2021 7:30:00 AM 8.54 47.372 0.053 6.99 3.96 10.73
3/26/2021 7:45:00 AM 8.53 47.354 0.053 6.99 3.99 10.76
3/26/2021 8:00:00 AM 8.54 47.372 0.053 7.02 3.9 10.81
3/26/2021 8:15:00 AM 8.56 47.408 0.053 7.05 3.84 10.85
3/26/2021 8:30:00 AM 8.56 47.408 0.053 7.04 3.85 10.86
3/26/2021 8:45:00 AM 8.58 47.444 0.053 7.07 3.86 10.92
3/26/2021 9:00:00 AM 8.59 47.462 0.053 7.06 3.84 10.94
3/26/2021 9:15:00 AM 8.67 47.606 0.053 7.09 3.73 10.99
3/26/2021 9:30:00 AM 8.73 47.714 0.053 7.11 3.67 11.03
3/26/2021 9:45:00 AM 8.74 47.732 0.053 7.15 3.74 11.01
3/26/2021 10:00:00 AM 8.76 47.768 0.053 7.15 3.82 10.99
3/26/2021 10:15:00 AM 8.79 47.822 0.053 7.18 3.61 10.98
3/26/2021 10:30:00 AM 8.83 47.894 0.054 7.13 3.28 10.95
3/26/2021 10:45:00 AM 8.9 48.02 0.053 7.15 3.44 11.01
3/26/2021 11:00:00 AM 8.99 48.182 0.053 7.17 3.42 11.04
3/26/2021 11:15:00 AM 9.05 48.29 0.053 7.22 3.65 11.04
3/26/2021 11:30:00 AM 9.14 48.452 0.053 7.24 3.65 11.06
3/26/2021 11:45:00 AM 9.27 48.686 0.053 7.26 3.36 11.07
3/26/2021 12:00:00 PM 9.31 48.758 0.053 7.24 3.58 11
3/26/2021 12:15:00 PM 9.36 48.848 0.053 7.27 3.47 10.98
3/26/2021 12:30:00 PM 9.48 49.064 0.053 7.27 3.63 11.01
3/26/2021 12:45:00 PM 9.55 49.19 0.053 7.28 3.79 11.02
3/26/2021 1:00:00 PM 9.67 49.406 0.053 7.3 3.51 11.03
3/26/2021 1:15:00 PM 9.83 49.694 0.053 7.3 3.66 11.02
3/26/2021 1:30:00 PM 9.86 49.748 0.053 7.32 3.68 11
3/26/2021 1:45:00 PM 9.84 49.712 0.053 7.33 3.63 11
3/26/2021 2:00:00 PM 9.81 49.658 0.053 7.33 3.53 10.99
3/26/2021 2:15:00 PM 9.82 49.676 0.053 7.34 3.69 11
3/26/2021 2:30:00 PM 9.87 49.766 0.053 7.33 3.43 11
3/26/2021 2:45:00 PM 9.88 49.784 0.053 7.33 3.71 11
3/26/2021 3:00:00 PM 9.83 49.694 0.053 7.34 3.62 11.01
3/26/2021 3:15:00 PM 9.72 49.496 0.053 7.33 3.69 11.03
3/26/2021 3:30:00 PM 9.65 49.37 0.053 7.33 3.51 11.04
3/26/2021 3:45:00 PM 9.56 49.208 0.053 7.3 3.66 11.03
3/26/2021 4:00:00 PM 9.48 49.064 0.053 7.32 3.61 11.05
3/26/2021 4:15:00 PM 9.42 48.956 0.053 7.3 3.74 11.07
3/26/2021 4:30:00 PM 9.33 48.794 0.053 7.28 3.62 11.07
3/26/2021 4:45:00 PM 9.22 48.596 0.053 7.27 3.8 11.07
3/26/2021 5:00:00 PM 9.11 48.398 0.053 7.26 3.61 11.06
3/26/2021 5:15:00 PM 9.01 48.218 0.053 7.25 3.68 11.06
3/26/2021 5:30:00 PM 8.93 48.074 0.053 7.23 3.85 11.08
3/26/2021 5:45:00 PM 8.86 47.948 0.053 7.23 3.58 11.09
3/26/2021 6:00:00 PM 8.77 47.786 0.053 7.2 3.67 11.07
3/26/2021 6:15:00 PM 8.67 47.606 0.053 7.17 3.41 11.04
3/26/2021 6:30:00 PM 8.59 47.462 0.053 7.15 3.39 11.03
3/26/2021 6:45:00 PM 8.49 47.282 0.053 7.13 3.55 11.01
3/26/2021 7:00:00 PM 8.41 47.138 0.054 7.11 3.74 10.98
3/26/2021 7:15:00 PM 8.32 46.976 0.054 7.06 3.23 10.97
3/26/2021 7:30:00 PM 8.24 46.832 0.054 7.05 3.49 10.96
3/26/2021 7:45:00 PM 8.15 46.67 0.054 7.04 3.35 10.96
3/26/2021 8:00:00 PM 8.07 46.526 0.054 7.04 3.49 10.97
3/26/2021 8:15:00 PM 8 46.4 0.054 7.03 3.56 10.99
3/26/2021 8:30:00 PM 7.94 46.292 0.054 7.03 3.85 11
3/26/2021 8:45:00 PM 7.88 46.184 0.054 7.03 3.62 11.02
3/26/2021 9:00:00 PM 7.82 46.076 0.054 7.02 3.56 11.03
3/26/2021 9:15:00 PM 7.76 45.968 0.054 7 3.9 11.05
3/26/2021 9:30:00 PM 7.7 45.86 0.054 6.99 3.68 11.07
3/26/2021 9:45:00 PM 7.65 45.77 0.054 7 3.48 11.09
3/26/2021 10:00:00 PM 7.6 45.68 0.054 7.01 3.43 11.1
3/26/2021 10:15:00 PM 7.56 45.608 0.054 7 3.45 11.12
3/26/2021 10:30:00 PM 7.52 45.536 0.054 6.99 3.35 11.13
3/26/2021 10:45:00 PM 7.48 45.464 0.054 7.01 3.45 11.14
3/26/2021 11:00:00 PM 7.44 45.392 0.054 6.99 3.6 11.16
3/26/2021 11:15:00 PM 7.41 45.338 0.054 6.99 3.22 11.17
3/26/2021 11:30:00 PM 7.37 45.266 0.054 7 3.36 11.17
3/26/2021 11:45:00 PM 7.33 45.194 0.054 6.98 3.3 11.18
3/27/2021 12:00:00 AM 7.31 45.158 0.054 6.99 3.43 11.19
3/27/2021 12:15:00 AM 7.29 45.122 0.054 6.98 3.45 11.19
3/27/2021 12:30:00 AM 7.27 45.086 0.054 7 3.48 11.2
3/27/2021 12:45:00 AM 7.25 45.05 0.055 7 3.45 11.21
3/27/2021 1:00:00 AM 7.24 45.032 0.054 6.99 3.46 11.21
3/27/2021 1:15:00 AM 7.23 45.014 0.054 6.98 3.17 11.22
3/27/2021 1:30:00 AM 7.21 44.978 0.054 6.98 3.23 11.22
3/27/2021 1:45:00 AM 7.2 44.96 0.054 6.99 3.26 11.22
3/27/2021 2:00:00 AM 7.19 44.942 0.054 6.98 3.13 11.22
3/27/2021 2:15:00 AM 7.18 44.924 0.054 6.98 3.03 11.23
3/27/2021 2:30:00 AM 7.17 44.906 0.054 6.98 3.28 11.23
3/27/2021 2:45:00 AM 7.17 44.906 0.054 6.98 3.3 11.23
3/27/2021 3:00:00 AM 7.16 44.888 0.054 6.98 3.48 11.24
3/27/2021 3:15:00 AM 7.15 44.87 0.054 6.97 3.09 11.24
3/27/2021 3:30:00 AM 7.14 44.852 0.054 6.99 3.37 11.24
3/27/2021 3:45:00 AM 7.13 44.834 0.054 6.99 3.31 11.24
3/27/2021 4:00:00 AM 7.13 44.834 0.054 6.97 3.24 11.24
3/27/2021 4:15:00 AM 7.12 44.816 0.054 6.98 3.15 11.24
3/27/2021 4:30:00 AM 7.12 44.816 0.054 6.96 3.23 11.24
3/27/2021 4:45:00 AM 7.11 44.798 0.054 6.97 3.28 11.25
3/27/2021 5:00:00 AM 7.11 44.798 0.054 6.97 3.09 11.25
3/27/2021 5:15:00 AM 7.1 44.78 0.054 6.96 3.2 11.25
3/27/2021 5:30:00 AM 7.1 44.78 0.054 7.01 3.12 11.25
3/27/2021 5:45:00 AM 7.1 44.78 0.054 6.97 3.25 11.25
3/27/2021 6:00:00 AM 7.1 44.78 0.054 6.97 3.48 11.25
3/27/2021 6:15:00 AM 7.09 44.762 0.054 6.96 3.2 11.26
3/27/2021 6:30:00 AM 7.09 44.762 0.054 6.96 3.16 11.26
3/27/2021 6:45:00 AM 7.09 44.762 0.054 6.98 2.98 11.27
3/27/2021 7:00:00 AM 7.09 44.762 0.054 6.96 3.26 11.27
3/27/2021 7:15:00 AM 7.08 44.744 0.054 6.96 3.46 11.27
3/27/2021 7:30:00 AM 7.09 44.762 0.055 6.97 3.1 11.3
3/27/2021 7:45:00 AM 7.09 44.762 0.054 6.99 3.01 11.34
3/27/2021 8:00:00 AM 7.09 44.762 0.054 7.02 3.05 11.37
3/27/2021 8:15:00 AM 7.1 44.78 0.054 7 2.88 11.39
3/27/2021 8:30:00 AM 7.12 44.816 0.054 7.01 2.91 11.44
3/27/2021 8:45:00 AM 7.15 44.87 0.054 7.07 2.98 11.53
3/27/2021 9:00:00 AM 7.18 44.924 0.054 7.07 2.88 11.58
3/27/2021 9:15:00 AM 7.21 44.978 0.054 7.12 2.84 11.63
3/27/2021 9:30:00 AM 7.26 45.068 0.054 7.12 2.71 11.67
3/27/2021 9:45:00 AM 7.31 45.158 0.054 7.16 2.77 11.68
3/27/2021 10:00:00 AM 7.43 45.374 0.054 7.17 2.78 11.71
3/27/2021 10:15:00 AM 7.49 45.482 0.054 7.19 2.81 11.69
3/27/2021 10:30:00 AM 7.55 45.59 0.054 7.18 2.78 11.7
3/27/2021 10:45:00 AM 7.66 45.788 0.054 7.23 2.83 11.7
3/27/2021 11:00:00 AM 7.81 46.058 0.054 7.24 2.88 11.68
3/27/2021 11:15:00 AM 7.9 46.22 0.054 7.25 2.9 11.67
3/27/2021 11:30:00 AM 7.94 46.292 0.053 7.27 2.84 11.64
3/27/2021 11:45:00 AM 8.11 46.598 0.053 7.27 2.8 11.61
3/27/2021 12:00:00 PM 8.36 47.048 0.053 7.28 2.88 11.55
3/27/2021 12:15:00 PM 8.77 47.786 0.054 7.3 2.87 11.49
3/27/2021 12:30:00 PM 9.05 48.29 0.053 7.3 2.77 11.42
3/27/2021 12:45:00 PM 9.34 48.812 0.053 7.34 2.76 11.35
3/27/2021 1:00:00 PM 9.6 49.28 0.053 7.32 2.94 11.27
3/27/2021 1:15:00 PM 9.73 49.514 0.053 7.34 2.9 11.23
3/27/2021 1:30:00 PM 9.82 49.676 0.053 7.36 2.88 11.21
3/27/2021 1:45:00 PM 9.88 49.784 0.053 7.37 2.9 11.19
3/27/2021 2:00:00 PM 9.98 49.964 0.053 7.36 2.91 11.17
3/27/2021 2:15:00 PM 10.09 50.162 0.053 7.39 2.87 11.13
3/27/2021 2:30:00 PM 10.2 50.36 0.053 7.41 3.13 11.1
3/27/2021 2:45:00 PM 10.28 50.504 0.053 7.41 3.07 11.07
3/27/2021 3:00:00 PM 10.36 50.648 0.053 7.41 3.02 11.05
3/27/2021 3:15:00 PM 10.42 50.756 0.053 7.41 2.94 11.01
3/27/2021 3:30:00 PM 10.45 50.81 0.053 7.41 2.98 11
3/27/2021 3:45:00 PM 10.47 50.846 0.053 7.43 3.09 10.98
3/27/2021 4:00:00 PM 10.47 50.846 0.053 7.42 2.91 10.97
3/27/2021 4:15:00 PM 10.46 50.828 0.053 7.41 2.92 10.96
3/27/2021 4:30:00 PM 10.43 50.774 0.053 7.43 3.18 10.96
3/27/2021 4:45:00 PM 10.39 50.702 0.054 7.41 4.31 10.94
3/27/2021 5:00:00 PM 10.38 50.684 0.056 7.34 6.28 10.89
3/27/2021 5:15:00 PM 10.29 50.522 0.057 7.29 5.67 10.81
3/27/2021 5:30:00 PM 10.23 50.414 0.056 7.25 4.47 10.79
3/27/2021 5:45:00 PM 10.18 50.324 0.057 7.23 4.4 10.76
3/27/2021 6:00:00 PM 10.11 50.198 0.057 7.21 4.91 10.72
3/27/2021 6:15:00 PM 10.02 50.036 0.057 7.17 4.17 10.7
3/27/2021 6:30:00 PM 9.91 49.838 0.056 7.16 3.55 10.68
3/27/2021 6:45:00 PM 9.79 49.622 0.056 7.15 3.29 10.67
3/27/2021 7:00:00 PM 9.67 49.406 0.056 7.14 3.26 10.65
3/27/2021 7:15:00 PM 9.54 49.172 0.056 7.11 3.19 10.65
3/27/2021 7:30:00 PM 9.41 48.938 0.056 7.1 3.13 10.65
3/27/2021 7:45:00 PM 9.26 48.668 0.056 7.07 3.2 10.65
3/27/2021 8:00:00 PM 9.13 48.434 0.056 7.07 3.18 10.65
3/27/2021 8:15:00 PM 9.01 48.218 0.056 7.04 3.26 10.66
3/27/2021 8:30:00 PM 8.89 48.002 0.056 7.05 3.53 10.7
3/27/2021 8:45:00 PM 8.78 47.804 0.056 7.03 3.43 10.72
3/27/2021 9:00:00 PM 8.68 47.624 0.056 7.04 3.43 10.74
3/27/2021 9:15:00 PM 8.57 47.426 0.056 7.01 3.29 10.77
3/27/2021 9:30:00 PM 8.47 47.246 0.056 7.02 3.32 10.8
3/27/2021 9:45:00 PM 8.37 47.066 0.056 7 3.42 10.82
3/27/2021 10:00:00 PM 8.27 46.886 0.056 6.99 3.33 10.85
3/27/2021 10:15:00 PM 8.16 46.688 0.056 7 3.25 10.88
3/27/2021 10:30:00 PM 8.07 46.526 0.056 6.98 3.21 10.91
3/27/2021 10:45:00 PM 7.97 46.346 0.056 6.99 3.23 10.93
3/27/2021 11:00:00 PM 7.88 46.184 0.056 6.97 3.35 10.95
3/27/2021 11:15:00 PM 7.8 46.04 0.056 6.98 3.1 10.97
3/27/2021 11:30:00 PM 7.71 45.878 0.056 6.98 3.2 10.99
3/27/2021 11:45:00 PM 7.63 45.734 0.057 6.96 3.3 11
3/28/2021 12:00:00 AM 7.56 45.608 0.057 6.98 3.2 11.02
3/28/2021 12:15:00 AM 7.48 45.464 0.057 6.98 3.25 11.04
3/28/2021 12:30:00 AM 7.41 45.338 0.057 6.97 3.16 11.06
3/28/2021 12:45:00 AM 7.33 45.194 0.056 6.99 3.15 11.09
3/28/2021 1:00:00 AM 7.26 45.068 0.056 6.98 3.13 11.11
3/28/2021 1:15:00 AM 7.19 44.942 0.056 6.98 3 11.13
3/28/2021 1:30:00 AM 7.12 44.816 0.056 6.96 3.03 11.14
3/28/2021 1:45:00 AM 7.06 44.708 0.056 6.96 3 11.16
3/28/2021 2:00:00 AM 7 44.6 0.056 6.96 2.94 11.18
3/28/2021 2:15:00 AM 6.94 44.492 0.056 6.96 3.23 11.19
3/28/2021 2:30:00 AM 6.88 44.384 0.056 6.96 3.09 11.21
3/28/2021 2:45:00 AM 6.83 44.294 0.056 6.97 3.09 11.22
3/28/2021 3:00:00 AM 6.77 44.186 0.056 6.96 2.9 11.23
3/28/2021 3:15:00 AM 6.72 44.096 0.056 6.96 3.06 11.25
3/28/2021 3:30:00 AM 6.67 44.006 0.056 6.97 3.09 11.26
3/28/2021 3:45:00 AM 6.63 43.934 0.056 6.93 2.88 11.27
3/28/2021 4:00:00 AM 6.59 43.862 0.056 6.96 2.86 11.28
3/28/2021 4:15:00 AM 6.55 43.79 0.056 6.97 2.94 11.29
3/28/2021 4:30:00 AM 6.52 43.736 0.056 6.97 2.88 11.29
3/28/2021 4:45:00 AM 6.5 43.7 0.056 6.97 2.86 11.29
3/28/2021 5:00:00 AM 6.48 43.664 0.056 6.96 2.92 11.3
3/28/2021 5:15:00 AM 6.47 43.646 0.056 6.96 2.82 11.3
3/28/2021 5:30:00 AM 6.46 43.628 0.056 6.96 2.84 11.3
3/28/2021 5:45:00 AM 6.45 43.61 0.056 6.96 2.9 11.31
3/28/2021 6:00:00 AM 6.45 43.61 0.056 6.97 2.78 11.3
3/28/2021 6:15:00 AM 6.46 43.628 0.056 6.97 2.81 11.29
3/28/2021 6:30:00 AM 6.47 43.646 0.056 6.94 2.81 11.3
3/28/2021 6:45:00 AM 6.49 43.682 0.056 6.96 3.06 11.3
3/28/2021 7:00:00 AM 6.52 43.736 0.056 6.96 3.02 11.28
3/28/2021 7:15:00 AM 6.56 43.808 0.056 6.96 2.87 11.28
3/28/2021 7:30:00 AM 6.61 43.898 0.056 6.98 2.81 11.26
3/28/2021 7:45:00 AM 6.65 43.97 0.056 6.97 2.82 11.27
3/28/2021 8:00:00 AM 6.71 44.078 0.056 6.99 2.75 11.27
3/28/2021 8:15:00 AM 6.77 44.186 0.056 7 2.86 11.26
3/28/2021 8:30:00 AM 6.84 44.312 0.056 7 2.87 11.26
3/28/2021 8:45:00 AM 6.91 44.438 0.056 7.01 2.7 11.25
3/28/2021 9:00:00 AM 6.98 44.564 0.056 7.02 2.68 11.25
3/28/2021 9:15:00 AM 7.05 44.69 0.056 7.03 3.15 11.25
3/28/2021 9:30:00 AM 7.13 44.834 0.056 7.06 2.95 11.27
3/28/2021 9:45:00 AM 7.19 44.942 0.056 7.08 2.79 11.26
3/28/2021 10:00:00 AM 7.25 45.05 0.056 7.05 2.72 11.24
3/28/2021 10:15:00 AM 7.31 45.158 0.056 7.08 2.59 11.23
3/28/2021 10:30:00 AM 7.36 45.248 0.056 7.09 2.54 11.24
3/28/2021 10:45:00 AM 7.43 45.374 0.056 7.09 2.56 11.27
3/28/2021 11:00:00 AM 7.48 45.464 0.055 7.11 2.63 11.29
3/28/2021 11:15:00 AM 7.56 45.608 0.055 7.15 2.69 11.32
3/28/2021 11:30:00 AM 7.62 45.716 0.055 7.19 2.98 11.33
3/28/2021 11:45:00 AM 7.68 45.824 0.055 7.16 2.74 11.31
3/28/2021 12:00:00 PM 7.73 45.914 0.055 7.17 2.75 11.3
3/28/2021 12:15:00 PM 7.8 46.04 0.055 7.18 2.74 11.31
3/28/2021 12:30:00 PM 7.88 46.184 0.055 7.21 2.64 11.31
3/28/2021 12:45:00 PM 7.93 46.274 0.055 7.2 2.92 11.27
3/28/2021 1:00:00 PM 8 46.4 0.055 7.22 2.69 11.27
3/28/2021 1:15:00 PM 8.07 46.526 0.055 7.23 2.64 11.25
3/28/2021 1:30:00 PM 8.13 46.634 0.055 7.23 2.69 11.23
3/28/2021 1:45:00 PM 8.18 46.724 0.055 7.23 2.67 11.18
3/28/2021 2:00:00 PM 8.23 46.814 0.055 7.24 2.78 11.15
3/28/2021 2:15:00 PM 8.28 46.904 0.055 7.21 2.77 11.1
3/28/2021 2:30:00 PM 8.33 46.994 0.055 7.24 3.08 11.12
3/28/2021 2:45:00 PM 8.34 47.012 0.055 7.22 3.11 11.08
3/28/2021 3:00:00 PM 8.34 47.012 0.055 7.22 3.41 11.02
3/28/2021 3:15:00 PM 8.37 47.066 0.055 7.18 3.89 11.05
3/28/2021 3:30:00 PM 8.43 47.174 0.056 7.25 4.1 11.12
3/28/2021 3:45:00 PM 8.47 47.246 0.056 7.25 4.53 11.08
3/28/2021 4:00:00 PM 8.5 47.3 0.055 7.24 4.52 11.12
3/28/2021 4:15:00 PM 8.49 47.282 0.055 7.27 4.53 11.13
3/28/2021 4:30:00 PM 8.47 47.246 0.055 7.24 4.94 11.11
3/28/2021 4:45:00 PM 8.46 47.228 0.055 7.24 5.57 11.12
3/28/2021 5:00:00 PM 8.43 47.174 0.056 7.2 5.77 11.07
3/28/2021 5:15:00 PM 8.4 47.12 0.057 7.18 6.81 11.07
3/28/2021 5:30:00 PM 8.37 47.066 0.057 7.2 7.28 11.08
3/28/2021 5:45:00 PM 8.31 46.958 0.058 7.18 7.65 11.04
3/28/2021 6:00:00 PM 8.27 46.886 0.059 7.16 7.95 11.04
3/28/2021 6:15:00 PM 8.23 46.814 0.06 7.17 8.31 11
3/28/2021 6:30:00 PM 8.16 46.688 0.062 7.12 8.05 10.96
3/28/2021 6:45:00 PM 8.09 46.562 0.063 7.12 8.5 10.96
3/28/2021 7:00:00 PM 8 46.4 0.064 7.13 8.23 10.95
3/28/2021 7:15:00 PM 7.91 46.238 0.064 7.11 8.15 10.95
3/28/2021 7:30:00 PM 7.82 46.076 0.065 7.1 8.19 10.94
3/28/2021 7:45:00 PM 7.73 45.914 0.065 7.07 7.92 10.94
3/28/2021 8:00:00 PM 7.62 45.716 0.065 7.07 7.95 10.95
3/28/2021 8:15:00 PM 7.53 45.554 0.065 7.05 7.75 10.97
3/28/2021 8:30:00 PM 7.42 45.356 0.065 7.03 7.2 10.99
3/28/2021 8:45:00 PM 7.33 45.194 0.065 7.04 6.88 11.02
3/28/2021 9:00:00 PM 7.23 45.014 0.064 7.03 8.15 11.05
3/28/2021 9:15:00 PM 7.14 44.852 0.064 7.03 6.72 11.08
3/28/2021 9:30:00 PM 7.06 44.708 0.064 7.03 6.55 11.1
3/28/2021 9:45:00 PM 6.99 44.582 0.064 7.02 6.32 11.12
3/28/2021 10:00:00 PM 6.91 44.438 0.064 7.02 6.19 11.15
3/28/2021 10:15:00 PM 6.84 44.312 0.063 7.03 5.95 11.18
3/28/2021 10:30:00 PM 6.76 44.168 0.064 7.03 6.23 11.2
3/28/2021 10:45:00 PM 6.69 44.042 0.063 7.03 6.1 11.22
3/28/2021 11:00:00 PM 6.64 43.952 0.063 7.03 6.03 11.24
3/28/2021 11:15:00 PM 6.58 43.844 0.063 7.02 5.61 11.26
3/28/2021 11:30:00 PM 6.5 43.7 0.063 7.02 5.35 11.28
3/28/2021 11:45:00 PM 6.42 43.556 0.063 7.04 5.03 11.31
3/29/2021 12:00:00 AM 6.28 43.304 0.062 7.02 5.06 11.32
3/29/2021 12:15:00 AM 6.19 43.142 0.062 7.02 4.8 11.35
3/29/2021 12:30:00 AM 6.12 43.016 0.062 6.94 4.62 11.39
3/29/2021 12:45:00 AM 6.05 42.89 0.062 6.99 4.3 11.42
3/29/2021 1:00:00 AM 5.97 42.746 0.062 6.98 4.22 11.45
3/29/2021 1:15:00 AM 5.9 42.62 0.062 7 4.16 11.47
3/29/2021 1:30:00 AM 5.84 42.512 0.062 6.99 4.2 11.49
3/29/2021 1:45:00 AM 5.77 42.386 0.062 6.99 3.94 11.51
3/29/2021 2:00:00 AM 5.72 42.296 0.062 6.99 3.9 11.53
3/29/2021 2:15:00 AM 5.67 42.206 0.061 6.98 4.06 11.55
3/29/2021 2:30:00 AM 5.62 42.116 0.061 6.98 3.99 11.57
3/29/2021 2:45:00 AM 5.56 42.008 0.061 6.97 3.76 11.59
3/29/2021 3:00:00 AM 5.52 41.936 0.061 6.98 3.92 11.6
3/29/2021 3:15:00 AM 5.47 41.846 0.061 7 3.69 11.62
3/29/2021 3:30:00 AM 5.43 41.774 0.061 6.98 3.6 11.64
3/29/2021 3:45:00 AM 5.39 41.702 0.061 6.98 3.6 11.66
3/29/2021 4:00:00 AM 5.34 41.612 0.061 6.97 3.6 11.67
3/29/2021 4:15:00 AM 5.31 41.558 0.061 6.98 3.84 11.69
3/29/2021 4:30:00 AM 5.26 41.468 0.061 6.98 3.72 11.7
3/29/2021 4:45:00 AM 5.23 41.414 0.061 6.98 3.69 11.71
3/29/2021 5:00:00 AM 5.21 41.378 0.061 6.98 3.62 11.73
3/29/2021 5:15:00 AM 5.18 41.324 0.061 6.98 3.43 11.74
3/29/2021 5:30:00 AM 5.15 41.27 0.061 6.97 3.38 11.75
3/29/2021 5:45:00 AM 5.12 41.216 0.061 6.97 3.39 11.76
3/29/2021 6:00:00 AM 5.09 41.162 0.061 6.97 3.23 11.77
3/29/2021 6:15:00 AM 5.07 41.126 0.061 6.98 3.16 11.79
3/29/2021 6:30:00 AM 5.04 41.072 0.061 6.98 3.36 11.8
3/29/2021 6:45:00 AM 5.01 41.018 0.061 6.97 3.7 11.81
3/29/2021 7:00:00 AM 4.99 40.982 0.061 6.97 3.25 11.83
3/29/2021 7:15:00 AM 4.96 40.928 0.061 6.97 3.15 11.85
3/29/2021 7:30:00 AM 4.94 40.892 0.061 6.99 3.24 11.87
3/29/2021 7:45:00 AM 4.92 40.856 0.061 6.98 3.1 11.9
3/29/2021 8:00:00 AM 4.89 40.802 0.061 6.99 3.29 11.93
3/29/2021 8:15:00 AM 4.87 40.766 0.061 7 2.92 11.97
3/29/2021 8:30:00 AM 4.85 40.73 0.06 7 2.97 12.03
3/29/2021 8:45:00 AM 4.86 40.748 0.06 7.02 3.05 12.1
3/29/2021 9:00:00 AM 4.86 40.748 0.06 7.06 2.9 12.16
3/29/2021 9:15:00 AM 4.86 40.748 0.06 7.06 2.79 12.2
3/29/2021 9:30:00 AM 4.86 40.748 0.06 7.09 2.73 12.23
3/29/2021 9:45:00 AM 4.86 40.748 0.06 7.12 2.78 12.27
3/29/2021 10:00:00 AM 4.87 40.766 0.06 7.11 2.77 12.3
3/29/2021 10:15:00 AM 4.91 40.838 0.06 7.12 2.89 12.33
3/29/2021 10:30:00 AM 4.94 40.892 0.06 7.15 2.66 12.36
3/29/2021 10:45:00 AM 5 41 0.059 7.16 2.75 12.38
3/29/2021 11:00:00 AM 5.05 41.09 0.059 7.18 2.73 12.4
3/29/2021 11:15:00 AM 5.11 41.198 0.059 7.19 2.72 12.41
3/29/2021 11:30:00 AM 5.22 41.396 0.059 7.2 2.85 12.42
3/29/2021 11:45:00 AM 5.34 41.612 0.059 7.23 2.83 12.4
3/29/2021 12:00:00 PM 5.48 41.864 0.059 7.24 2.79 12.39
3/29/2021 12:15:00 PM 5.64 42.152 0.059 7.25 2.68 12.35
3/29/2021 12:30:00 PM 5.83 42.494 0.059 7.26 2.6 12.32
3/29/2021 12:45:00 PM 6.04 42.872 0.059 7.25 2.65 12.26
3/29/2021 1:00:00 PM 6.14 43.052 0.059 7.27 2.73 12.2
3/29/2021 1:15:00 PM 6.36 43.448 0.058 7.26 2.62 12.15
3/29/2021 1:30:00 PM 6.59 43.862 0.058 7.26 2.88 12.08
3/29/2021 1:45:00 PM 6.83 44.294 0.058 7.27 2.6 12.02
3/29/2021 2:00:00 PM 7.06 44.708 0.058 7.27 2.67 11.94
3/29/2021 2:15:00 PM 7.24 45.032 0.058 7.26 2.72 11.88
3/29/2021 2:30:00 PM 7.4 45.32 0.058 7.28 2.6 11.82
3/29/2021 2:45:00 PM 7.56 45.608 0.058 7.28 2.69 11.76
3/29/2021 3:00:00 PM 7.69 45.842 0.058 7.29 2.85 11.71
3/29/2021 3:15:00 PM 7.8 46.04 0.058 7.29 2.68 11.66
3/29/2021 3:30:00 PM 7.87 46.166 0.058 7.3 2.86 11.62
3/29/2021 3:45:00 PM 7.92 46.256 0.058 7.29 2.85 11.59
3/29/2021 4:00:00 PM 7.98 46.364 0.058 7.29 2.68 11.55
3/29/2021 4:15:00 PM 8.01 46.418 0.058 7.28 2.91 11.52
3/29/2021 4:30:00 PM 8.03 46.454 0.058 7.25 2.82 11.49
3/29/2021 4:45:00 PM 8.03 46.454 0.058 7.28 2.71 11.46
3/29/2021 5:00:00 PM 8 46.4 0.058 7.26 2.73 11.44
3/29/2021 5:15:00 PM 7.96 46.328 0.058 7.24 2.77 11.43
3/29/2021 5:30:00 PM 7.9 46.22 0.058 7.22 2.92 11.43
3/29/2021 5:45:00 PM 7.8 46.04 0.058 7.21 2.86 11.43
3/29/2021 6:00:00 PM 7.69 45.842 0.058 7.2 2.96 11.43
3/29/2021 6:15:00 PM 7.58 45.644 0.058 7.18 2.8 11.44
3/29/2021 6:30:00 PM 7.43 45.374 0.058 7.17 2.87 11.43
3/29/2021 6:45:00 PM 7.29 45.122 0.058 7.17 2.77 11.42
3/29/2021 7:00:00 PM 7.15 44.87 0.058 7.13 2.94 11.42
3/29/2021 7:15:00 PM 7.02 44.636 0.058 7.11 2.97 11.43
3/29/2021 7:30:00 PM 6.88 44.384 0.059 7.08 2.79 11.43
3/29/2021 7:45:00 PM 6.74 44.132 0.059 7.07 2.94 11.44
3/29/2021 8:00:00 PM 6.61 43.898 0.059 7.04 2.93 11.44
3/29/2021 8:15:00 PM 6.5 43.7 0.059 7.03 2.92 11.46
3/29/2021 8:30:00 PM 6.4 43.52 0.059 7.02 3.2 11.47
3/29/2021 8:45:00 PM 6.3 43.34 0.059 7 3.02 11.5
3/29/2021 9:00:00 PM 6.21 43.178 0.059 6.99 3.23 11.53
3/29/2021 9:15:00 PM 6.11 42.998 0.059 7.01 2.97 11.56
3/29/2021 9:30:00 PM 6.01 42.818 0.059 6.99 2.81 11.58
3/29/2021 9:45:00 PM 5.92 42.656 0.059 6.99 3.02 11.62
3/29/2021 10:00:00 PM 5.83 42.494 0.059 7 2.89 11.64
3/29/2021 10:15:00 PM 5.75 42.35 0.059 6.99 2.91 11.66
3/29/2021 10:30:00 PM 5.67 42.206 0.059 6.98 3.02 11.69
3/29/2021 10:45:00 PM 5.59 42.062 0.058 6.99 2.95 11.71
3/29/2021 11:00:00 PM 5.52 41.936 0.058 6.98 2.86 11.74
3/29/2021 11:15:00 PM 5.45 41.81 0.058 6.98 2.85 11.76
3/29/2021 11:30:00 PM 5.38 41.684 0.058 6.98 2.93 11.78
3/29/2021 11:45:00 PM 5.31 41.558 0.058 6.98 2.74 11.8
3/30/2021 12:00:00 AM 5.25 41.45 0.058 6.98 2.96 11.82
3/30/2021 12:15:00 AM 5.19 41.342 0.058 6.97 2.85 11.84
3/30/2021 12:30:00 AM 5.13 41.234 0.058 6.97 2.95 11.86
3/30/2021 12:45:00 AM 5.07 41.126 0.058 6.97 2.92 11.87
3/30/2021 1:00:00 AM 5.02 41.036 0.058 6.97 2.86 11.9
3/30/2021 1:15:00 AM 4.97 40.946 0.058 6.96 2.86 11.92
3/30/2021 1:30:00 AM 4.92 40.856 0.058 6.97 2.84 11.93
3/30/2021 1:45:00 AM 4.87 40.766 0.058 6.96 2.69 11.95
3/30/2021 2:00:00 AM 4.82 40.676 0.058 6.96 2.82 11.96
3/30/2021 2:15:00 AM 4.77 40.586 0.058 6.97 2.83 11.98
3/30/2021 2:30:00 AM 4.72 40.496 0.058 6.99 3.38 11.99
3/30/2021 2:45:00 AM 4.68 40.424 0.058 6.93 3.05 12.01
3/30/2021 3:00:00 AM 4.64 40.352 0.058 6.95 2.87 12.02
3/30/2021 3:15:00 AM 4.6 40.28 0.058 6.95 2.75 12.03
3/30/2021 3:30:00 AM 4.56 40.208 0.058 6.95 2.85 12.04
3/30/2021 3:45:00 AM 4.52 40.136 0.058 6.95 3.1 12.06
3/30/2021 4:00:00 AM 4.48 40.064 0.058 6.94 2.74 12.07
3/30/2021 4:15:00 AM 4.45 40.01 0.058 6.94 2.63 12.08
3/30/2021 4:30:00 AM 4.41 39.938 0.058 6.96 2.75 12.09
3/30/2021 4:45:00 AM 4.38 39.884 0.058 6.97 2.7 12.1
3/30/2021 5:00:00 AM 4.34 39.812 0.058 6.97 2.74 12.11
3/30/2021 5:15:00 AM 4.31 39.758 0.058 6.97 2.77 12.12
3/30/2021 5:30:00 AM 4.28 39.704 0.058 6.96 2.85 12.13
3/30/2021 5:45:00 AM 4.25 39.65 0.058 6.95 2.65 12.14
3/30/2021 6:00:00 AM 4.22 39.596 0.058 6.96 2.64 12.16
3/30/2021 6:15:00 AM 4.18 39.524 0.058 6.95 2.79 12.17
3/30/2021 6:30:00 AM 4.16 39.488 0.058 6.99 3.33 12.18
3/30/2021 6:45:00 AM 4.13 39.434 0.057 6.98 2.93 12.19
3/30/2021 7:00:00 AM 4.1 39.38 0.057 6.95 2.73 12.2
3/30/2021 7:15:00 AM 4.08 39.344 0.057 6.95 2.76 12.23
3/30/2021 7:30:00 AM 4.06 39.308 0.057 6.96 2.85 12.27
3/30/2021 7:45:00 AM 4.04 39.272 0.057 6.96 2.75 12.32
3/30/2021 8:00:00 AM 4.03 39.254 0.057 6.99 2.76 12.36
3/30/2021 8:15:00 AM 4.04 39.272 0.057 7.01 2.63 12.43
3/30/2021 8:30:00 AM 4.06 39.308 0.057 7.02 2.55 12.47
3/30/2021 8:45:00 AM 4.09 39.362 0.057 7.04 2.58 12.5
3/30/2021 9:00:00 AM 4.14 39.452 0.057 7.05 2.54 12.54
3/30/2021 9:15:00 AM 4.21 39.578 0.057 7.07 2.66 12.56
3/30/2021 9:30:00 AM 4.32 39.776 0.057 7.08 2.42 12.56
3/30/2021 9:45:00 AM 4.45 40.01 0.057 7.11 2.47 12.57
3/30/2021 10:00:00 AM 4.62 40.316 0.057 7.13 2.49 12.56
3/30/2021 10:15:00 AM 4.81 40.658 0.057 7.14 2.48 12.54
3/30/2021 10:30:00 AM 5.03 41.054 0.057 7.16 2.33 12.49
3/30/2021 10:45:00 AM 5.27 41.486 0.056 7.17 2.42 12.44
3/30/2021 11:00:00 AM 5.52 41.936 0.056 7.19 2.45 12.39
3/30/2021 11:15:00 AM 5.78 42.404 0.056 7.2 2.6 12.33
3/30/2021 11:30:00 AM 6.07 42.926 0.056 7.22 2.45 12.25
3/30/2021 11:45:00 AM 6.37 43.466 0.056 7.23 2.48 12.17
3/30/2021 12:00:00 PM 6.68 44.024 0.056 7.26 2.46 12.09
3/30/2021 12:15:00 PM 6.99 44.582 0.056 7.26 2.48 12.01
3/30/2021 12:30:00 PM 7.29 45.122 0.056 7.27 2.52 11.93
3/30/2021 12:45:00 PM 7.59 45.662 0.056 7.26 2.65 11.84
3/30/2021 1:00:00 PM 7.87 46.166 0.056 7.28 2.44 11.76
3/30/2021 1:15:00 PM 8.14 46.652 0.055 7.28 2.51 11.69
3/30/2021 1:30:00 PM 8.39 47.102 0.057 7.29 2.07 11.61
3/30/2021 1:45:00 PM 8.62 47.516 0.055 7.29 2.52 11.54
3/30/2021 2:00:00 PM 8.85 47.93 0.055 7.31 2.56 11.48
3/30/2021 2:15:00 PM 9.06 48.308 0.055 7.3 2.61 11.4
3/30/2021 2:30:00 PM 9.25 48.65 0.055 7.32 2.63 11.34
3/30/2021 2:45:00 PM 9.42 48.956 0.055 7.32 2.65 11.29
3/30/2021 3:00:00 PM 9.56 49.208 0.055 7.33 2.67 11.24
3/30/2021 3:15:00 PM 9.69 49.442 0.055 7.35 2.76 11.19
3/30/2021 3:30:00 PM 9.8 49.64 0.055 7.34 2.64 11.15
3/30/2021 3:45:00 PM 9.89 49.802 0.055 7.34 2.72 11.1
3/30/2021 4:00:00 PM 9.96 49.928 0.055 7.32 2.81 11.06
3/30/2021 4:15:00 PM 10 50 0.055 7.32 2.68 11.04
3/30/2021 4:30:00 PM 10.02 50.036 0.055 7.34 2.78 11.05
3/30/2021 4:45:00 PM 10 50 0.055 7.33 3.02 11.01
3/30/2021 5:00:00 PM 9.98 49.964 0.055 7.3 2.78 10.96
3/30/2021 5:15:00 PM 9.94 49.892 0.055 7.28 2.8 10.94
3/30/2021 5:30:00 PM 9.88 49.784 0.055 7.27 2.86 10.92
3/30/2021 5:45:00 PM 9.79 49.622 0.056 7.26 2.79 10.91
3/30/2021 6:00:00 PM 9.69 49.442 0.056 7.24 2.86 10.91
3/30/2021 6:15:00 PM 9.58 49.244 0.056 7.23 2.96 10.92
3/30/2021 6:30:00 PM 9.47 49.046 0.056 7.23 2.97 10.95
3/30/2021 6:45:00 PM 9.33 48.794 0.056 7.19 2.88 10.92
3/30/2021 7:00:00 PM 9.2 48.56 0.056 7.15 2.95 10.9
3/30/2021 7:15:00 PM 9.07 48.326 0.056 7.14 2.95 10.87
3/30/2021 7:30:00 PM 8.93 48.074 0.056 7.12 2.87 10.86
3/30/2021 7:45:00 PM 8.8 47.84 0.056 7.1 3.07 10.83
3/30/2021 8:00:00 PM 8.69 47.642 0.056 7.08 3.02 10.82
3/30/2021 8:15:00 PM 8.59 47.462 0.056 7.06 3.08 10.83
3/30/2021 8:30:00 PM 8.5 47.3 0.056 7.04 3.07 10.84
3/30/2021 8:45:00 PM 8.41 47.138 0.056 7.02 3.06 10.86
3/30/2021 9:00:00 PM 8.32 46.976 0.056 7.02 3.09 10.88
3/30/2021 9:15:00 PM 8.24 46.832 0.056 7.02 3.07 10.9
3/30/2021 9:30:00 PM 8.16 46.688 0.056 7.05 3.03 10.92
3/30/2021 9:45:00 PM 8.08 46.544 0.056 7.01 3.09 10.95
3/30/2021 10:00:00 PM 8 46.4 0.056 7.02 3.02 10.97
3/30/2021 10:15:00 PM 7.94 46.292 0.056 7.02 2.91 10.99
3/30/2021 10:30:00 PM 7.87 46.166 0.056 7.01 3.1 11.01
3/30/2021 10:45:00 PM 7.81 46.058 0.056 7 2.97 11.03
3/30/2021 11:00:00 PM 7.75 45.95 0.057 7.01 2.93 11.05
3/30/2021 11:15:00 PM 7.7 45.86 0.057 7.01 3.01 11.05
3/30/2021 11:30:00 PM 7.64 45.752 0.056 7 3.05 11.07
3/30/2021 11:45:00 PM 7.59 45.662 0.057 7.01 3 11.09
3/31/2021 12:00:00 AM 7.54 45.572 0.056 7 2.97 11.1
3/31/2021 12:15:00 AM 7.49 45.482 0.056 6.98 2.84 11.11
3/31/2021 12:30:00 AM 7.44 45.392 0.057 7 3.12 11.13
3/31/2021 12:45:00 AM 7.4 45.32 0.056 7 3.05 11.14
3/31/2021 1:00:00 AM 7.36 45.248 0.056 6.99 2.86 11.15
3/31/2021 1:15:00 AM 7.32 45.176 0.056 6.99 2.93 11.16
3/31/2021 1:30:00 AM 7.29 45.122 0.056 7 2.88 11.17
3/31/2021 1:45:00 AM 7.26 45.068 0.056 6.99 3.1 11.17
3/31/2021 2:00:00 AM 7.23 45.014 0.056 7 2.9 11.19
3/31/2021 2:15:00 AM 7.21 44.978 0.056 6.99 2.88 11.19
3/31/2021 2:30:00 AM 7.18 44.924 0.057 6.99 2.84 11.2
3/31/2021 2:45:00 AM 7.15 44.87 0.056 7 2.78 11.21
3/31/2021 3:00:00 AM 7.13 44.834 0.056 7.04 3.03 11.21
3/31/2021 3:15:00 AM 7.1 44.78 0.056 7.03 2.84 11.22
3/31/2021 3:30:00 AM 7.07 44.726 0.056 7.01 2.78 11.22
3/31/2021 3:45:00 AM 7.05 44.69 0.056 7.02 2.94 11.22
3/31/2021 4:00:00 AM 7.03 44.654 0.056 7.03 3.05 11.23
3/31/2021 4:15:00 AM 7.01 44.618 0.056 7.03 2.9 11.23
3/31/2021 4:30:00 AM 6.99 44.582 0.056 6.96 2.8 11.24
3/31/2021 4:45:00 AM 6.98 44.564 0.056 7.01 3.2 11.24
3/31/2021 5:00:00 AM 6.97 44.546 0.056 7.01 2.75 11.24
3/31/2021 5:15:00 AM 6.96 44.528 0.056 6.98 2.94 11.25
3/31/2021 5:30:00 AM 6.95 44.51 0.056 7 2.84 11.24
3/31/2021 5:45:00 AM 6.95 44.51 0.056 7 2.86 11.24
3/31/2021 6:00:00 AM 6.94 44.492 0.056 6.99 2.74 11.25
3/31/2021 6:15:00 AM 6.94 44.492 0.056 6.99 2.94 11.25
3/31/2021 6:30:00 AM 6.93 44.474 0.056 6.96 3.02 11.25
3/31/2021 6:45:00 AM 6.93 44.474 0.056 6.97 2.82 11.25
3/31/2021 7:00:00 AM 6.93 44.474 0.056 6.97 3.06 11.26
3/31/2021 7:15:00 AM 6.92 44.456 0.056 6.96 2.76 11.27
3/31/2021 7:30:00 AM 6.93 44.474 0.056 6.95 2.82 11.29
3/31/2021 7:45:00 AM 6.93 44.474 0.056 6.96 2.74 11.31
3/31/2021 8:00:00 AM 6.94 44.492 0.056 6.97 2.75 11.33
3/31/2021 8:15:00 AM 6.95 44.51 0.056 6.99 2.79 11.34
3/31/2021 8:30:00 AM 6.97 44.546 0.056 7 2.83 11.36
3/31/2021 8:45:00 AM 6.98 44.564 0.056 7.01 2.67 11.37
3/31/2021 9:00:00 AM 7 44.6 0.056 7.01 2.67 11.39
3/31/2021 9:15:00 AM 7.02 44.636 0.056 7.02 2.76 11.41
3/31/2021 9:30:00 AM 7.04 44.672 0.056 7.02 2.8 11.41
3/31/2021 9:45:00 AM 7.06 44.708 0.056 7.04 2.93 11.41
3/31/2021 10:00:00 AM 7.08 44.744 0.055 7.04 2.81 11.41
3/31/2021 10:15:00 AM 7.11 44.798 0.055 7.06 2.78 11.46
3/31/2021 10:30:00 AM 7.14 44.852 0.055 7.08 2.99 11.51
3/31/2021 10:45:00 AM 7.17 44.906 0.055 7.11 2.92 11.53
3/31/2021 11:00:00 AM 7.2 44.96 0.055 7.12 2.88 11.53
3/31/2021 11:15:00 AM 7.21 44.978 0.055 7.11 2.79 11.5
3/31/2021 11:30:00 AM 7.23 45.014 0.055 7.12 2.82 11.48
3/31/2021 11:45:00 AM 7.25 45.05 0.055 7.13 2.79 11.47
3/31/2021 12:00:00 PM 7.28 45.104 0.055 7.13 2.88 11.47
3/31/2021 12:15:00 PM 7.31 45.158 0.055 7.12 2.93 11.48
3/31/2021 12:30:00 PM 7.34 45.212 0.055 7.14 2.86 11.49
3/31/2021 12:45:00 PM 7.37 45.266 0.055 7.15 2.94 11.49
3/31/2021 1:00:00 PM 7.41 45.338 0.055 7.15 3.08 11.52
3/31/2021 1:15:00 PM 7.44 45.392 0.055 7.16 3.01 11.53
3/31/2021 1:30:00 PM 7.46 45.428 0.055 7.15 2.85 11.48
3/31/2021 1:45:00 PM 7.48 45.464 0.055 7.15 2.75 11.47
3/31/2021 2:00:00 PM 7.52 45.536 0.055 7.15 2.85 11.46
3/31/2021 2:15:00 PM 7.56 45.608 0.055 7.17 2.72 11.48
3/31/2021 2:30:00 PM 7.6 45.68 0.055 7.16 2.68 11.49
3/31/2021 2:45:00 PM 7.62 45.716 0.056 7.18 2.77 11.47
3/31/2021 3:00:00 PM 7.64 45.752 0.056 7.17 2.99 11.42
3/31/2021 3:15:00 PM 7.66 45.788 0.056 7.16 2.82 11.37
3/31/2021 3:30:00 PM 7.68 45.824 0.056 7.15 2.83 11.36
3/31/2021 3:45:00 PM 7.7 45.86 0.056 7.14 2.73 11.35
3/31/2021 4:00:00 PM 7.71 45.878 0.056 7.13 2.69 11.33
3/31/2021 4:15:00 PM 7.73 45.914 0.056 7.11 2.83 11.31
3/31/2021 4:30:00 PM 7.74 45.932 0.056 7.09 2.79 11.26
3/31/2021 4:45:00 PM 7.73 45.914 0.056 7.11 2.76 11.24
3/31/2021 5:00:00 PM 7.72 45.896 0.056 7.09 2.85 11.23
3/31/2021 5:15:00 PM 7.71 45.878 0.056 7.1 2.68 11.25
3/31/2021 5:30:00 PM 7.7 45.86 0.056 7.1 2.85 11.3
3/31/2021 5:45:00 PM 7.69 45.842 0.056 7.12 2.82 11.32
3/31/2021 6:00:00 PM 7.68 45.824 0.056 7.11 2.89 11.34
3/31/2021 6:15:00 PM 7.65 45.77 0.056 7.11 2.75 11.28
3/31/2021 6:30:00 PM 7.62 45.716 0.056 7.08 2.78 11.27
3/31/2021 6:45:00 PM 7.6 45.68 0.057 7.11 2.87 11.33
3/31/2021 7:00:00 PM 7.58 45.644 0.056 7.11 2.67 11.33
3/31/2021 7:15:00 PM 7.53 45.554 0.057 7.11 2.74 11.29
3/31/2021 7:30:00 PM 7.49 45.482 0.057 7.08 2.88 11.24
3/31/2021 7:45:00 PM 7.45 45.41 0.057 7.07 2.77 11.2
3/31/2021 8:00:00 PM 7.4 45.32 0.057 7.05 2.97 11.17
3/31/2021 8:15:00 PM 7.36 45.248 0.057 7.04 2.77 11.17
3/31/2021 8:30:00 PM 7.31 45.158 0.057 7.03 2.91 11.17
3/31/2021 8:45:00 PM 7.25 45.05 0.057 7.01 2.88 11.18
3/31/2021 9:00:00 PM 7.18 44.924 0.057 7.02 2.95 11.19
3/31/2021 9:15:00 PM 7.12 44.816 0.057 7.01 3.02 11.21
3/31/2021 9:30:00 PM 7.07 44.726 0.057 7 2.94 11.22
3/31/2021 9:45:00 PM 7.01 44.618 0.057 7.04 2.88 11.23
3/31/2021 10:00:00 PM 6.96 44.528 0.057 7.04 2.89 11.25
3/31/2021 10:15:00 PM 6.92 44.456 0.057 7.02 2.77 11.27
3/31/2021 10:30:00 PM 6.87 44.366 0.057 6.99 2.76 11.28
3/31/2021 10:45:00 PM 6.83 44.294 0.057 7.03 2.99 11.29
3/31/2021 11:00:00 PM 6.78 44.204 0.057 7.03 3.03 11.31
3/31/2021 11:15:00 PM 6.75 44.15 0.057 6.96 2.82 11.32
3/31/2021 11:30:00 PM 6.71 44.078 0.057 6.99 2.93 11.33
3/31/2021 11:45:00 PM 6.68 44.024 0.057 7.01 2.9 11.33
4/1/2021 12:00:00 AM 6.64 43.952 0.057 6.99 2.98 11.34
4/1/2021 12:15:00 AM 6.61 43.898 0.057 6.98 2.83 11.35
4/1/2021 12:30:00 AM 6.58 43.844 0.057 6.98 2.8 11.37
4/1/2021 12:45:00 AM 6.55 43.79 0.058 6.99 2.72 11.38
4/1/2021 1:00:00 AM 6.5 43.7 0.057 6.98 2.77 11.39
4/1/2021 1:15:00 AM 6.45 43.61 0.057 6.99 2.82 11.41
4/1/2021 1:30:00 AM 6.4 43.52 0.057 6.98 2.8 11.42
4/1/2021 1:45:00 AM 6.32 43.376 0.057 6.99 2.76 11.42
4/1/2021 2:00:00 AM 6.21 43.178 0.057 6.98 2.73 11.44
4/1/2021 2:15:00 AM 6.11 42.998 0.057 6.99 2.92 11.46
4/1/2021 2:30:00 AM 6.03 42.854 0.057 6.98 2.83 11.48
4/1/2021 2:45:00 AM 5.97 42.746 0.057 6.98 2.72 11.51
4/1/2021 3:00:00 AM 5.92 42.656 0.057 6.98 2.97 11.53
4/1/2021 3:15:00 AM 5.87 42.566 0.057 6.98 2.85 11.55
4/1/2021 3:30:00 AM 5.8 42.44 0.057 6.97 2.76 11.57
4/1/2021 3:45:00 AM 5.76 42.368 0.057 6.98 2.83 11.59
4/1/2021 4:00:00 AM 5.71 42.278 0.057 6.98 2.75 11.6
4/1/2021 4:15:00 AM 5.67 42.206 0.057 6.99 2.92 11.62
4/1/2021 4:30:00 AM 5.64 42.152 0.058 6.99 2.66 11.63
4/1/2021 4:45:00 AM 5.61 42.098 0.057 6.98 2.65 11.64
4/1/2021 5:00:00 AM 5.58 42.044 0.057 6.99 2.92 11.65
4/1/2021 5:15:00 AM 5.55 41.99 0.058 6.98 2.71 11.65
4/1/2021 5:30:00 AM 5.53 41.954 0.058 6.97 2.79 11.66
4/1/2021 5:45:00 AM 5.5 41.9 0.058 6.97 2.79 11.66
4/1/2021 6:00:00 AM 5.48 41.864 0.058 6.97 2.57 11.68
4/1/2021 6:15:00 AM 5.45 41.81 0.058 6.98 2.75 11.68
4/1/2021 6:30:00 AM 5.43 41.774 0.058 6.98 2.81 11.69
4/1/2021 6:45:00 AM 5.4 41.72 0.058 6.98 2.88 11.7
4/1/2021 7:00:00 AM 5.37 41.666 0.058 6.97 2.57 11.71
4/1/2021 7:15:00 AM 5.35 41.63 0.058 6.98 2.61 11.73
4/1/2021 7:30:00 AM 5.32 41.576 0.058 6.98 2.67 11.74
4/1/2021 7:45:00 AM 5.3 41.54 0.058 7 2.64 11.8
4/1/2021 8:00:00 AM 5.26 41.468 0.058 7.02 2.59 11.89
4/1/2021 8:15:00 AM 5.24 41.432 0.058 7.05 2.65 11.98
4/1/2021 8:30:00 AM 5.19 41.342 0.058 7.06 2.64 12.05
4/1/2021 8:45:00 AM 5.2 41.36 0.058 7.1 2.49 12.13
4/1/2021 9:00:00 AM 5.19 41.342 0.058 7.12 2.64 12.18
4/1/2021 9:15:00 AM 5.16 41.288 0.058 7.14 2.62 12.21
4/1/2021 9:30:00 AM 5.19 41.342 0.058 7.16 2.43 12.25
4/1/2021 9:45:00 AM 5.22 41.396 0.058 7.17 2.6 12.27
4/1/2021 10:00:00 AM 5.28 41.504 0.058 7.18 2.48 12.29
4/1/2021 10:15:00 AM 5.37 41.666 0.058 7.2 2.53 12.29
4/1/2021 10:30:00 AM 5.46 41.828 0.058 7.19 2.45 12.29
4/1/2021 10:45:00 AM 5.57 42.026 0.057 7.22 2.5 12.28
4/1/2021 11:00:00 AM 5.62 42.116 0.057 7.25 2.4 12.26
4/1/2021 11:15:00 AM 5.66 42.188 0.057 7.25 2.44 12.24
4/1/2021 11:30:00 AM 5.78 42.404 0.057 7.26 2.53 12.24
4/1/2021 11:45:00 AM 5.85 42.53 0.057 7.28 2.38 12.22
4/1/2021 12:00:00 PM 5.9 42.62 0.057 7.27 2.49 12.2
4/1/2021 12:15:00 PM 5.98 42.764 0.057 7.27 2.46 12.2
4/1/2021 12:30:00 PM 6.02 42.836 0.057 7.29 2.47 12.18
4/1/2021 12:45:00 PM 6.17 43.106 0.057 7.3 2.41 12.16
4/1/2021 1:00:00 PM 6.2 43.16 0.057 7.29 2.46 12.13
4/1/2021 1:15:00 PM 6.25 43.25 0.057 7.3 2.51 12.11
4/1/2021 1:30:00 PM 6.31 43.358 0.057 7.32 2.4 12.09
4/1/2021 1:45:00 PM 6.35 43.43 0.057 7.32 2.42 12.07
4/1/2021 2:00:00 PM 6.35 43.43 0.057 7.32 2.52 12.05
4/1/2021 2:15:00 PM 6.37 43.466 0.057 7.33 2.44 12.04
4/1/2021 2:30:00 PM 6.45 43.61 0.057 7.32 2.41 12.03
4/1/2021 2:45:00 PM 6.51 43.718 0.057 7.32 2.41 12.03
4/1/2021 3:00:00 PM 6.49 43.682 0.057 7.33 2.56 12.02
4/1/2021 3:15:00 PM 6.51 43.718 0.057 7.33 2.4 12.03
4/1/2021 3:30:00 PM 6.49 43.682 0.057 7.34 2.42 12.02
4/1/2021 3:45:00 PM 6.52 43.736 0.057 7.35 2.54 12.02
4/1/2021 4:00:00 PM 6.52 43.736 0.057 7.36 2.52 12.01
4/1/2021 4:15:00 PM 6.46 43.628 0.057 7.34 2.44 12.01
4/1/2021 4:30:00 PM 6.42 43.556 0.057 7.35 2.58 12.03
4/1/2021 4:45:00 PM 6.45 43.61 0.057 7.35 2.44 12.04
4/1/2021 5:00:00 PM 6.46 43.628 0.057 7.35 2.48 12.03
4/1/2021 5:15:00 PM 6.42 43.556 0.057 7.34 2.43 12
4/1/2021 5:30:00 PM 6.34 43.412 0.057 7.31 2.55 12
4/1/2021 5:45:00 PM 6.27 43.286 0.057 7.3 2.56 12
4/1/2021 6:00:00 PM 6.2 43.16 0.057 7.28 2.47 11.97
4/1/2021 6:15:00 PM 6.13 43.034 0.057 7.26 2.74 11.94
4/1/2021 6:30:00 PM 6.03 42.854 0.057 7.22 2.55 11.95
4/1/2021 6:45:00 PM 5.94 42.692 0.057 7.2 2.54 11.93
4/1/2021 7:00:00 PM 5.84 42.512 0.057 7.19 2.6 11.91
4/1/2021 7:15:00 PM 5.74 42.332 0.058 7.16 2.65 11.88
4/1/2021 7:30:00 PM 5.54 41.972 0.058 7.11 2.68 11.82
4/1/2021 7:45:00 PM 5.19 41.342 0.058 7.08 2.67 11.8
4/1/2021 8:00:00 PM 4.98 40.964 0.058 7.06 3.02 11.81
4/1/2021 8:15:00 PM 4.91 40.838 0.058 7.04 2.62 11.84
4/1/2021 8:30:00 PM 4.87 40.766 0.058 7.03 2.93 11.88
4/1/2021 8:45:00 PM 4.79 40.622 0.058 7.01 2.91 11.91
4/1/2021 9:00:00 PM 4.71 40.478 0.058 7.02 2.79 11.95
4/1/2021 9:15:00 PM 4.63 40.334 0.058 7.01 2.66 11.98
4/1/2021 9:30:00 PM 4.54 40.172 0.058 7 2.42 12.01
4/1/2021 9:45:00 PM 4.46 40.028 0.058 7 2.61 12.04
4/1/2021 10:00:00 PM 4.41 39.938 0.058 7.01 2.59 12.05
4/1/2021 10:15:00 PM 4.36 39.848 0.058 6.99 2.6 12.07
4/1/2021 10:30:00 PM 4.32 39.776 0.058 7 2.53 12.08
4/1/2021 10:45:00 PM 4.27 39.686 0.059 6.98 2.57 12.1
4/1/2021 11:00:00 PM 4.22 39.596 0.059 6.97 2.57 12.12
4/1/2021 11:15:00 PM 4.16 39.488 0.059 6.99 2.55 12.14
4/1/2021 11:30:00 PM 4.11 39.398 0.059 6.98 2.68 12.15
4/1/2021 11:45:00 PM 4.06 39.308 0.059 6.97 2.59 12.17
4/2/2021 12:00:00 AM 4.01 39.218 0.059 6.98 2.71 12.19
4/2/2021 12:15:00 AM 3.98 39.164 0.059 6.99 2.55 12.2
4/2/2021 12:30:00 AM 3.94 39.092 0.059 6.98 2.48 12.21
4/2/2021 12:45:00 AM 3.91 39.038 0.059 7 2.54 12.22
4/2/2021 1:00:00 AM 3.86 38.948 0.059 7 2.53 12.24
4/2/2021 1:15:00 AM 3.83 38.894 0.059 6.99 2.55 12.25
4/2/2021 1:30:00 AM 3.78 38.804 0.059 6.98 2.48 12.26
4/2/2021 1:45:00 AM 3.65 38.57 0.059 6.97 2.42 12.28
4/2/2021 2:00:00 AM 3.61 38.498 0.059 6.99 2.37 12.3
4/2/2021 2:15:00 AM 3.58 38.444 0.059 6.98 2.49 12.32
4/2/2021 2:30:00 AM 3.54 38.372 0.059 6.99 2.52 12.34
4/2/2021 2:45:00 AM 3.5 38.3 0.059 7 2.43 12.36
4/2/2021 3:00:00 AM 3.45 38.21 0.059 6.99 2.33 12.37
4/2/2021 3:15:00 AM 3.41 38.138 0.059 6.98 2.38 12.39
4/2/2021 3:30:00 AM 3.37 38.066 0.059 6.99 2.5 12.4
4/2/2021 3:45:00 AM 3.33 37.994 0.059 6.99 2.39 12.41
4/2/2021 4:00:00 AM 3.28 37.904 0.059 7 2.47 12.42
4/2/2021 4:15:00 AM 3.23 37.814 0.059 6.98 2.41 12.44
4/2/2021 4:30:00 AM 3.18 37.724 0.059 6.97 2.33 12.46
4/2/2021 4:45:00 AM 3.13 37.634 0.059 6.96 2.37 12.48
4/2/2021 5:00:00 AM 3.08 37.544 0.059 6.97 2.48 12.49
4/2/2021 5:15:00 AM 3.02 37.436 0.059 6.97 2.25 12.51
4/2/2021 5:30:00 AM 2.97 37.346 0.059 6.97 2.26 12.53
4/2/2021 5:45:00 AM 2.91 37.238 0.059 6.96 2.45 12.55
4/2/2021 6:00:00 AM 2.85 37.13 0.059 6.96 2.2 12.58
4/2/2021 6:15:00 AM 2.79 37.022 0.059 6.96 2.4 12.6
4/2/2021 6:30:00 AM 2.74 36.932 0.059 6.97 2.3 12.62
4/2/2021 6:45:00 AM 2.68 36.824 0.059 6.96 2.3 12.64
4/2/2021 7:00:00 AM 2.63 36.734 0.059 6.97 2.36 12.67
4/2/2021 7:15:00 AM 2.59 36.662 0.059 6.96 2.22 12.71
4/2/2021 7:30:00 AM 2.54 36.572 0.059 6.97 2.34 12.77
4/2/2021 7:45:00 AM 2.51 36.518 0.059 6.98 2.26 12.83
4/2/2021 8:00:00 AM 2.49 36.482 0.059 7.01 2.33 12.9
4/2/2021 8:15:00 AM 2.5 36.5 0.059 7.04 2.33 12.97
4/2/2021 8:30:00 AM 2.51 36.518 0.059 7.07 2.27 13.01
4/2/2021 8:45:00 AM 2.54 36.572 0.059 7.08 2.12 13.05
4/2/2021 9:00:00 AM 2.6 36.68 0.059 7.1 2.21 13.07
4/2/2021 9:15:00 AM 2.65 36.77 0.059 7.09 2.24 13.1
4/2/2021 9:30:00 AM 2.71 36.878 0.059 7.13 2.15 13.12
4/2/2021 9:45:00 AM 2.8 37.04 0.059 7.15 2.21 13.12
4/2/2021 10:00:00 AM 2.91 37.238 0.059 7.15 2.27 13.12
4/2/2021 10:15:00 AM 3.05 37.49 0.058 7.16 2.18 13.11
4/2/2021 10:30:00 AM 3.21 37.778 0.059 7.17 2.21 13.08
4/2/2021 10:45:00 AM 3.37 38.066 0.058 7.2 2.43 13.05
4/2/2021 11:00:00 AM 3.56 38.408 0.058 7.2 2.21 13.01
4/2/2021 11:15:00 AM 3.76 38.768 0.058 7.22 2.2 12.95
4/2/2021 11:30:00 AM 3.97 39.146 0.058 7.22 2.21 12.9
4/2/2021 11:45:00 AM 4.23 39.614 0.058 7.23 2.21 12.83
4/2/2021 12:00:00 PM 4.49 40.082 0.058 7.21 2.3 12.76
4/2/2021 12:15:00 PM 4.75 40.55 0.058 7.26 2.3 12.68
4/2/2021 12:30:00 PM 5.03 41.054 0.058 7.24 2.21 12.6
4/2/2021 12:45:00 PM 5.26 41.468 0.058 7.25 2.25 12.53
4/2/2021 1:00:00 PM 5.51 41.918 0.058 7.24 2.19 12.45
4/2/2021 1:15:00 PM 5.71 42.278 0.058 7.26 2.17 12.38
4/2/2021 1:30:00 PM 5.91 42.638 0.058 7.25 2.34 12.32
4/2/2021 1:45:00 PM 6.09 42.962 0.058 7.21 2.26 12.26
4/2/2021 2:00:00 PM 6.27 43.286 0.058 7.28 2.27 12.2
4/2/2021 2:15:00 PM 6.42 43.556 0.058 7.27 2.26 12.15
4/2/2021 2:30:00 PM 6.53 43.754 0.058 7.31 2.25 12.1
4/2/2021 2:45:00 PM 6.65 43.97 0.058 7.28 2.34 12.05
4/2/2021 3:00:00 PM 6.75 44.15 0.058 7.3 2.37 12.01
4/2/2021 3:15:00 PM 6.83 44.294 0.058 7.3 2.43 11.97
4/2/2021 3:30:00 PM 6.9 44.42 0.058 7.3 2.39 11.93
4/2/2021 3:45:00 PM 6.95 44.51 0.058 7.28 2.48 11.9
4/2/2021 4:00:00 PM 6.98 44.564 0.058 7.31 2.45 11.88
4/2/2021 4:15:00 PM 6.97 44.546 0.058 7.3 2.46 11.85
4/2/2021 4:30:00 PM 6.95 44.51 0.058 7.31 2.5 11.83
4/2/2021 4:45:00 PM 6.91 44.438 0.058 7.28 2.32 11.81
4/2/2021 5:00:00 PM 6.86 44.348 0.058 7.28 2.33 11.79
4/2/2021 5:15:00 PM 6.8 44.24 0.058 7.26 2.45 11.79
4/2/2021 5:30:00 PM 6.69 44.042 0.058 7.25 2.35 11.8
4/2/2021 5:45:00 PM 6.57 43.826 0.058 7.24 2.36 11.8
4/2/2021 6:00:00 PM 6.44 43.592 0.058 7.21 2.47 11.82
4/2/2021 6:15:00 PM 6.3 43.34 0.058 7.22 2.43 11.83
4/2/2021 6:30:00 PM 6.14 43.052 0.058 7.2 2.4 11.84
4/2/2021 6:45:00 PM 5.95 42.71 0.058 7.17 2.53 11.85
4/2/2021 7:00:00 PM 5.78 42.404 0.059 7.15 2.5 11.86
4/2/2021 7:15:00 PM 5.61 42.098 0.059 7.14 2.48 11.88
4/2/2021 7:30:00 PM 5.46 41.828 0.059 7.12 2.46 11.89
4/2/2021 7:45:00 PM 5.31 41.558 0.059 7.04 2.51 11.89
4/2/2021 8:00:00 PM 5.16 41.288 0.059 7.09 2.45 11.91
4/2/2021 8:15:00 PM 5.03 41.054 0.059 7.07 2.57 11.93
4/2/2021 8:30:00 PM 4.92 40.856 0.059 7.05 2.63 11.95
4/2/2021 8:45:00 PM 4.83 40.694 0.059 7.05 2.69 11.97
4/2/2021 9:00:00 PM 4.74 40.532 0.06 7.05 2.59 12
4/2/2021 9:15:00 PM 4.66 40.388 0.059 7.03 2.51 12.03
4/2/2021 9:30:00 PM 4.57 40.226 0.059 7.03 2.62 12.05
4/2/2021 9:45:00 PM 4.49 40.082 0.059 7.03 2.57 12.08
4/2/2021 10:00:00 PM 4.41 39.938 0.06 7.02 2.47 12.1
4/2/2021 10:15:00 PM 4.33 39.794 0.06 7.02 2.61 12.12
4/2/2021 10:30:00 PM 4.26 39.668 0.06 7.02 2.56 12.15
4/2/2021 10:45:00 PM 4.19 39.542 0.06 7.01 2.46 12.18
4/2/2021 11:00:00 PM 4.12 39.416 0.06 7.01 2.58 12.2
4/2/2021 11:15:00 PM 4.05 39.29 0.06 7.01 2.5 12.22
4/2/2021 11:30:00 PM 3.98 39.164 0.06 6.98 2.44 12.24
4/2/2021 11:45:00 PM 3.91 39.038 0.06 7.02 2.41 12.26
4/3/2021 12:00:00 AM 3.85 38.93 0.06 7.01 2.53 12.29
4/3/2021 12:15:00 AM 3.78 38.804 0.06 7 2.56 12.31
4/3/2021 12:30:00 AM 3.72 38.696 0.06 7 2.49 12.33
4/3/2021 12:45:00 AM 3.67 38.606 0.06 6.99 2.64 12.35
4/3/2021 1:00:00 AM 3.61 38.498 0.06 7 2.51 12.36
4/3/2021 1:15:00 AM 3.56 38.408 0.06 6.99 2.49 12.38
4/3/2021 1:30:00 AM 3.52 38.336 0.06 6.99 2.39 12.4
4/3/2021 1:45:00 AM 3.47 38.246 0.06 6.98 2.38 12.42
4/3/2021 2:00:00 AM 3.42 38.156 0.06 6.99 2.38 12.43
4/3/2021 2:15:00 AM 3.38 38.084 0.06 6.99 2.38 12.45
4/3/2021 2:30:00 AM 3.34 38.012 0.06 7 2.45 12.47
4/3/2021 2:45:00 AM 3.29 37.922 0.06 6.98 2.35 12.48
4/3/2021 3:00:00 AM 3.25 37.85 0.06 6.99 2.46 12.49
4/3/2021 3:15:00 AM 3.21 37.778 0.06 7 2.46 12.51
4/3/2021 3:30:00 AM 3.17 37.706 0.06 6.99 2.4 12.52
4/3/2021 3:45:00 AM 3.12 37.616 0.06 6.98 2.33 12.54
4/3/2021 4:00:00 AM 3.08 37.544 0.06 6.99 2.44 12.55
4/3/2021 4:15:00 AM 3.04 37.472 0.06 6.99 2.45 12.56
4/3/2021 4:30:00 AM 3 37.4 0.06 6.98 2.42 12.58
4/3/2021 4:45:00 AM 2.96 37.328 0.06 6.99 2.24 12.6
4/3/2021 5:00:00 AM 2.92 37.256 0.06 6.98 2.46 12.61
4/3/2021 5:15:00 AM 2.88 37.184 0.06 6.98 2.42 12.63
4/3/2021 5:30:00 AM 2.84 37.112 0.06 6.98 2.47 12.65
4/3/2021 5:45:00 AM 2.8 37.04 0.06 6.98 2.41 12.66
4/3/2021 6:00:00 AM 2.76 36.968 0.06 6.98 2.4 12.67
4/3/2021 6:15:00 AM 2.73 36.914 0.06 6.99 2.42 12.69
4/3/2021 6:30:00 AM 2.69 36.842 0.06 6.99 2.31 12.7
4/3/2021 6:45:00 AM 2.65 36.77 0.06 6.99 2.36 12.72
4/3/2021 7:00:00 AM 2.61 36.698 0.06 6.99 2.28 12.74
4/3/2021 7:15:00 AM 2.58 36.644 0.06 7 2.33 12.79
4/3/2021 7:30:00 AM 2.55 36.59 0.06 7.01 2.23 12.85
4/3/2021 7:45:00 AM 2.53 36.554 0.06 7.03 2.17 12.91
4/3/2021 8:00:00 AM 2.52 36.536 0.06 7.03 2.18 12.97
4/3/2021 8:15:00 AM 2.54 36.572 0.06 7.06 2.45 13.03
4/3/2021 8:30:00 AM 2.56 36.608 0.059 7.06 2.41 13.07
4/3/2021 8:45:00 AM 2.59 36.662 0.059 7.1 2.39 13.11
4/3/2021 9:00:00 AM 2.63 36.734 0.059 7.12 2.36 13.14
4/3/2021 9:15:00 AM 2.7 36.86 0.06 7.12 2.21 13.17
4/3/2021 9:30:00 AM 2.79 37.022 0.061 7.14 2.81 13.16
4/3/2021 9:45:00 AM 2.85 37.13 0.067 7.08 14.09 12.99
4/3/2021 10:00:00 AM 3.11 37.598 0.068 7.07 7.54 12.96
4/3/2021 10:15:00 AM 3.37 38.066 0.067 7.07 4.95 12.95
4/3/2021 10:30:00 AM 3.63 38.534 0.066 7.1 4.52 12.9
4/3/2021 10:45:00 AM 3.89 39.002 0.067 7.1 5.68 12.8
4/3/2021 11:00:00 AM 4.15 39.47 0.066 7.12 3.82 12.77
4/3/2021 11:15:00 AM 4.37 39.866 0.064 7.19 3.06 12.75
4/3/2021 11:30:00 AM 4.61 40.298 0.063 7.17 2.78 12.72
4/3/2021 11:45:00 AM 4.87 40.766 0.062 7.19 2.8 12.66
4/3/2021 12:00:00 PM 5.15 41.27 0.061 7.22 2.47 12.6
4/3/2021 12:15:00 PM 5.39 41.702 0.06 7.25 2.61 12.53
4/3/2021 12:30:00 PM 5.57 42.026 0.06 7.28 2.43 12.48
4/3/2021 12:45:00 PM 5.72 42.296 0.06 7.27 2.44 12.44
4/3/2021 1:00:00 PM 5.82 42.476 0.06 7.29 2.19 12.4
4/3/2021 1:15:00 PM 6.01 42.818 0.059 7.3 2.43 12.37
4/3/2021 1:30:00 PM 6.22 43.196 0.059 7.33 2.4 12.32
4/3/2021 1:45:00 PM 6.48 43.664 0.059 7.33 2.39 12.25
4/3/2021 2:00:00 PM 6.7 44.06 0.059 7.35 2.47 12.19
4/3/2021 2:15:00 PM 6.88 44.384 0.058 7.36 2.44 12.11
4/3/2021 2:30:00 PM 7.02 44.636 0.058 7.35 2.33 12.06
4/3/2021 2:45:00 PM 7.15 44.87 0.058 7.35 2.4 12.01
4/3/2021 3:00:00 PM 7.29 45.122 0.058 7.37 2.27 11.95
4/3/2021 3:15:00 PM 7.43 45.374 0.058 7.36 2.43 11.9
4/3/2021 3:30:00 PM 7.55 45.59 0.058 7.37 2.51 11.86
4/3/2021 3:45:00 PM 7.61 45.698 0.058 7.37 2.46 11.82
4/3/2021 4:00:00 PM 7.64 45.752 0.058 7.38 2.38 11.8
4/3/2021 4:15:00 PM 7.65 45.77 0.058 7.4 2.42 11.8
4/3/2021 4:30:00 PM 7.66 45.788 0.058 7.43 2.55 11.77
4/3/2021 4:45:00 PM 7.67 45.806 0.058 7.4 2.39 11.74
4/3/2021 5:00:00 PM 7.69 45.842 0.058 7.38 2.44 11.71
4/3/2021 5:15:00 PM 7.69 45.842 0.058 7.39 2.57 11.71
4/3/2021 5:30:00 PM 7.66 45.788 0.058 7.38 2.47 11.71
4/3/2021 5:45:00 PM 7.58 45.644 0.058 7.38 2.44 11.71
4/3/2021 6:00:00 PM 7.52 45.536 0.058 7.37 2.44 11.71
4/3/2021 6:15:00 PM 7.42 45.356 0.059 7.34 2.47 11.64
4/3/2021 6:30:00 PM 7.33 45.194 0.059 7.28 2.48 11.56
4/3/2021 6:45:00 PM 7.23 45.014 0.059 7.23 2.75 11.49
4/3/2021 7:00:00 PM 7.13 44.834 0.059 7.19 2.68 11.43
4/3/2021 7:15:00 PM 7.04 44.672 0.059 7.15 2.59 11.4
4/3/2021 7:30:00 PM 6.94 44.492 0.059 7.13 2.53 11.38
4/3/2021 7:45:00 PM 6.85 44.33 0.059 7.11 2.57 11.37
4/3/2021 8:00:00 PM 6.77 44.186 0.059 7.09 2.6 11.37
4/3/2021 8:15:00 PM 6.69 44.042 0.059 7.07 2.61 11.39
4/3/2021 8:30:00 PM 6.61 43.898 0.059 7.08 2.53 11.4
4/3/2021 8:45:00 PM 6.53 43.754 0.059 7.02 2.79 11.43
4/3/2021 9:00:00 PM 6.46 43.628 0.059 7.01 2.74 11.45
4/3/2021 9:15:00 PM 6.39 43.502 0.06 7.06 2.54 11.47
4/3/2021 9:30:00 PM 6.33 43.394 0.059 7.05 2.62 11.48
4/3/2021 9:45:00 PM 6.26 43.268 0.06 7.05 2.58 11.51
4/3/2021 10:00:00 PM 6.2 43.16 0.06 7.03 2.61 11.52
4/3/2021 10:15:00 PM 6.15 43.07 0.06 7.02 2.54 11.54
4/3/2021 10:30:00 PM 6.09 42.962 0.06 7.04 2.61 11.55
4/3/2021 10:45:00 PM 6.04 42.872 0.06 7.04 2.64 11.57
4/3/2021 11:00:00 PM 5.99 42.782 0.06 7.03 2.53 11.59
4/3/2021 11:15:00 PM 5.95 42.71 0.06 7.02 2.6 11.6
4/3/2021 11:30:00 PM 5.9 42.62 0.06 7.01 2.59 11.61
4/3/2021 11:45:00 PM 5.86 42.548 0.06 7 2.43 11.62
4/4/2021 12:00:00 AM 5.82 42.476 0.06 7 2.5 11.63
4/4/2021 12:15:00 AM 5.78 42.404 0.06 7.01 2.45 11.65
4/4/2021 12:30:00 AM 5.74 42.332 0.06 7.01 2.54 11.65
4/4/2021 12:45:00 AM 5.71 42.278 0.06 7.01 2.61 11.66
4/4/2021 1:00:00 AM 5.67 42.206 0.06 7.01 2.46 11.67
4/4/2021 1:15:00 AM 5.64 42.152 0.06 7.01 2.59 11.68
4/4/2021 1:30:00 AM 5.61 42.098 0.06 7 2.38 11.69
4/4/2021 1:45:00 AM 5.59 42.062 0.06 7 2.44 11.69
4/4/2021 2:00:00 AM 5.56 42.008 0.06 7 2.43 11.7
4/4/2021 2:15:00 AM 5.53 41.954 0.06 7.01 2.55 11.71
4/4/2021 2:30:00 AM 5.5 41.9 0.06 7.01 2.42 11.71
4/4/2021 2:45:00 AM 5.47 41.846 0.06 7.01 2.42 11.72
4/4/2021 3:00:00 AM 5.45 41.81 0.06 7.01 2.39 11.72
4/4/2021 3:15:00 AM 5.42 41.756 0.06 7.02 2.51 11.73
4/4/2021 3:30:00 AM 5.4 41.72 0.06 7.03 2.37 11.74
4/4/2021 3:45:00 AM 5.37 41.666 0.06 7.02 2.45 11.74
4/4/2021 4:00:00 AM 5.32 41.576 0.06 7.03 2.4 11.75
4/4/2021 4:15:00 AM 5.27 41.486 0.06 7.02 2.47 11.76
4/4/2021 4:30:00 AM 5.22 41.396 0.06 7.01 2.42 11.77
4/4/2021 4:45:00 AM 5.18 41.324 0.06 7.01 2.58 11.78
4/4/2021 5:00:00 AM 5.15 41.27 0.06 7.02 2.29 11.79
4/4/2021 5:15:00 AM 5.12 41.216 0.06 7.01 2.35 11.81
4/4/2021 5:30:00 AM 5.09 41.162 0.06 7.01 2.42 11.82
4/4/2021 5:45:00 AM 5.07 41.126 0.06 6.95 2.38 11.83
4/4/2021 6:00:00 AM 5.03 41.054 0.06 7.01 2.5 11.84
4/4/2021 6:15:00 AM 4.99 40.982 0.06 7.01 2.45 11.85
4/4/2021 6:30:00 AM 4.93 40.874 0.06 7.02 2.58 11.86
4/4/2021 6:45:00 AM 4.88 40.784 0.06 7 2.47 11.88
4/4/2021 7:00:00 AM 4.84 40.712 0.06 7.01 2.42 11.91
4/4/2021 7:15:00 AM 4.8 40.64 0.06 7.01 2.46 11.96
4/4/2021 7:30:00 AM 4.77 40.586 0.06 7.02 2.42 12.03
4/4/2021 7:45:00 AM 4.74 40.532 0.06 7.04 2.32 12.09
4/4/2021 8:00:00 AM 4.72 40.496 0.06 7.09 2.4 12.17
4/4/2021 8:15:00 AM 4.72 40.496 0.06 7.1 2.34 12.25
4/4/2021 8:30:00 AM 4.73 40.514 0.059 7.12 2.37 12.31
4/4/2021 8:45:00 AM 4.75 40.55 0.059 7.15 2.36 12.36
4/4/2021 9:00:00 AM 4.78 40.604 0.059 7.19 2.4 12.4
4/4/2021 9:15:00 AM 4.84 40.712 0.059 7.19 2.17 12.43
4/4/2021 9:30:00 AM 4.92 40.856 0.059 7.22 2.32 12.45
4/4/2021 9:45:00 AM 5.07 41.126 0.066 7.14 4.33 12.37
4/4/2021 10:00:00 AM 5.31 41.558 0.065 7.16 3.27 12.35
4/4/2021 10:15:00 AM 5.49 41.882 0.064 7.19 2.62 12.36
4/4/2021 10:30:00 AM 5.67 42.206 0.062 7.22 2.39 12.35
4/4/2021 10:45:00 AM 5.87 42.566 0.061 7.25 2.23 12.33
4/4/2021 11:00:00 AM 6.08 42.944 0.061 7.28 2.42 12.29
4/4/2021 11:15:00 AM 6.33 43.394 0.06 7.29 2.29 12.24
4/4/2021 11:30:00 AM 6.6 43.88 0.06 7.31 2.26 12.18
4/4/2021 11:45:00 AM 6.88 44.384 0.06 7.33 2.36 12.12
4/4/2021 12:00:00 PM 7.18 44.924 0.059 7.36 2.3 12.04
4/4/2021 12:15:00 PM 7.48 45.464 0.059 7.39 2.37 11.97
4/4/2021 12:30:00 PM 7.78 46.004 0.059 7.4 2.29 11.89
4/4/2021 12:45:00 PM 8.09 46.562 0.059 7.41 2.34 11.8
4/4/2021 1:00:00 PM 8.37 47.066 0.059 7.41 2.26 11.72
4/4/2021 1:15:00 PM 8.63 47.534 0.059 7.43 2.28 11.65
4/4/2021 1:30:00 PM 8.88 47.984 0.059 7.43 2.3 11.59
4/4/2021 1:45:00 PM 9.09 48.362 0.059 7.43 2.29 11.51
4/4/2021 2:00:00 PM 9.25 48.65 0.059 7.45 2.28 11.45
4/4/2021 2:15:00 PM 9.42 48.956 0.059 7.48 2.33 11.39
4/4/2021 2:30:00 PM 9.53 49.154 0.059 7.5 2.31 11.34
4/4/2021 2:45:00 PM 9.66 49.388 0.058 7.48 2.38 11.3
4/4/2021 3:00:00 PM 9.79 49.622 0.058 7.49 2.31 11.26
4/4/2021 3:15:00 PM 9.91 49.838 0.058 7.52 2.37 11.23
4/4/2021 3:30:00 PM 9.99 49.982 0.058 7.52 2.38 11.2
4/4/2021 3:45:00 PM 10.04 50.072 0.058 7.53 2.53 11.16
4/4/2021 4:00:00 PM 10.06 50.108 0.058 7.51 2.36 11.13
4/4/2021 4:15:00 PM 10.06 50.108 0.058 7.51 2.34 11.09
4/4/2021 4:30:00 PM 10.06 50.108 0.058 7.5 2.44 11.06
4/4/2021 4:45:00 PM 10.04 50.072 0.058 7.47 2.47 11.02
4/4/2021 5:00:00 PM 10.02 50.036 0.058 7.43 2.48 10.99
4/4/2021 5:15:00 PM 9.98 49.964 0.058 7.41 2.43 10.96
4/4/2021 5:30:00 PM 9.92 49.856 0.058 7.39 2.54 10.95
4/4/2021 5:45:00 PM 9.84 49.712 0.059 7.35 2.43 10.94
4/4/2021 6:00:00 PM 9.74 49.532 0.059 7.34 2.4 10.93
4/4/2021 6:15:00 PM 9.62 49.316 0.059 7.33 2.59 10.92
4/4/2021 6:30:00 PM 9.48 49.064 0.059 7.3 2.56 10.91
4/4/2021 6:45:00 PM 9.31 48.758 0.059 7.27 2.44 10.9
4/4/2021 7:00:00 PM 9.13 48.434 0.059 7.24 2.55 10.89
4/4/2021 7:15:00 PM 8.97 48.146 0.059 7.23 2.56 10.9
4/4/2021 7:30:00 PM 8.81 47.858 0.059 7.2 2.62 10.87
4/4/2021 7:45:00 PM 8.64 47.552 0.06 7.14 2.47 10.87
4/4/2021 8:00:00 PM 8.48 47.264 0.06 7.12 2.57 10.87
4/4/2021 8:15:00 PM 8.32 46.976 0.06 7.13 2.58 10.89
4/4/2021 8:30:00 PM 8.17 46.706 0.06 7.14 2.61 10.91
4/4/2021 8:45:00 PM 8.03 46.454 0.06 7.1 2.55 10.94
4/4/2021 9:00:00 PM 7.89 46.202 0.06 7.08 2.66 10.97
4/4/2021 9:15:00 PM 7.76 45.968 0.06 7.08 2.81 11
4/4/2021 9:30:00 PM 7.63 45.734 0.06 7.06 2.73 11.04
4/4/2021 9:45:00 PM 7.5 45.5 0.06 7.05 2.91 11.08
4/4/2021 10:00:00 PM 7.38 45.284 0.06 7.05 2.72 11.11
4/4/2021 10:15:00 PM 7.26 45.068 0.06 7.06 2.74 11.14
4/4/2021 10:30:00 PM 7.14 44.852 0.061 7.05 2.7 11.18
4/4/2021 10:45:00 PM 7.02 44.636 0.061 7.06 2.59 11.21
4/4/2021 11:00:00 PM 6.9 44.42 0.061 7.05 2.65 11.25
4/4/2021 11:15:00 PM 6.79 44.222 0.061 7.05 2.66 11.28
4/4/2021 11:30:00 PM 6.68 44.024 0.061 7.06 2.44 11.32
4/4/2021 11:45:00 PM 6.58 43.844 0.061 7.06 2.49 11.35
4/5/2021 12:00:00 AM 6.48 43.664 0.061 7.06 2.6 11.38
4/5/2021 12:15:00 AM 6.38 43.484 0.061 7.06 2.56 11.4
4/5/2021 12:30:00 AM 6.28 43.304 0.061 7.05 2.47 11.44
4/5/2021 12:45:00 AM 6.18 43.124 0.061 7.07 2.55 11.47
4/5/2021 1:00:00 AM 6.08 42.944 0.061 7.06 2.59 11.5
4/5/2021 1:15:00 AM 5.99 42.782 0.061 6.95 2.55 11.53
4/5/2021 1:30:00 AM 5.91 42.638 0.061 7.04 2.57 11.55
4/5/2021 1:45:00 AM 5.82 42.476 0.061 7.05 2.54 11.58
4/5/2021 2:00:00 AM 5.75 42.35 0.061 7.03 2.41 11.6
4/5/2021 2:15:00 AM 5.67 42.206 0.061 7.04 2.49 11.63
4/5/2021 2:30:00 AM 5.59 42.062 0.061 7.05 2.5 11.65
4/5/2021 2:45:00 AM 5.52 41.936 0.061 7.05 2.6 11.67
4/5/2021 3:00:00 AM 5.45 41.81 0.061 7.04 2.38 11.69
4/5/2021 3:15:00 AM 5.39 41.702 0.061 7.05 2.62 11.71
4/5/2021 3:30:00 AM 5.32 41.576 0.061 7.02 2.46 11.73
4/5/2021 3:45:00 AM 5.26 41.468 0.061 7.02 2.47 11.75
4/5/2021 4:00:00 AM 5.2 41.36 0.061 7.03 2.42 11.77
4/5/2021 4:15:00 AM 5.15 41.27 0.061 7.04 2.73 11.79
4/5/2021 4:30:00 AM 5.09 41.162 0.061 7.04 2.41 11.81
4/5/2021 4:45:00 AM 5.03 41.054 0.061 7.04 2.48 11.82
4/5/2021 5:00:00 AM 4.98 40.964 0.061 7.02 2.55 11.84
4/5/2021 5:15:00 AM 4.93 40.874 0.061 7.04 2.63 11.86
4/5/2021 5:30:00 AM 4.87 40.766 0.061 7.02 2.48 11.88
4/5/2021 5:45:00 AM 4.82 40.676 0.061 7.02 2.4 11.9
4/5/2021 6:00:00 AM 4.78 40.604 0.061 7.02 2.42 11.91
4/5/2021 6:15:00 AM 4.74 40.532 0.061 7.03 2.44 11.92
4/5/2021 6:30:00 AM 4.71 40.478 0.061 6.8 2.33 11.94
4/5/2021 6:45:00 AM 4.68 40.424 0.061 7 2.44 11.96
4/5/2021 7:00:00 AM 4.65 40.37 0.061 7.02 2.46 11.99
4/5/2021 7:15:00 AM 4.62 40.316 0.061 7.03 2.31 12.05
4/5/2021 7:30:00 AM 4.6 40.28 0.061 7.04 2.43 12.11
4/5/2021 7:45:00 AM 4.58 40.244 0.061 7.06 2.4 12.18
4/5/2021 8:00:00 AM 4.58 40.244 0.061 7.09 2.34 12.25
4/5/2021 8:15:00 AM 4.59 40.262 0.061 7.1 2.25 12.32
4/5/2021 8:30:00 AM 4.62 40.316 0.06 7.14 2.38 12.38
4/5/2021 8:45:00 AM 4.66 40.388 0.06 7.16 2.33 12.42
4/5/2021 9:00:00 AM 4.71 40.478 0.06 7.19 2.32 12.46
4/5/2021 9:15:00 AM 4.79 40.622 0.06 7.22 2.58 12.49
4/5/2021 9:30:00 AM 4.89 40.802 0.06 7.24 2.32 12.5
4/5/2021 9:45:00 AM 5.02 41.036 0.06 7.26 2.39 12.51
4/5/2021 10:00:00 AM 5.18 41.324 0.06 7.29 2.26 12.51
4/5/2021 10:15:00 AM 5.38 41.684 0.06 7.31 2.14 12.49
4/5/2021 10:30:00 AM 5.58 42.044 0.06 7.33 2.28 12.45
4/5/2021 10:45:00 AM 5.8 42.44 0.06 7.34 2.35 12.41
4/5/2021 11:00:00 AM 6.03 42.854 0.059 7.36 2.21 12.36
4/5/2021 11:15:00 AM 6.28 43.304 0.059 7.39 2.47 12.31
4/5/2021 11:30:00 AM 6.56 43.808 0.059 7.41 2.38 12.24
4/5/2021 11:45:00 AM 6.85 44.33 0.059 7.42 2.28 12.17
4/5/2021 12:00:00 PM 7.15 44.87 0.059 7.43 2.29 12.09
4/5/2021 12:15:00 PM 7.47 45.446 0.059 7.43 2.31 12.01
4/5/2021 12:30:00 PM 7.79 46.022 0.059 7.42 2.36 11.92
4/5/2021 12:45:00 PM 8.1 46.58 0.059 7.45 2.44 11.83
4/5/2021 1:00:00 PM 8.39 47.102 0.059 7.46 2.38 11.75
4/5/2021 1:15:00 PM 8.67 47.606 0.059 7.47 2.26 11.68
4/5/2021 1:30:00 PM 8.92 48.056 0.059 7.49 2.32 11.61
4/5/2021 1:45:00 PM 9.13 48.434 0.059 7.5 2.14 11.54
4/5/2021 2:00:00 PM 9.32 48.776 0.058 7.53 2.29 11.49
4/5/2021 2:15:00 PM 9.49 49.082 0.059 7.56 2.45 11.45
4/5/2021 2:30:00 PM 9.63 49.334 0.058 7.58 2.44 11.4
4/5/2021 2:45:00 PM 9.75 49.55 0.059 7.6 2.39 11.36
4/5/2021 3:00:00 PM 9.85 49.73 0.058 7.62 2.39 11.32
4/5/2021 3:15:00 PM 9.94 49.892 0.058 7.61 2.4 11.28
4/5/2021 3:30:00 PM 10.01 50.018 0.058 7.62 2.34 11.24
4/5/2021 3:45:00 PM 10.06 50.108 0.058 7.63 2.33 11.22
4/5/2021 4:00:00 PM 10.12 50.216 0.058 7.61 2.4 11.2
4/5/2021 4:15:00 PM 10.15 50.27 0.058 7.61 2.41 11.17
4/5/2021 4:30:00 PM 10.13 50.234 0.058 7.6 2.32 11.15
4/5/2021 4:45:00 PM 10.11 50.198 0.058 7.59 2.48 11.14
4/5/2021 5:00:00 PM 10.07 50.126 0.059 7.57 2.41 11.11
4/5/2021 5:15:00 PM 10 50 0.059 7.51 2.44 11.05
4/5/2021 5:30:00 PM 9.91 49.838 0.059 7.46 2.44 11
4/5/2021 5:45:00 PM 9.82 49.676 0.059 7.42 2.55 10.98
4/5/2021 6:00:00 PM 9.72 49.496 0.059 7.38 2.53 10.96
4/5/2021 6:15:00 PM 9.61 49.298 0.059 7.36 2.42 10.94
4/5/2021 6:30:00 PM 9.5 49.1 0.059 7.32 2.37 10.93
4/5/2021 6:45:00 PM 9.39 48.902 0.059 7.29 2.48 10.9
4/5/2021 7:00:00 PM 9.28 48.704 0.059 7.25 2.52 10.87
4/5/2021 7:15:00 PM 9.16 48.488 0.06 7.23 2.48 10.85
4/5/2021 7:30:00 PM 9.05 48.29 0.06 7.19 2.5 10.81
4/5/2021 7:45:00 PM 8.95 48.11 0.06 7.16 2.48 10.78
4/5/2021 8:00:00 PM 8.84 47.912 0.06 7.12 2.6 10.75
4/5/2021 8:15:00 PM 8.75 47.75 0.06 7.11 2.48 10.75
4/5/2021 8:30:00 PM 8.66 47.588 0.06 7.09 2.6 10.75
4/5/2021 8:45:00 PM 8.59 47.462 0.06 7.07 2.62 10.77
4/5/2021 9:00:00 PM 8.51 47.318 0.061 7.06 2.78 10.78
4/5/2021 9:15:00 PM 8.43 47.174 0.061 7.06 2.51 10.8
4/5/2021 9:30:00 PM 8.35 47.03 0.061 7.04 2.73 10.82
4/5/2021 9:45:00 PM 8.28 46.904 0.061 7.05 2.66 10.84
4/5/2021 10:00:00 PM 8.21 46.778 0.061 7.05 2.63 10.86
4/5/2021 10:15:00 PM 8.14 46.652 0.061 7.06 2.48 10.88
4/5/2021 10:30:00 PM 8.08 46.544 0.061 7.07 2.62 10.9
4/5/2021 10:45:00 PM 8.01 46.418 0.061 7.07 2.56 10.92
4/5/2021 11:00:00 PM 7.96 46.328 0.061 7.04 2.59 10.93
4/5/2021 11:15:00 PM 7.91 46.238 0.061 7.04 2.66 10.94
4/5/2021 11:30:00 PM 7.85 46.13 0.061 7.05 2.52 10.96
4/5/2021 11:45:00 PM 7.81 46.058 0.061 7.04 2.52 10.98
4/6/2021 12:00:00 AM 7.75 45.95 0.061 7.03 2.57 10.99
4/6/2021 12:15:00 AM 7.7 45.86 0.061 7.04 2.59 11
4/6/2021 12:30:00 AM 7.65 45.77 0.061 7.04 2.5 11.01
4/6/2021 12:45:00 AM 7.6 45.68 0.061 7.03 2.55 11.03
4/6/2021 1:00:00 AM 7.55 45.59 0.061 7.03 2.52 11.04
4/6/2021 1:15:00 AM 7.49 45.482 0.061 7.02 2.44 11.05
4/6/2021 1:30:00 AM 7.43 45.374 0.061 7.02 2.54 11.07
4/6/2021 1:45:00 AM 7.37 45.266 0.061 7.02 2.57 11.08
4/6/2021 2:00:00 AM 7.31 45.158 0.061 7.03 2.51 11.1
4/6/2021 2:15:00 AM 7.24 45.032 0.061 7.02 2.55 11.12
4/6/2021 2:30:00 AM 7.16 44.888 0.061 7.02 2.47 11.14
4/6/2021 2:45:00 AM 7.09 44.762 0.061 7.02 2.55 11.16
4/6/2021 3:00:00 AM 7.01 44.618 0.061 7.04 2.44 11.18
4/6/2021 3:15:00 AM 6.93 44.474 0.061 7.02 2.53 11.2
4/6/2021 3:30:00 AM 6.85 44.33 0.061 7.01 2.54 11.23
4/6/2021 3:45:00 AM 6.77 44.186 0.061 7.02 2.5 11.25
4/6/2021 4:00:00 AM 6.68 44.024 0.061 7.02 2.51 11.27
4/6/2021 4:15:00 AM 6.6 43.88 0.061 7.02 2.48 11.29
4/6/2021 4:30:00 AM 6.52 43.736 0.061 7.02 2.33 11.33
4/6/2021 4:45:00 AM 6.44 43.592 0.061 7.02 2.51 11.35
4/6/2021 5:00:00 AM 6.36 43.448 0.061 7.01 2.48 11.37
4/6/2021 5:15:00 AM 6.28 43.304 0.061 7.01 2.41 11.39
4/6/2021 5:30:00 AM 6.21 43.178 0.061 7.02 2.47 11.42
4/6/2021 5:45:00 AM 6.13 43.034 0.061 7.02 2.37 11.44
4/6/2021 6:00:00 AM 6.06 42.908 0.061 7.02 2.4 11.46
4/6/2021 6:15:00 AM 5.99 42.782 0.061 7.02 2.56 11.49
4/6/2021 6:30:00 AM 5.92 42.656 0.061 7.01 2.73 11.51
4/6/2021 6:45:00 AM 5.85 42.53 0.061 7.02 2.73 11.54
4/6/2021 7:00:00 AM 5.79 42.422 0.061 7.01 2.64 11.58
4/6/2021 7:15:00 AM 5.74 42.332 0.061 7.02 2.53 11.64
4/6/2021 7:30:00 AM 5.69 42.242 0.061 7.04 2.51 11.73
4/6/2021 7:45:00 AM 5.65 42.17 0.061 7.07 2.57 11.81
4/6/2021 8:00:00 AM 5.63 42.134 0.061 7.09 2.46 11.9
4/6/2021 8:15:00 AM 5.61 42.098 0.06 7.12 2.46 11.98
4/6/2021 8:30:00 AM 5.62 42.116 0.06 7.14 2.41 12.06
4/6/2021 8:45:00 AM 5.64 42.152 0.06 7.17 2.44 12.12
4/6/2021 9:00:00 AM 5.68 42.224 0.06 7.2 2.28 12.17
4/6/2021 9:15:00 AM 5.74 42.332 0.06 7.24 2.31 12.22
4/6/2021 9:30:00 AM 5.82 42.476 0.06 7.27 2.21 12.24
4/6/2021 9:45:00 AM 5.93 42.674 0.06 7.3 2.33 12.26
4/6/2021 10:00:00 AM 6.07 42.926 0.06 7.33 2.53 12.26
4/6/2021 10:15:00 AM 6.25 43.25 0.06 7.35 2.27 12.25
4/6/2021 10:30:00 AM 6.46 43.628 0.06 7.37 2.17 12.23
4/6/2021 10:45:00 AM 6.68 44.024 0.06 7.4 2.32 12.19
4/6/2021 11:00:00 AM 6.91 44.438 0.059 7.43 2.29 12.14
4/6/2021 11:15:00 AM 7.17 44.906 0.059 7.46 2.12 12.08
4/6/2021 11:30:00 AM 7.46 45.428 0.059 7.48 2.22 12.02
4/6/2021 11:45:00 AM 7.75 45.95 0.059 7.49 2.26 11.95
4/6/2021 12:00:00 PM 8.06 46.508 0.059 7.5 2.27 11.87
4/6/2021 12:15:00 PM 8.37 47.066 0.059 7.52 2.24 11.79
4/6/2021 12:30:00 PM 8.7 47.66 0.059 7.54 2.32 11.71
4/6/2021 12:45:00 PM 9.02 48.236 0.059 7.55 2.37 11.62
4/6/2021 1:00:00 PM 9.32 48.776 0.059 7.58 2.27 11.55
4/6/2021 1:15:00 PM 9.55 49.19 0.059 7.6 2.37 11.49
4/6/2021 1:30:00 PM 9.79 49.622 0.059 7.62 2.33 11.41
4/6/2021 1:45:00 PM 10.02 50.036 0.059 7.61 2.49 11.34
4/6/2021 2:00:00 PM 10.26 50.468 0.059 7.63 2.39 11.27
4/6/2021 2:15:00 PM 10.48 50.864 0.059 7.63 2.29 11.2
4/6/2021 2:30:00 PM 10.63 51.134 0.059 7.63 2.34 11.13
4/6/2021 2:45:00 PM 10.79 51.422 0.059 7.63 2.34 11.08
4/6/2021 3:00:00 PM 10.92 51.656 0.059 7.65 2.43 11.03
4/6/2021 3:15:00 PM 11.07 51.926 0.059 7.64 2.41 10.98
4/6/2021 3:30:00 PM 11.19 52.142 0.059 7.63 2.46 10.93
4/6/2021 3:45:00 PM 11.28 52.304 0.059 7.64 2.35 10.87
4/6/2021 4:00:00 PM 11.36 52.448 0.059 7.61 2.33 10.83
4/6/2021 4:15:00 PM 11.41 52.538 0.059 7.61 2.48 10.79
4/6/2021 4:30:00 PM 11.44 52.592 0.059 7.6 2.37 10.78
4/6/2021 4:45:00 PM 11.44 52.592 0.059 7.57 2.43 10.72
4/6/2021 5:00:00 PM 11.44 52.592 0.059 7.53 2.49 10.65
4/6/2021 5:15:00 PM 11.47 52.646 0.059 7.53 2.41 10.69
4/6/2021 5:30:00 PM 11.5 52.7 0.059 7.55 2.49 10.71
4/6/2021 5:45:00 PM 11.48 52.664 0.059 7.56 2.57 10.7
4/6/2021 6:00:00 PM 11.42 52.556 0.059 7.54 2.59 10.68
4/6/2021 6:15:00 PM 11.32 52.376 0.059 7.5 2.44 10.65
4/6/2021 6:30:00 PM 11.19 52.142 0.06 7.44 2.46 10.58
4/6/2021 6:45:00 PM 11.04 51.872 0.06 7.38 2.52 10.51
4/6/2021 7:00:00 PM 10.88 51.584 0.06 7.31 2.58 10.45
4/6/2021 7:15:00 PM 10.73 51.314 0.06 7.24 2.57 10.41
4/6/2021 7:30:00 PM 10.57 51.026 0.061 7.22 2.48 10.36
4/6/2021 7:45:00 PM 10.43 50.774 0.061 7.16 2.55 10.34
4/6/2021 8:00:00 PM 10.28 50.504 0.061 7.14 2.76 10.33
4/6/2021 8:15:00 PM 10.13 50.234 0.061 7.11 2.65 10.33
4/6/2021 8:30:00 PM 10 50 0.061 7.09 2.76 10.35
4/6/2021 8:45:00 PM 9.88 49.784 0.061 7.07 2.56 10.37
4/6/2021 9:00:00 PM 9.75 49.55 0.061 7.06 2.75 10.4
4/6/2021 9:15:00 PM 9.62 49.316 0.061 7.06 2.67 10.43
4/6/2021 9:30:00 PM 9.5 49.1 0.062 7.04 2.56 10.46
4/6/2021 9:45:00 PM 9.37 48.866 0.062 7.04 2.65 10.49
4/6/2021 10:00:00 PM 9.26 48.668 0.062 7.04 2.58 10.52
4/6/2021 10:15:00 PM 9.15 48.47 0.062 7.04 2.68 10.56
4/6/2021 10:30:00 PM 9.05 48.29 0.062 7.04 2.6 10.57
4/6/2021 10:45:00 PM 8.96 48.128 0.062 7.03 2.59 10.61
4/6/2021 11:00:00 PM 8.87 47.966 0.062 7.03 2.64 10.64
4/6/2021 11:15:00 PM 8.8 47.84 0.062 7.04 2.62 10.66
4/6/2021 11:30:00 PM 8.72 47.696 0.062 7.03 2.58 10.67
4/6/2021 11:45:00 PM 8.65 47.57 0.062 7.03 2.55 10.7
4/7/2021 12:00:00 AM 8.59 47.462 0.062 7.03 2.71 10.72
4/7/2021 12:15:00 AM 8.52 47.336 0.062 7.03 2.59 10.74
4/7/2021 12:30:00 AM 8.46 47.228 0.062 7.02 2.57 10.76
4/7/2021 12:45:00 AM 8.39 47.102 0.062 7.02 2.73 10.77
4/7/2021 1:00:00 AM 8.32 46.976 0.062 7.02 2.68 10.79
4/7/2021 1:15:00 AM 8.25 46.85 0.062 7.02 2.63 10.81
4/7/2021 1:30:00 AM 8.2 46.76 0.062 7.03 2.42 10.83
4/7/2021 1:45:00 AM 8.14 46.652 0.062 7.02 2.62 10.84
4/7/2021 2:00:00 AM 8.08 46.544 0.062 7.02 2.59 10.85
4/7/2021 2:15:00 AM 8.01 46.418 0.062 7.02 2.41 10.87
4/7/2021 2:30:00 AM 7.95 46.31 0.062 7.02 2.59 10.89
4/7/2021 2:45:00 AM 7.88 46.184 0.062 7.02 2.91 10.9
4/7/2021 3:00:00 AM 7.82 46.076 0.062 7.02 2.57 10.92
4/7/2021 3:15:00 AM 7.76 45.968 0.062 7.01 2.69 10.94
4/7/2021 3:30:00 AM 7.71 45.878 0.062 7.02 2.65 10.95
4/7/2021 3:45:00 AM 7.67 45.806 0.062 7.01 2.54 10.96
4/7/2021 4:00:00 AM 7.63 45.734 0.062 7.02 2.51 10.98
4/7/2021 4:15:00 AM 7.59 45.662 0.062 7.01 2.52 11
4/7/2021 4:30:00 AM 7.57 45.626 0.062 7.02 2.59 11.01
4/7/2021 4:45:00 AM 7.53 45.554 0.062 7.02 2.6 11.02
4/7/2021 5:00:00 AM 7.51 45.518 0.062 7.03 2.55 11.03
4/7/2021 5:15:00 AM 7.48 45.464 0.062 7.02 2.61 11.04
4/7/2021 5:30:00 AM 7.45 45.41 0.062 7.03 2.5 11.05
4/7/2021 5:45:00 AM 7.42 45.356 0.062 7.02 2.59 11.06
4/7/2021 6:00:00 AM 7.4 45.32 0.062 7.01 2.47 11.06
4/7/2021 6:15:00 AM 7.39 45.302 0.062 7.01 2.45 11.07
4/7/2021 6:30:00 AM 7.37 45.266 0.062 7.01 2.51 11.08
4/7/2021 6:45:00 AM 7.36 45.248 0.062 7 2.71 11.08
4/7/2021 7:00:00 AM 7.35 45.23 0.062 7 2.68 11.1
4/7/2021 7:15:00 AM 7.35 45.23 0.062 7.01 2.72 11.13
4/7/2021 7:30:00 AM 7.34 45.212 0.062 7.03 2.7 11.16
4/7/2021 7:45:00 AM 7.35 45.23 0.061 7.04 2.88 11.25
4/7/2021 8:00:00 AM 7.36 45.248 0.061 7.08 2.82 11.36
4/7/2021 8:15:00 AM 7.37 45.266 0.061 7.09 2.75 11.44
4/7/2021 8:30:00 AM 7.4 45.32 0.061 7.15 2.46 11.53
4/7/2021 8:45:00 AM 7.43 45.374 0.061 7.19 2.4 11.59
4/7/2021 9:00:00 AM 7.47 45.446 0.061 7.23 2.57 11.65
4/7/2021 9:15:00 AM 7.53 45.554 0.061 7.26 2.37 11.69
4/7/2021 9:30:00 AM 7.61 45.698 0.061 7.3 2.39 11.72
4/7/2021 9:45:00 AM 7.71 45.878 0.061 7.33 2.42 11.75
4/7/2021 10:00:00 AM 7.84 46.112 0.061 7.37 2.38 11.76
4/7/2021 10:15:00 AM 8.01 46.418 0.06 7.4 2.57 11.76
4/7/2021 10:30:00 AM 8.21 46.778 0.06 7.46 2.37 11.74
4/7/2021 10:45:00 AM 8.42 47.156 0.06 7.48 2.35 11.72
4/7/2021 11:00:00 AM 8.64 47.552 0.06 7.51 2.47 11.68
4/7/2021 11:15:00 AM 8.9 48.02 0.06 7.53 2.43 11.63
4/7/2021 11:30:00 AM 9.17 48.506 0.06 7.55 2.4 11.58
4/7/2021 11:45:00 AM 9.47 49.046 0.06 7.59 2.37 11.52
4/7/2021 12:00:00 PM 9.79 49.622 0.06 7.61 2.4 11.45
4/7/2021 12:15:00 PM 10.16 50.288 0.06 7.64 2.47 11.38
4/7/2021 12:30:00 PM 10.43 50.774 0.06 7.64 2.49 11.28
4/7/2021 12:45:00 PM 10.69 51.242 0.06 7.66 2.45 11.21
4/7/2021 1:00:00 PM 10.85 51.53 0.06 7.67 2.44 11.13
4/7/2021 1:15:00 PM 11.09 51.962 0.06 7.68 2.34 11.08
4/7/2021 1:30:00 PM 11.2 52.16 0.06 7.7 2.29 11.02
4/7/2021 1:45:00 PM 11.38 52.484 0.06 7.7 2.36 10.97
4/7/2021 2:00:00 PM 11.55 52.79 0.06 7.68 2.52 10.91
4/7/2021 2:15:00 PM 11.76 53.168 0.06 7.69 2.51 10.88
4/7/2021 2:30:00 PM 11.92 53.456 0.06 7.69 2.46 10.81
4/7/2021 2:45:00 PM 12.05 53.69 0.06 7.65 2.43 10.74
4/7/2021 3:00:00 PM 12.12 53.816 0.06 7.66 2.57 10.74
4/7/2021 3:15:00 PM 12.25 54.05 0.06 7.68 2.68 10.72
4/7/2021 3:30:00 PM 12.36 54.248 0.06 7.68 2.67 10.67
4/7/2021 3:45:00 PM 12.43 54.374 0.06 7.66 2.54 10.61
4/7/2021 4:00:00 PM 12.5 54.5 0.06 7.65 2.4 10.57
4/7/2021 4:15:00 PM 12.56 54.608 0.06 7.67 2.53 10.57
4/7/2021 4:30:00 PM 12.56 54.608 0.06 7.63 2.46 10.5
4/7/2021 4:45:00 PM 12.55 54.59 0.06 7.6 2.48 10.44
4/7/2021 5:00:00 PM 12.51 54.518 0.06 7.54 2.64 10.39
4/7/2021 5:15:00 PM 12.52 54.536 0.061 7.5 2.68 10.35
4/7/2021 5:30:00 PM 12.52 54.536 0.063 7.45 2.96 10.32
4/7/2021 5:45:00 PM 12.44 54.392 0.064 7.41 2.8 10.3
4/7/2021 6:00:00 PM 12.34 54.212 0.063 7.39 2.83 10.3
4/7/2021 6:15:00 PM 12.24 54.032 0.063 7.36 2.78 10.28
4/7/2021 6:30:00 PM 12.12 53.816 0.063 7.33 2.7 10.25
4/7/2021 6:45:00 PM 12 53.6 0.062 7.31 2.52 10.22
4/7/2021 7:00:00 PM 11.86 53.348 0.062 7.28 2.71 10.19
4/7/2021 7:15:00 PM 11.72 53.096 0.062 7.25 2.76 10.16
4/7/2021 7:30:00 PM 11.57 52.826 0.062 7.21 2.89 10.12
4/7/2021 7:45:00 PM 11.41 52.538 0.062 7.16 2.95 10.08
4/7/2021 8:00:00 PM 11.26 52.268 0.063 7.13 2.83 10.06
4/7/2021 8:15:00 PM 11.12 52.016 0.063 7.11 2.78 10.06
4/7/2021 8:30:00 PM 10.97 51.746 0.063 7.09 2.81 10.08
4/7/2021 8:45:00 PM 10.82 51.476 0.063 7.08 2.69 10.1
4/7/2021 9:00:00 PM 10.68 51.224 0.063 7.07 2.8 10.13
4/7/2021 9:15:00 PM 10.55 50.99 0.063 7.07 2.81 10.16
4/7/2021 9:30:00 PM 10.42 50.756 0.063 7.06 2.71 10.19
4/7/2021 9:45:00 PM 10.29 50.522 0.063 7.05 2.8 10.23
4/7/2021 10:00:00 PM 10.17 50.306 0.063 7.06 2.73 10.26
4/7/2021 10:15:00 PM 10.04 50.072 0.063 7.04 2.75 10.29
4/7/2021 10:30:00 PM 9.92 49.856 0.063 7.05 2.92 10.32
4/7/2021 10:45:00 PM 9.8 49.64 0.063 7.04 2.72 10.36
4/7/2021 11:00:00 PM 9.68 49.424 0.063 7.06 2.61 10.39
4/7/2021 11:15:00 PM 9.57 49.226 0.063 7.05 2.85 10.42
4/7/2021 11:30:00 PM 9.46 49.028 0.063 7.04 2.7 10.45
4/7/2021 11:45:00 PM 9.35 48.83 0.063 7.04 2.6 10.48
4/8/2021 12:00:00 AM 9.24 48.632 0.063 7.03 2.78 10.52
4/8/2021 12:15:00 AM 9.13 48.434 0.063 7.04 2.68 10.55
4/8/2021 12:30:00 AM 9.02 48.236 0.063 7.03 2.7 10.56
4/8/2021 12:45:00 AM 8.92 48.056 0.063 7.03 2.81 10.6
4/8/2021 1:00:00 AM 8.81 47.858 0.063 7.05 2.64 10.62
4/8/2021 1:15:00 AM 8.71 47.678 0.063 7.04 2.66 10.65
4/8/2021 1:30:00 AM 8.61 47.498 0.063 7.04 2.7 10.68
4/8/2021 1:45:00 AM 8.51 47.318 0.063 7.03 2.73 10.71
4/8/2021 2:00:00 AM 8.41 47.138 0.063 7.04 2.56 10.74
4/8/2021 2:15:00 AM 8.32 46.976 0.063 7.03 2.78 10.76
4/8/2021 2:30:00 AM 8.23 46.814 0.063 7.04 2.67 10.79
4/8/2021 2:45:00 AM 8.14 46.652 0.063 7.02 2.58 10.81
4/8/2021 3:00:00 AM 8.06 46.508 0.063 7.03 2.52 10.84
4/8/2021 3:15:00 AM 7.97 46.346 0.063 7.03 2.58 10.86
4/8/2021 3:30:00 AM 7.89 46.202 0.063 7.04 2.55 10.89
4/8/2021 3:45:00 AM 7.82 46.076 0.063 7.03 2.69 10.91
4/8/2021 4:00:00 AM 7.74 45.932 0.063 7.04 2.53 10.93
4/8/2021 4:15:00 AM 7.66 45.788 0.063 7.04 2.63 10.96
4/8/2021 4:30:00 AM 7.59 45.662 0.063 7.03 2.59 10.97
4/8/2021 4:45:00 AM 7.52 45.536 0.063 7.03 2.54 11
4/8/2021 5:00:00 AM 7.45 45.41 0.063 7.04 2.52 11.01
4/8/2021 5:15:00 AM 7.38 45.284 0.063 7.03 2.53 11.04
4/8/2021 5:30:00 AM 7.31 45.158 0.063 7.03 2.64 11.06
4/8/2021 5:45:00 AM 7.25 45.05 0.063 7.03 2.8 11.08
4/8/2021 6:00:00 AM 7.19 44.942 0.063 7.04 2.72 11.1
4/8/2021 6:15:00 AM 7.13 44.834 0.063 7.03 2.62 11.11
4/8/2021 6:30:00 AM 7.07 44.726 0.063 7.02 2.66 11.13
4/8/2021 6:45:00 AM 7.01 44.618 0.063 7.02 2.71 11.16
4/8/2021 7:00:00 AM 6.96 44.528 0.063 7.03 2.88 11.21
4/8/2021 7:15:00 AM 6.91 44.438 0.063 7.04 2.74 11.28
4/8/2021 7:30:00 AM 6.87 44.366 0.063 7.06 2.68 11.36
4/8/2021 7:45:00 AM 6.84 44.312 0.063 7.09 2.69 11.44
4/8/2021 8:00:00 AM 6.83 44.294 0.062 7.11 2.56 11.54
4/8/2021 8:15:00 AM 6.84 44.312 0.062 7.14 2.52 11.63
4/8/2021 8:30:00 AM 6.86 44.348 0.062 7.17 2.4 11.7
4/8/2021 8:45:00 AM 6.89 44.402 0.062 7.21 2.59 11.76
4/8/2021 9:00:00 AM 6.95 44.51 0.062 7.25 2.36 11.81
4/8/2021 9:15:00 AM 7.02 44.636 0.062 7.28 2.34 11.85
4/8/2021 9:30:00 AM 7.13 44.834 0.062 7.32 2.38 11.88
4/8/2021 9:45:00 AM 7.27 45.086 0.062 7.34 2.37 11.9
4/8/2021 10:00:00 AM 7.44 45.392 0.062 7.39 2.42 11.9
4/8/2021 10:15:00 AM 7.63 45.734 0.062 7.41 2.33 11.9
4/8/2021 10:30:00 AM 7.86 46.148 0.061 7.45 2.49 11.86
4/8/2021 10:45:00 AM 8.11 46.598 0.061 7.48 2.35 11.83
4/8/2021 11:00:00 AM 8.37 47.066 0.061 7.51 2.4 11.78
4/8/2021 11:15:00 AM 8.65 47.57 0.061 7.53 2.42 11.72
4/8/2021 11:30:00 AM 8.95 48.11 0.061 7.56 2.28 11.65
4/8/2021 11:45:00 AM 9.28 48.704 0.061 7.57 2.38 11.57
4/8/2021 12:00:00 PM 9.62 49.316 0.061 7.61 2.36 11.5
4/8/2021 12:15:00 PM 9.98 49.964 0.061 7.61 2.51 11.41
4/8/2021 12:30:00 PM 10.34 50.612 0.061 7.63 2.39 11.32
4/8/2021 12:45:00 PM 10.7 51.26 0.06 7.65 2.43 11.23
4/8/2021 1:00:00 PM 11.03 51.854 0.06 7.66 2.38 11.15
4/8/2021 1:15:00 PM 11.35 52.43 0.06 7.69 2.44 11.06
4/8/2021 1:30:00 PM 11.64 52.952 0.06 7.7 2.47 10.99
4/8/2021 1:45:00 PM 11.91 53.438 0.06 7.72 2.43 10.9
4/8/2021 2:00:00 PM 12.16 53.888 0.06 7.72 2.41 10.83
4/8/2021 2:15:00 PM 12.39 54.302 0.06 7.73 2.4 10.76
4/8/2021 2:30:00 PM 12.6 54.68 0.06 7.73 2.45 10.7
4/8/2021 2:45:00 PM 12.79 55.022 0.06 7.74 2.71 10.64
4/8/2021 3:00:00 PM 12.94 55.292 0.06 7.75 2.52 10.59
4/8/2021 3:15:00 PM 13.07 55.526 0.06 7.75 2.51 10.53
4/8/2021 3:30:00 PM 13.19 55.742 0.06 7.75 2.42 10.49
4/8/2021 3:45:00 PM 13.28 55.904 0.06 7.74 2.51 10.46
4/8/2021 4:00:00 PM 13.38 56.084 0.06 7.76 2.5 10.43
4/8/2021 4:15:00 PM 13.44 56.192 0.061 7.73 2.7 10.37
4/8/2021 4:30:00 PM 13.46 56.228 0.061 7.69 2.71 10.3
4/8/2021 4:45:00 PM 13.46 56.228 0.061 7.64 2.9 10.23
4/8/2021 5:00:00 PM 13.44 56.192 0.061 7.58 2.82 10.18
4/8/2021 5:15:00 PM 13.42 56.156 0.061 7.54 2.39 10.13
4/8/2021 5:30:00 PM 13.38 56.084 0.061 7.5 2.57 10.1
4/8/2021 5:45:00 PM 13.3 55.94 0.061 7.47 2.57 10.07
4/8/2021 6:00:00 PM 13.22 55.796 0.061 7.42 2.69 10.05
4/8/2021 6:15:00 PM 13.12 55.616 0.061 7.41 2.72 10.02
4/8/2021 6:30:00 PM 13 55.4 0.061 7.37 2.71 10
4/8/2021 6:45:00 PM 12.86 55.148 0.062 7.34 2.72 9.97
4/8/2021 7:00:00 PM 12.69 54.842 0.062 7.3 2.71 9.94
4/8/2021 7:15:00 PM 12.51 54.518 0.062 7.27 2.61 9.9
4/8/2021 7:30:00 PM 12.34 54.212 0.062 7.22 2.77 9.87
4/8/2021 7:45:00 PM 12.17 53.906 0.062 7.18 2.69 9.85
4/8/2021 8:00:00 PM 11.99 53.582 0.063 7.15 2.78 9.84
4/8/2021 8:15:00 PM 11.82 53.276 0.063 7.14 2.87 9.85
4/8/2021 8:30:00 PM 11.65 52.97 0.063 7.12 2.82 9.87
4/8/2021 8:45:00 PM 11.48 52.664 0.063 7.12 2.77 9.9
4/8/2021 9:00:00 PM 11.33 52.394 0.063 7.11 2.77 9.94
4/8/2021 9:15:00 PM 11.18 52.124 0.063 7.12 2.77 9.97
4/8/2021 9:30:00 PM 11.05 51.89 0.063 7.11 2.72 10.01
4/8/2021 9:45:00 PM 10.92 51.656 0.063 7.12 2.87 10.04
4/8/2021 10:00:00 PM 10.8 51.44 0.063 7.11 2.83 10.07
4/8/2021 10:15:00 PM 10.69 51.242 0.063 7.11 2.74 10.1
4/8/2021 10:30:00 PM 10.58 51.044 0.063 7.12 2.92 10.13
4/8/2021 10:45:00 PM 10.48 50.864 0.063 7.09 2.84 10.16
4/8/2021 11:00:00 PM 10.37 50.666 0.063 7.1 2.89 10.19
4/8/2021 11:15:00 PM 10.28 50.504 0.064 7.1 2.79 10.21
4/8/2021 11:30:00 PM 10.18 50.324 0.064 7.1 2.74 10.24
4/8/2021 11:45:00 PM 10.09 50.162 0.063 7.11 2.66 10.27
4/9/2021 12:00:00 AM 10 50 0.064 7.11 2.6 10.29
4/9/2021 12:15:00 AM 9.92 49.856 0.064 7.11 2.81 10.31
4/9/2021 12:30:00 AM 9.84 49.712 0.064 7.1 2.76 10.33
4/9/2021 12:45:00 AM 9.76 49.568 0.064 7.1 2.73 10.36
4/9/2021 1:00:00 AM 9.69 49.442 0.064 7.11 2.85 10.38
4/9/2021 1:15:00 AM 9.62 49.316 0.064 7.1 2.8 10.4
4/9/2021 1:30:00 AM 9.56 49.208 0.064 7.1 2.69 10.41
4/9/2021 1:45:00 AM 9.5 49.1 0.064 7.09 2.68 10.43
4/9/2021 2:00:00 AM 9.44 48.992 0.064 7.1 2.74 10.45
4/9/2021 2:15:00 AM 9.38 48.884 0.064 7.1 2.78 10.46
4/9/2021 2:30:00 AM 9.32 48.776 0.064 7.09 2.81 10.48
4/9/2021 2:45:00 AM 9.27 48.686 0.064 7.1 2.66 10.49
4/9/2021 3:00:00 AM 9.23 48.614 0.064 7.09 2.66 10.5
4/9/2021 3:15:00 AM 9.19 48.542 0.064 7.1 2.62 10.51
4/9/2021 3:30:00 AM 9.15 48.47 0.063 7.1 2.76 10.53
4/9/2021 3:45:00 AM 9.12 48.416 0.063 7.09 2.67 10.54
4/9/2021 4:00:00 AM 9.08 48.344 0.064 7.09 2.57 10.56
4/9/2021 4:15:00 AM 9.05 48.29 0.064 7.1 2.53 10.57
4/9/2021 4:30:00 AM 9.03 48.254 0.064 7.11 2.6 10.58
4/9/2021 4:45:00 AM 9 48.2 0.064 7.09 2.67 10.58
4/9/2021 5:00:00 AM 8.97 48.146 0.063 7.11 2.68 10.58
4/9/2021 5:15:00 AM 8.94 48.092 0.064 7.1 2.64 10.6
4/9/2021 5:30:00 AM 8.91 48.038 0.064 7.09 2.53 10.61
4/9/2021 5:45:00 AM 8.88 47.984 0.064 7.11 2.61 10.62
4/9/2021 6:00:00 AM 8.84 47.912 0.063 7.11 2.57 10.63
4/9/2021 6:15:00 AM 8.82 47.876 0.064 7.09 2.57 10.63
4/9/2021 6:30:00 AM 8.79 47.822 0.063 7.09 2.61 10.64
4/9/2021 6:45:00 AM 8.77 47.786 0.064 7.09 2.62 10.65
4/9/2021 7:00:00 AM 8.76 47.768 0.064 7.1 2.46 10.66
4/9/2021 7:15:00 AM 8.74 47.732 0.064 7.11 2.74 10.71
4/9/2021 7:30:00 AM 8.73 47.714 0.064 7.12 2.87 10.74
4/9/2021 7:45:00 AM 8.71 47.678 0.063 7.13 2.67 10.77
4/9/2021 8:00:00 AM 8.69 47.642 0.064 7.11 2.76 10.79
4/9/2021 8:15:00 AM 8.68 47.624 0.063 7.1 2.49 10.81
4/9/2021 8:30:00 AM 8.68 47.624 0.063 7.09 2.56 10.91
4/9/2021 8:45:00 AM 8.69 47.642 0.063 7.17 2.54 11.02
4/9/2021 9:00:00 AM 8.69 47.642 0.063 7.2 2.44 11.06
4/9/2021 9:15:00 AM 8.69 47.642 0.063 7.22 2.44 11.07
4/9/2021 9:30:00 AM 8.7 47.66 0.063 7.24 2.55 11.13
4/9/2021 9:45:00 AM 8.71 47.678 0.063 7.26 2.62 11.17
4/9/2021 10:00:00 AM 8.73 47.714 0.063 7.3 2.55 11.22
4/9/2021 10:15:00 AM 8.77 47.786 0.062 7.32 2.5 11.29
4/9/2021 10:30:00 AM 8.83 47.894 0.062 7.39 2.39 11.37
4/9/2021 10:45:00 AM 8.88 47.984 0.062 7.41 2.47 11.41
4/9/2021 11:00:00 AM 8.93 48.074 0.062 7.46 2.44 11.43
4/9/2021 11:15:00 AM 8.97 48.146 0.062 7.49 2.52 11.43
4/9/2021 11:30:00 AM 9.03 48.254 0.062 7.52 2.38 11.46
4/9/2021 11:45:00 AM 9.09 48.362 0.062 7.54 2.55 11.46
4/9/2021 12:00:00 PM 9.14 48.452 0.062 7.56 2.59 11.43
4/9/2021 12:15:00 PM 9.24 48.632 0.062 7.6 2.4 11.45
4/9/2021 12:30:00 PM 9.3 48.74 0.062 7.59 2.49 11.43
4/9/2021 12:45:00 PM 9.34 48.812 0.061 7.59 2.46 11.39
4/9/2021 1:00:00 PM 9.4 48.92 0.063 7.58 2.47 11.33
4/9/2021 1:15:00 PM 9.47 49.046 0.066 7.5 2.87 11.24
4/9/2021 1:30:00 PM 9.54 49.172 0.066 7.49 2.81 11.21
4/9/2021 1:45:00 PM 9.66 49.388 0.065 7.52 2.69 11.26
4/9/2021 2:00:00 PM 9.74 49.532 0.064 7.57 2.61 11.25
4/9/2021 2:15:00 PM 9.82 49.676 0.064 7.58 2.58 11.24
4/9/2021 2:30:00 PM 9.88 49.784 0.063 7.59 2.53 11.22
4/9/2021 2:45:00 PM 9.92 49.856 0.063 7.59 2.51 11.19
4/9/2021 3:00:00 PM 10 50 0.063 7.63 2.47 11.21
4/9/2021 3:15:00 PM 10.06 50.108 0.063 7.65 2.52 11.21
4/9/2021 3:30:00 PM 10.15 50.27 0.062 7.68 2.54 11.21
4/9/2021 3:45:00 PM 10.21 50.378 0.062 7.69 2.62 11.2
4/9/2021 4:00:00 PM 10.27 50.486 0.062 7.7 2.63 11.18
4/9/2021 4:15:00 PM 10.28 50.504 0.062 7.67 2.56 11.1
4/9/2021 4:30:00 PM 10.33 50.594 0.062 7.67 2.59 11.1
4/9/2021 4:45:00 PM 10.34 50.612 0.062 7.63 2.58 11.03
4/9/2021 5:00:00 PM 10.34 50.612 0.062 7.55 2.59 10.89
4/9/2021 5:15:00 PM 10.36 50.648 0.062 7.5 2.56 10.85
4/9/2021 5:30:00 PM 10.39 50.702 0.062 7.5 2.54 10.89
4/9/2021 5:45:00 PM 10.44 50.792 0.062 7.52 2.57 10.91
4/9/2021 6:00:00 PM 10.46 50.828 0.062 7.5 2.53 10.82
4/9/2021 6:15:00 PM 10.48 50.864 0.062 7.46 2.46 10.78
4/9/2021 6:30:00 PM 10.48 50.864 0.062 7.42 2.66 10.67
4/9/2021 6:45:00 PM 10.47 50.846 0.062 7.37 2.59 10.58
4/9/2021 7:00:00 PM 10.45 50.81 0.063 7.32 2.69 10.48
4/9/2021 7:15:00 PM 10.43 50.774 0.063 7.28 2.71 10.41
4/9/2021 7:30:00 PM 10.39 50.702 0.063 7.23 2.55 10.36
4/9/2021 7:45:00 PM 10.35 50.63 0.063 7.22 2.68 10.32
4/9/2021 8:00:00 PM 10.31 50.558 0.063 7.21 2.76 10.3
4/9/2021 8:15:00 PM 10.27 50.486 0.063 7.18 2.65 10.28
4/9/2021 8:30:00 PM 10.23 50.414 0.064 7.16 2.71 10.28
4/9/2021 8:45:00 PM 10.18 50.324 0.064 7.16 2.75 10.28
4/9/2021 9:00:00 PM 10.13 50.234 0.064 7.15 2.84 10.29
4/9/2021 9:15:00 PM 10.08 50.144 0.064 7.15 2.68 10.3
4/9/2021 9:30:00 PM 10.02 50.036 0.064 7.15 2.66 10.32
4/9/2021 9:45:00 PM 9.97 49.946 0.064 7.15 2.77 10.33
4/9/2021 10:00:00 PM 9.92 49.856 0.064 7.14 2.54 10.34
4/9/2021 10:15:00 PM 9.87 49.766 0.064 7.14 2.68 10.35
4/9/2021 10:30:00 PM 9.82 49.676 0.064 7.13 2.65 10.37
4/9/2021 10:45:00 PM 9.77 49.586 0.064 7.14 2.73 10.38
4/9/2021 11:00:00 PM 9.73 49.514 0.064 7.13 2.56 10.39
4/9/2021 11:15:00 PM 9.69 49.442 0.064 7.13 2.65 10.4
4/9/2021 11:30:00 PM 9.64 49.352 0.064 7.15 2.42 10.41
4/9/2021 11:45:00 PM 9.6 49.28 0.064 7.13 2.54 10.42
4/10/2021 12:00:00 AM 9.57 49.226 0.064 7.14 2.58 10.43
4/10/2021 12:15:00 AM 9.53 49.154 0.064 7.14 2.55 10.45
4/10/2021 12:30:00 AM 9.5 49.1 0.064 7.14 2.48 10.45
4/10/2021 12:45:00 AM 9.46 49.028 0.064 7.13 2.43 10.46
4/10/2021 1:00:00 AM 9.43 48.974 0.064 7.14 2.68 10.47
4/10/2021 1:15:00 AM 9.4 48.92 0.064 7.13 2.57 10.48
4/10/2021 1:30:00 AM 9.37 48.866 0.064 7.14 2.57 10.49
4/10/2021 1:45:00 AM 9.35 48.83 0.064 7.14 2.65 10.5
4/10/2021 2:00:00 AM 9.32 48.776 0.064 7.13 2.6 10.51
4/10/2021 2:15:00 AM 9.3 48.74 0.064 7.14 2.5 10.52
4/10/2021 2:30:00 AM 9.27 48.686 0.064 7.14 2.45 10.52
4/10/2021 2:45:00 AM 9.25 48.65 0.064 7.13 2.52 10.52
4/10/2021 3:00:00 AM 9.22 48.596 0.064 7.12 2.66 10.53
4/10/2021 3:15:00 AM 9.2 48.56 0.064 7.12 2.52 10.53
4/10/2021 3:30:00 AM 9.18 48.524 0.064 7.12 2.57 10.53
4/10/2021 3:45:00 AM 9.16 48.488 0.064 7.13 2.67 10.54
4/10/2021 4:00:00 AM 9.14 48.452 0.064 7.13 2.57 10.55
4/10/2021 4:15:00 AM 9.12 48.416 0.064 7.13 2.64 10.55
4/10/2021 4:30:00 AM 9.11 48.398 0.064 7.12 2.6 10.54
4/10/2021 4:45:00 AM 9.09 48.362 0.064 7.12 2.59 10.55
4/10/2021 5:00:00 AM 9.07 48.326 0.064 7.12 2.52 10.55
4/10/2021 5:15:00 AM 9.06 48.308 0.064 7.11 2.83 10.57
4/10/2021 5:30:00 AM 9.04 48.272 0.064 7.12 2.67 10.57
4/10/2021 5:45:00 AM 9.03 48.254 0.064 7.11 2.62 10.57
4/10/2021 6:00:00 AM 9.02 48.236 0.064 7.12 2.64 10.57
4/10/2021 6:15:00 AM 9 48.2 0.064 7.11 2.8 10.58
4/10/2021 6:30:00 AM 8.99 48.182 0.065 7.11 3.06 10.59
4/10/2021 6:45:00 AM 8.98 48.164 0.064 7.12 2.88 10.59
4/10/2021 7:00:00 AM 8.97 48.146 0.064 7.12 2.71 10.62
4/10/2021 7:15:00 AM 8.96 48.128 0.064 7.13 2.65 10.64
4/10/2021 7:30:00 AM 8.96 48.128 0.064 7.14 2.63 10.67
4/10/2021 7:45:00 AM 8.96 48.128 0.064 7.16 2.54 10.74
4/10/2021 8:00:00 AM 8.97 48.146 0.064 7.17 2.63 10.81
4/10/2021 8:15:00 AM 8.99 48.182 0.064 7.2 2.57 10.88
4/10/2021 8:30:00 AM 9.01 48.218 0.064 7.25 2.62 10.96
4/10/2021 8:45:00 AM 9.04 48.272 0.064 7.29 2.66 11.05
4/10/2021 9:00:00 AM 9.09 48.362 0.064 7.31 2.34 11.13
4/10/2021 9:15:00 AM 9.14 48.452 0.063 7.36 2.43 11.2
4/10/2021 9:30:00 AM 9.21 48.578 0.063 7.41 2.52 11.28
4/10/2021 9:45:00 AM 9.32 48.776 0.063 7.46 2.62 11.34
4/10/2021 10:00:00 AM 9.46 49.028 0.063 7.52 2.45 11.37
4/10/2021 10:15:00 AM 9.69 49.442 0.063 7.56 2.39 11.37
4/10/2021 10:30:00 AM 9.94 49.892 0.063 7.61 2.52 11.34
4/10/2021 10:45:00 AM 10.13 50.234 0.068 7.53 2.86 11.26
4/10/2021 11:00:00 AM 10.32 50.576 0.068 7.53 2.79 11.22
4/10/2021 11:15:00 AM 10.49 50.882 0.067 7.57 2.73 11.21
4/10/2021 11:30:00 AM 10.67 51.206 0.066 7.61 2.63 11.18
4/10/2021 11:45:00 AM 10.89 51.602 0.065 7.65 2.56 11.14
4/10/2021 12:00:00 PM 11.13 52.034 0.064 7.69 2.58 11.09
4/10/2021 12:15:00 PM 11.37 52.466 0.064 7.72 2.52 11.04
4/10/2021 12:30:00 PM 11.62 52.916 0.063 7.75 2.58 10.99
4/10/2021 12:45:00 PM 11.89 53.402 0.063 7.78 2.74 10.93
4/10/2021 1:00:00 PM 12.15 53.87 0.063 7.8 2.54 10.87
4/10/2021 1:15:00 PM 12.41 54.338 0.063 7.81 2.73 10.81
4/10/2021 1:30:00 PM 12.62 54.716 0.062 7.83 2.73 10.74
4/10/2021 1:45:00 PM 12.81 55.058 0.062 7.85 2.55 10.69
4/10/2021 2:00:00 PM 12.95 55.31 0.062 7.88 2.54 10.64
4/10/2021 2:15:00 PM 13.08 55.544 0.062 7.89 2.53 10.6
4/10/2021 2:30:00 PM 13.2 55.76 0.062 7.91 2.41 10.56
4/10/2021 2:45:00 PM 13.32 55.976 0.062 7.9 2.66 10.52
4/10/2021 3:00:00 PM 13.45 56.21 0.062 7.92 2.52 10.48
4/10/2021 3:15:00 PM 13.56 56.408 0.062 7.93 2.68 10.45
4/10/2021 3:30:00 PM 13.63 56.534 0.062 7.93 2.52 10.41
4/10/2021 3:45:00 PM 13.68 56.624 0.062 7.92 2.6 10.38
4/10/2021 4:00:00 PM 13.71 56.678 0.062 7.92 2.67 10.34
4/10/2021 4:15:00 PM 13.74 56.732 0.062 7.91 2.64 10.31
4/10/2021 4:30:00 PM 13.74 56.732 0.062 7.88 2.79 10.27
4/10/2021 4:45:00 PM 13.75 56.75 0.062 7.85 2.75 10.25
4/10/2021 5:00:00 PM 13.74 56.732 0.062 7.84 2.72 10.23
4/10/2021 5:15:00 PM 13.72 56.696 0.062 7.8 2.65 10.19
4/10/2021 5:30:00 PM 13.69 56.642 0.062 7.73 2.71 10.16
4/10/2021 5:45:00 PM 13.63 56.534 0.062 7.7 2.85 10.13
4/10/2021 6:00:00 PM 13.57 56.426 0.062 7.68 2.77 10.09
4/10/2021 6:15:00 PM 13.48 56.264 0.062 7.6 2.84 10.04
4/10/2021 6:30:00 PM 13.38 56.084 0.063 7.56 2.74 9.97
4/10/2021 6:45:00 PM 13.26 55.868 0.063 7.49 2.77 9.91
4/10/2021 7:00:00 PM 13.13 55.634 0.063 7.43 2.57 9.85
4/10/2021 7:15:00 PM 12.99 55.382 0.063 7.38 2.7 9.79
4/10/2021 7:30:00 PM 12.85 55.13 0.064 7.34 2.83 9.73
4/10/2021 7:45:00 PM 12.71 54.878 0.064 7.28 2.74 9.68
4/10/2021 8:00:00 PM 12.57 54.626 0.064 7.26 2.92 9.64
4/10/2021 8:15:00 PM 12.43 54.374 0.064 7.22 2.64 9.63
4/10/2021 8:30:00 PM 12.28 54.104 0.065 7.21 2.78 9.63
4/10/2021 8:45:00 PM 12.15 53.87 0.065 7.2 2.92 9.66
4/10/2021 9:00:00 PM 12.02 53.636 0.065 7.19 2.95 9.68
4/10/2021 9:15:00 PM 11.88 53.384 0.065 7.18 2.98 9.7
4/10/2021 9:30:00 PM 11.76 53.168 0.065 7.18 2.79 9.73
4/10/2021 9:45:00 PM 11.63 52.934 0.065 7.17 2.86 9.76
4/10/2021 10:00:00 PM 11.51 52.718 0.065 7.17 2.79 9.79
4/10/2021 10:15:00 PM 11.41 52.538 0.065 7.15 2.77 9.82
4/10/2021 10:30:00 PM 11.31 52.358 0.065 7.16 2.8 9.84
4/10/2021 10:45:00 PM 11.23 52.214 0.065 7.15 2.82 9.86
4/10/2021 11:00:00 PM 11.16 52.088 0.065 7.15 2.79 9.88
4/10/2021 11:15:00 PM 11.08 51.944 0.065 7.14 2.84 9.91
4/10/2021 11:30:00 PM 11.01 51.818 0.065 7.15 2.86 9.92
4/10/2021 11:45:00 PM 10.94 51.692 0.065 7.14 2.89 9.94
4/11/2021 12:00:00 AM 10.88 51.584 0.065 7.13 2.75 9.96
4/11/2021 12:15:00 AM 10.82 51.476 0.065 7.14 2.8 9.97
4/11/2021 12:30:00 AM 10.76 51.368 0.065 7.15 2.75 9.98
4/11/2021 12:45:00 AM 10.71 51.278 0.065 7.14 2.76 10
4/11/2021 1:00:00 AM 10.66 51.188 0.065 7.13 2.72 10.01
4/11/2021 1:15:00 AM 10.62 51.116 0.065 7.13 2.91 10.02
4/11/2021 1:30:00 AM 10.58 51.044 0.065 7.13 2.71 10.03
4/11/2021 1:45:00 AM 10.54 50.972 0.065 7.12 2.74 10.03
4/11/2021 2:00:00 AM 10.5 50.9 0.065 7.13 2.75 10.04
4/11/2021 2:15:00 AM 10.47 50.846 0.065 7.14 2.7 10.05
4/11/2021 2:30:00 AM 10.44 50.792 0.065 7.13 2.72 10.06
4/11/2021 2:45:00 AM 10.41 50.738 0.065 7.12 2.7 10.06
4/11/2021 3:00:00 AM 10.39 50.702 0.065 7.13 2.72 10.07
4/11/2021 3:15:00 AM 10.36 50.648 0.065 7.13 2.71 10.07
4/11/2021 3:30:00 AM 10.33 50.594 0.065 7.13 2.77 10.07
4/11/2021 3:45:00 AM 10.3 50.54 0.065 7.12 2.74 10.08
4/11/2021 4:00:00 AM 10.28 50.504 0.065 7.13 2.72 10.08
4/11/2021 4:15:00 AM 10.26 50.468 0.065 7.12 2.74 10.08
4/11/2021 4:30:00 AM 10.24 50.432 0.065 7.12 2.75 10.09
4/11/2021 4:45:00 AM 10.21 50.378 0.065 7.11 2.75 10.09
4/11/2021 5:00:00 AM 10.19 50.342 0.065 7.13 2.75 10.09
4/11/2021 5:15:00 AM 10.17 50.306 0.065 7.11 2.68 10.1
4/11/2021 5:30:00 AM 10.16 50.288 0.065 7.12 2.64 10.1
4/11/2021 5:45:00 AM 10.14 50.252 0.065 7.12 2.79 10.1
4/11/2021 6:00:00 AM 10.12 50.216 0.065 7.11 2.82 10.11
4/11/2021 6:15:00 AM 10.1 50.18 0.065 7.11 2.76 10.11
4/11/2021 6:30:00 AM 10.08 50.144 0.065 7.11 3.03 10.11
4/11/2021 6:45:00 AM 10.06 50.108 0.065 7.12 2.93 10.12
4/11/2021 7:00:00 AM 10.05 50.09 0.065 7.11 2.78 10.13
4/11/2021 7:15:00 AM 10.04 50.072 0.065 7.11 2.86 10.14
4/11/2021 7:30:00 AM 10.03 50.054 0.065 7.1 2.74 10.15
4/11/2021 7:45:00 AM 10.02 50.036 0.064 7.12 2.81 10.18
4/11/2021 8:00:00 AM 10.01 50.018 0.064 7.1 2.72 10.2
4/11/2021 8:15:00 AM 10.01 50.018 0.064 7.12 2.72 10.22
4/11/2021 8:30:00 AM 10 50 0.064 7.11 3.05 10.24
4/11/2021 8:45:00 AM 10 50 0.064 7.15 2.9 10.29
4/11/2021 9:00:00 AM 10 50 0.064 7.14 2.77 10.33
4/11/2021 9:15:00 AM 10 50 0.064 7.17 3.09 10.41
4/11/2021 9:30:00 AM 10.01 50.018 0.064 7.18 3.06 10.47
4/11/2021 9:45:00 AM 10.02 50.036 0.064 7.21 2.93 10.53
4/11/2021 10:00:00 AM 10.02 50.036 0.064 7.22 2.95 10.54
4/11/2021 10:15:00 AM 10.03 50.054 0.065 7.23 2.99 10.53
4/11/2021 10:30:00 AM 10.04 50.072 0.065 7.23 3.46 10.57
4/11/2021 10:45:00 AM 10.06 50.108 0.065 7.27 3.05 10.63
4/11/2021 11:00:00 AM 10.09 50.162 0.064 7.3 3.28 10.67
4/11/2021 11:15:00 AM 10.1 50.18 0.064 7.29 3.02 10.67
4/11/2021 11:30:00 AM 10.14 50.252 0.064 7.31 3.05 10.71
4/11/2021 11:45:00 AM 10.18 50.324 0.064 7.33 3.04 10.77
4/11/2021 12:00:00 PM 10.26 50.468 0.063 7.36 3.17 10.83
4/11/2021 12:15:00 PM 10.32 50.576 0.064 7.4 3.08 10.84
4/11/2021 12:30:00 PM 10.42 50.756 0.064 7.44 3.25 10.87
4/11/2021 12:45:00 PM 10.5 50.9 0.063 7.45 3.35 10.86
4/11/2021 1:00:00 PM 10.61 51.098 0.063 7.48 3.43 10.86
4/11/2021 1:15:00 PM 10.74 51.332 0.064 7.51 3.19 10.86
4/11/2021 1:30:00 PM 10.87 51.566 0.064 7.53 3.29 10.83
4/11/2021 1:45:00 PM 11 51.8 0.064 7.56 3.07 10.8
4/11/2021 2:00:00 PM 11.07 51.926 0.064 7.56 3.36 10.74
4/11/2021 2:15:00 PM 11.14 52.052 0.064 7.56 3.05 10.71
4/11/2021 2:30:00 PM 11.22 52.196 0.065 7.57 3.13 10.68
4/11/2021 2:45:00 PM 11.34 52.412 0.065 7.59 3.21 10.69
4/11/2021 3:00:00 PM 11.45 52.61 0.065 7.62 3.25 10.67
4/11/2021 3:15:00 PM 11.51 52.718 0.066 7.61 3.07 10.63
4/11/2021 3:30:00 PM 11.61 52.898 0.066 7.62 3.05 10.62
4/11/2021 3:45:00 PM 11.69 53.042 0.066 7.64 3.04 10.61
4/11/2021 4:00:00 PM 11.75 53.15 0.067 7.65 2.83 10.58
4/11/2021 4:15:00 PM 11.8 53.24 0.067 7.64 3.05 10.55
4/11/2021 4:30:00 PM 11.77 53.186 0.068 7.58 2.9 10.41
4/11/2021 4:45:00 PM 11.74 53.132 0.068 7.5 2.96 10.29
4/11/2021 5:00:00 PM 11.7 53.06 0.069 7.43 3.06 10.23
4/11/2021 5:15:00 PM 11.69 53.042 0.069 7.43 3.02 10.27
4/11/2021 5:30:00 PM 11.67 53.006 0.069 7.43 2.91 10.25
4/11/2021 5:45:00 PM 11.64 52.952 0.069 7.42 3.08 10.25
4/11/2021 6:00:00 PM 11.59 52.862 0.07 7.38 2.92 10.17
4/11/2021 6:15:00 PM 11.54 52.772 0.07 7.36 2.96 10.19
4/11/2021 6:30:00 PM 11.5 52.7 0.07 7.35 2.9 10.2
4/11/2021 6:45:00 PM 11.44 52.592 0.07 7.34 3.03 10.16
4/11/2021 7:00:00 PM 11.38 52.484 0.07 7.31 3.19 10.12
4/11/2021 7:15:00 PM 11.31 52.358 0.07 7.28 2.97 10.1
4/11/2021 7:30:00 PM 11.24 52.232 0.07 7.25 2.97 10.07
4/11/2021 7:45:00 PM 11.17 52.106 0.07 7.23 3.07 10.02
4/11/2021 8:00:00 PM 11.09 51.962 0.07 7.19 3.05 9.97
4/11/2021 8:15:00 PM 11.02 51.836 0.07 7.17 2.98 9.94
4/11/2021 8:30:00 PM 10.95 51.71 0.07 7.14 3.08 9.93
4/11/2021 8:45:00 PM 10.88 51.584 0.07 7.14 3.05 9.94
4/11/2021 9:00:00 PM 10.81 51.458 0.07 7.14 3.31 9.94
4/11/2021 9:15:00 PM 10.75 51.35 0.07 7.12 3.3 9.95
4/11/2021 9:30:00 PM 10.69 51.242 0.07 7.1 3.13 9.97
4/11/2021 9:45:00 PM 10.64 51.152 0.07 7.1 3.05 9.99
4/11/2021 10:00:00 PM 10.58 51.044 0.07 7.11 3.26 10
4/11/2021 10:15:00 PM 10.52 50.936 0.07 7.1 3.18 10.02
4/11/2021 10:30:00 PM 10.46 50.828 0.069 7.11 3.18 10.03
4/11/2021 10:45:00 PM 10.39 50.702 0.069 7.11 3.24 10.06
4/11/2021 11:00:00 PM 10.33 50.594 0.069 7.1 3.64 10.07
4/11/2021 11:15:00 PM 10.27 50.486 0.069 7.09 3.48 10.09
4/11/2021 11:30:00 PM 10.22 50.396 0.069 7.1 3.78 10.1
4/11/2021 11:45:00 PM 10.16 50.288 0.069 7.09 3.99 10.11
4/12/2021 12:00:00 AM 10.11 50.198 0.068 7.08 4.01 10.13
4/12/2021 12:15:00 AM 10.06 50.108 0.068 7.07 3.99 10.15
4/12/2021 12:30:00 AM 10.01 50.018 0.067 7.07 4.35 10.17
4/12/2021 12:45:00 AM 9.97 49.946 0.067 7.08 4.06 10.18
4/12/2021 1:00:00 AM 9.93 49.874 0.068 7.06 4.22 10.2
4/12/2021 1:15:00 AM 9.89 49.802 0.069 7.02 4.34 10.21
4/12/2021 1:30:00 AM 9.86 49.748 0.07 7.02 4.19 10.22
4/12/2021 1:45:00 AM 9.84 49.712 0.071 7.03 4.32 10.23
4/12/2021 2:00:00 AM 9.81 49.658 0.071 7.03 4.81 10.24
4/12/2021 2:15:00 AM 9.79 49.622 0.071 7.04 4.49 10.25
4/12/2021 2:30:00 AM 9.76 49.568 0.072 7.04 4.8 10.26
4/12/2021 2:45:00 AM 9.73 49.514 0.072 7.04 4.82 10.26
4/12/2021 3:00:00 AM 9.71 49.478 0.073 7.05 4.79 10.26
4/12/2021 3:15:00 AM 9.68 49.424 0.074 7.01 4.93 10.27
4/12/2021 3:30:00 AM 9.65 49.37 0.075 7.02 4.96 10.28
4/12/2021 3:45:00 AM 9.63 49.334 0.075 7.03 5.01 10.29
4/12/2021 4:00:00 AM 9.6 49.28 0.076 7.03 4.62 10.29
4/12/2021 4:15:00 AM 9.57 49.226 0.076 7.05 4.5 10.3
4/12/2021 4:30:00 AM 9.54 49.172 0.076 7.05 4.4 10.31
4/12/2021 4:45:00 AM 9.51 49.118 0.076 7.07 4.02 10.31
4/12/2021 5:00:00 AM 9.48 49.064 0.075 7.09 4.34 10.32
4/12/2021 5:15:00 AM 9.45 49.01 0.075 7.1 4.17 10.33
4/12/2021 5:30:00 AM 9.42 48.956 0.075 7.12 3.81 10.34
4/12/2021 5:45:00 AM 9.38 48.884 0.075 7.11 3.82 10.35
4/12/2021 6:00:00 AM 9.36 48.848 0.074 7.11 3.92 10.36
4/12/2021 6:15:00 AM 9.33 48.794 0.074 7.1 3.96 10.37
4/12/2021 6:30:00 AM 9.3 48.74 0.074 7.09 3.88 10.37
4/12/2021 6:45:00 AM 9.26 48.668 0.074 7.07 3.78 10.4
4/12/2021 7:00:00 AM 9.24 48.632 0.074 7.09 3.37 10.42
4/12/2021 7:15:00 AM 9.21 48.578 0.073 7.11 3.47 10.46
4/12/2021 7:30:00 AM 9.2 48.56 0.073 7.12 3.98 10.52
4/12/2021 7:45:00 AM 9.2 48.56 0.073 7.14 3.36 10.57
4/12/2021 8:00:00 AM 9.19 48.542 0.073 7.14 3.27 10.6
4/12/2021 8:15:00 AM 9.18 48.524 0.073 7.15 3.28 10.62
4/12/2021 8:30:00 AM 9.17 48.506 0.072 7.15 3.2 10.63
4/12/2021 8:45:00 AM 9.16 48.488 0.072 7.16 3.07 10.66
4/12/2021 9:00:00 AM 9.16 48.488 0.072 7.18 3.17 10.69
4/12/2021 9:15:00 AM 9.16 48.488 0.072 7.2 3.17 10.72
4/12/2021 9:30:00 AM 9.15 48.47 0.072 7.21 3.04 10.71
4/12/2021 9:45:00 AM 9.15 48.47 0.072 7.21 3.12 10.71
4/12/2021 10:00:00 AM 9.15 48.47 0.071 7.21 2.93 10.71
4/12/2021 10:15:00 AM 9.15 48.47 0.071 7.22 3.14 10.76
4/12/2021 10:30:00 AM 9.17 48.506 0.071 7.24 2.94 10.84
4/12/2021 10:45:00 AM 9.19 48.542 0.071 7.24 2.96 10.89
4/12/2021 11:00:00 AM 9.2 48.56 0.071 7.31 2.93 10.88
4/12/2021 11:15:00 AM 9.22 48.596 0.071 7.31 2.84 10.9
4/12/2021 11:30:00 AM 9.24 48.632 0.07 7.34 3 10.95
4/12/2021 11:45:00 AM 9.28 48.704 0.07 7.36 3 11.01
4/12/2021 12:00:00 PM 9.3 48.74 0.07 7.35 2.77 11
4/12/2021 12:15:00 PM 9.35 48.83 0.07 7.4 2.83 11.07
4/12/2021 12:30:00 PM 9.43 48.974 0.07 7.43 3.03 11.11
4/12/2021 12:45:00 PM 9.52 49.136 0.07 7.47 2.87 11.13
4/12/2021 1:00:00 PM 9.55 49.19 0.069 7.48 2.84 11.07
4/12/2021 1:15:00 PM 9.6 49.28 0.069 7.48 2.82 11.06
4/12/2021 1:30:00 PM 9.64 49.352 0.069 7.47 2.86 11.06
4/12/2021 1:45:00 PM 9.73 49.514 0.069 7.5 2.87 11.08
4/12/2021 2:00:00 PM 9.9 49.82 0.069 7.54 2.91 11.11
4/12/2021 2:15:00 PM 10.01 50.018 0.069 7.55 2.83 11.08
4/12/2021 2:30:00 PM 10.13 50.234 0.068 7.59 2.84 11.06
4/12/2021 2:45:00 PM 10.2 50.36 0.068 7.59 2.94 11.04
4/12/2021 3:00:00 PM 10.26 50.468 0.068 7.6 2.8 11.01
4/12/2021 3:15:00 PM 10.32 50.576 0.068 7.6 2.76 10.99
4/12/2021 3:30:00 PM 10.29 50.522 0.068 7.55 2.75 10.88
4/12/2021 3:45:00 PM 10.26 50.468 0.069 7.48 2.78 10.7
4/12/2021 4:00:00 PM 10.2 50.36 0.069 7.4 2.92 10.56
4/12/2021 4:15:00 PM 10.41 50.738 0.085 7.18 29.73 10.3
4/12/2021 4:30:00 PM 10.48 50.864 0.086 7.08 11.21 10.38
4/12/2021 4:45:00 PM 10.47 50.846 0.083 7.12 6.22 10.5
4/12/2021 5:00:00 PM 10.43 50.774 0.079 7.19 4.54 10.59
4/12/2021 5:15:00 PM 10.36 50.648 0.076 7.23 3.91 10.63
4/12/2021 5:30:00 PM 10.29 50.522 0.074 7.26 3.56 10.65
4/12/2021 5:45:00 PM 10.24 50.432 0.073 7.27 3.21 10.65
4/12/2021 6:00:00 PM 10.19 50.342 0.072 7.29 3.26 10.66
4/12/2021 6:15:00 PM 10.14 50.252 0.071 7.32 3.24 10.65
4/12/2021 6:30:00 PM 10.1 50.18 0.07 7.3 3.21 10.64
4/12/2021 6:45:00 PM 10.05 50.09 0.07 7.28 3.13 10.62
4/12/2021 7:00:00 PM 10.01 50.018 0.07 7.27 3.19 10.59
4/12/2021 7:15:00 PM 9.97 49.946 0.07 7.27 3.13 10.53
4/12/2021 7:30:00 PM 9.92 49.856 0.07 7.23 3.14 10.47
4/12/2021 7:45:00 PM 9.88 49.784 0.069 7.22 3.15 10.42
4/12/2021 8:00:00 PM 9.83 49.694 0.069 7.2 3.17 10.38
4/12/2021 8:15:00 PM 9.78 49.604 0.069 7.18 3.09 10.36
4/12/2021 8:30:00 PM 9.73 49.514 0.069 7.16 3.17 10.36
4/12/2021 8:45:00 PM 9.68 49.424 0.069 7.16 3.14 10.37
4/12/2021 9:00:00 PM 9.63 49.334 0.069 7.18 3.28 10.37
4/12/2021 9:15:00 PM 9.58 49.244 0.069 7.15 3.35 10.39
4/12/2021 9:30:00 PM 9.53 49.154 0.069 7.15 3.14 10.4
4/12/2021 9:45:00 PM 9.47 49.046 0.069 7.13 3.18 10.42
4/12/2021 10:00:00 PM 9.43 48.974 0.069 7.13 3.2 10.43
4/12/2021 10:15:00 PM 9.38 48.884 0.069 7.13 3.4 10.44
4/12/2021 10:30:00 PM 9.33 48.794 0.069 7.14 3.14 10.46
4/12/2021 10:45:00 PM 9.28 48.704 0.069 7.13 3.18 10.47
4/12/2021 11:00:00 PM 9.24 48.632 0.068 7.12 2.9 10.49
4/12/2021 11:15:00 PM 9.2 48.56 0.068 7.13 3.04 10.5
4/12/2021 11:30:00 PM 9.16 48.488 0.068 7.13 3.03 10.52
4/12/2021 11:45:00 PM 9.12 48.416 0.068 7.12 3.53 10.53
4/13/2021 12:00:00 AM 9.08 48.344 0.068 7.09 3.15 10.53
4/13/2021 12:15:00 AM 9.05 48.29 0.068 7.1 3.11 10.54
4/13/2021 12:30:00 AM 9.02 48.236 0.068 7.1 3.27 10.56
4/13/2021 12:45:00 AM 8.99 48.182 0.068 7.1 3.06 10.58
4/13/2021 1:00:00 AM 8.96 48.128 0.068 7.1 3 10.58
4/13/2021 1:15:00 AM 8.94 48.092 0.069 7.12 3.22 10.59
4/13/2021 1:30:00 AM 8.91 48.038 0.069 7.11 3.1 10.59
4/13/2021 1:45:00 AM 8.89 48.002 0.069 7.12 3.06 10.6
4/13/2021 2:00:00 AM 8.87 47.966 0.069 7.12 3.02 10.6
4/13/2021 2:15:00 AM 8.85 47.93 0.069 7.13 3.15 10.61
4/13/2021 2:30:00 AM 8.83 47.894 0.069 7.12 3.03 10.62
4/13/2021 2:45:00 AM 8.81 47.858 0.069 7.13 3 10.63
4/13/2021 3:00:00 AM 8.79 47.822 0.069 7.12 3.17 10.63
4/13/2021 3:15:00 AM 8.77 47.786 0.069 7.11 3.2 10.65
4/13/2021 3:30:00 AM 8.75 47.75 0.069 7.12 3 10.64
4/13/2021 3:45:00 AM 8.73 47.714 0.069 7.12 3.14 10.65
4/13/2021 4:00:00 AM 8.71 47.678 0.069 7.1 3.01 10.66
4/13/2021 4:15:00 AM 8.68 47.624 0.069 7.09 3.04 10.67
4/13/2021 4:30:00 AM 8.66 47.588 0.069 7.11 2.9 10.68
4/13/2021 4:45:00 AM 8.64 47.552 0.07 7.12 2.91 10.68
4/13/2021 5:00:00 AM 8.62 47.516 0.069 7.11 2.93 10.69
4/13/2021 5:15:00 AM 8.6 47.48 0.069 7.12 2.89 10.7
4/13/2021 5:30:00 AM 8.58 47.444 0.07 7.11 2.87 10.7
4/13/2021 5:45:00 AM 8.56 47.408 0.069 7.11 3.15 10.71
4/13/2021 6:00:00 AM 8.54 47.372 0.07 7.11 2.87 10.72
4/13/2021 6:15:00 AM 8.52 47.336 0.069 7.1 2.91 10.73
4/13/2021 6:30:00 AM 8.5 47.3 0.07 7.11 3.17 10.73
4/13/2021 6:45:00 AM 8.48 47.264 0.07 7.11 3.07 10.74
4/13/2021 7:00:00 AM 8.47 47.246 0.069 7.12 3.08 10.76
4/13/2021 7:15:00 AM 8.45 47.21 0.069 7.12 2.88 10.79
4/13/2021 7:30:00 AM 8.44 47.192 0.069 7.13 3.13 10.83
4/13/2021 7:45:00 AM 8.43 47.174 0.069 7.14 3.2 10.84
4/13/2021 8:00:00 AM 8.43 47.174 0.069 7.15 3.04 10.88
4/13/2021 8:15:00 AM 8.43 47.174 0.069 7.15 2.87 10.93
4/13/2021 8:30:00 AM 8.43 47.174 0.069 7.14 2.97 10.96
4/13/2021 8:45:00 AM 8.44 47.192 0.069 7.16 2.94 11.05
4/13/2021 9:00:00 AM 8.47 47.246 0.069 7.19 2.74 11.15
4/13/2021 9:15:00 AM 8.55 47.39 0.069 7.22 2.79 11.25
4/13/2021 9:30:00 AM 8.62 47.516 0.068 7.29 2.74 11.3
4/13/2021 9:45:00 AM 8.81 47.858 0.068 7.32 2.67 11.33
4/13/2021 10:00:00 AM 8.92 48.056 0.068 7.36 2.74 11.34
4/13/2021 10:15:00 AM 8.94 48.092 0.068 7.36 2.76 11.33
4/13/2021 10:30:00 AM 9.03 48.254 0.068 7.39 2.69 11.34
4/13/2021 10:45:00 AM 9.33 48.794 0.067 7.4 2.73 11.33
4/13/2021 11:00:00 AM 9.41 48.938 0.067 7.41 2.7 11.25
4/13/2021 11:15:00 AM 9.68 49.424 0.067 7.42 2.68 11.24
4/13/2021 11:30:00 AM 9.79 49.622 0.07 7.41 3.36 11.15
4/13/2021 11:45:00 AM 10.07 50.126 0.08 7.26 4.57 10.98
4/13/2021 12:00:00 PM 10.16 50.288 0.078 7.27 3.47 10.95
4/13/2021 12:15:00 PM 10.28 50.504 0.075 7.31 3.24 10.96
4/13/2021 12:30:00 PM 10.33 50.594 0.073 7.35 3.02 10.93
4/13/2021 12:45:00 PM 10.3 50.54 0.071 7.33 2.89 10.8
4/13/2021 1:00:00 PM 10.29 50.522 0.07 7.34 2.81 10.8
4/13/2021 1:15:00 PM 10.32 50.576 0.069 7.34 3.05 10.82
4/13/2021 1:30:00 PM 10.37 50.666 0.069 7.37 2.86 10.81
4/13/2021 1:45:00 PM 10.44 50.792 0.069 7.4 2.91 10.86
4/13/2021 2:00:00 PM 10.64 51.152 0.068 7.43 2.78 10.9
4/13/2021 2:15:00 PM 10.69 51.242 0.068 7.43 2.77 10.83
4/13/2021 2:30:00 PM 10.67 51.206 0.068 7.38 2.96 10.69
4/13/2021 2:45:00 PM 10.56 51.008 0.068 7.34 2.83 10.66
4/13/2021 3:00:00 PM 10.54 50.972 0.067 7.37 2.76 10.74
4/13/2021 3:15:00 PM 10.57 51.026 0.067 7.41 2.66 10.83
4/13/2021 3:30:00 PM 10.58 51.044 0.067 7.43 2.65 10.85
4/13/2021 3:45:00 PM 10.61 51.098 0.067 7.45 2.82 10.88
4/13/2021 4:00:00 PM 10.67 51.206 0.067 7.47 2.81 10.91
4/13/2021 4:15:00 PM 10.72 51.296 0.067 7.49 3.01 10.9
4/13/2021 4:30:00 PM 10.77 51.386 0.067 7.48 2.8 10.88
4/13/2021 4:45:00 PM 10.8 51.44 0.067 7.48 2.74 10.83
4/13/2021 5:00:00 PM 10.82 51.476 0.067 7.47 2.89 10.8
4/13/2021 5:15:00 PM 10.78 51.404 0.067 7.45 2.96 10.74
4/13/2021 5:30:00 PM 10.83 51.494 0.067 7.45 2.8 10.74
4/13/2021 5:45:00 PM 10.88 51.584 0.066 7.43 3.07 10.69
4/13/2021 6:00:00 PM 10.88 51.584 0.067 7.42 2.83 10.66
4/13/2021 6:15:00 PM 10.83 51.494 0.067 7.38 2.8 10.59
4/13/2021 6:30:00 PM 10.8 51.44 0.067 7.36 3.04 10.56
4/13/2021 6:45:00 PM 10.75 51.35 0.067 7.33 2.78 10.51
4/13/2021 7:00:00 PM 10.66 51.188 0.067 7.29 2.79 10.46
4/13/2021 7:15:00 PM 10.56 51.008 0.067 7.26 2.74 10.43
4/13/2021 7:30:00 PM 10.46 50.828 0.067 7.24 2.88 10.4
4/13/2021 7:45:00 PM 10.36 50.648 0.067 7.21 3.17 10.37
4/13/2021 8:00:00 PM 10.26 50.468 0.067 7.18 3.07 10.35
4/13/2021 8:15:00 PM 10.15 50.27 0.067 7.16 3.16 10.34
4/13/2021 8:30:00 PM 10.05 50.09 0.067 7.14 3.01 10.35
4/13/2021 8:45:00 PM 9.94 49.892 0.067 7.13 2.96 10.36
4/13/2021 9:00:00 PM 9.83 49.694 0.067 7.12 3 10.38
4/13/2021 9:15:00 PM 9.72 49.496 0.067 7.12 3.13 10.41
4/13/2021 9:30:00 PM 9.62 49.316 0.067 7.11 3.01 10.43
4/13/2021 9:45:00 PM 9.52 49.136 0.067 7.1 2.97 10.46
4/13/2021 10:00:00 PM 9.43 48.974 0.067 7.09 3.1 10.49
4/13/2021 10:15:00 PM 9.35 48.83 0.067 7.09 3.16 10.51
4/13/2021 10:30:00 PM 9.28 48.704 0.067 7.1 3.04 10.54
4/13/2021 10:45:00 PM 9.2 48.56 0.067 7.08 2.89 10.55
4/13/2021 11:00:00 PM 9.12 48.416 0.067 7.09 3.01 10.58
4/13/2021 11:15:00 PM 9.05 48.29 0.067 7.09 3.15 10.59
4/13/2021 11:30:00 PM 8.97 48.146 0.067 7.09 3.09 10.62
4/13/2021 11:45:00 PM 8.89 48.002 0.067 7.08 3.14 10.64
4/14/2021 12:00:00 AM 8.82 47.876 0.067 7.07 2.94 10.66
4/14/2021 12:15:00 AM 8.75 47.75 0.067 7.08 2.99 10.68
4/14/2021 12:30:00 AM 8.71 47.678 0.067 7.08 2.98 10.7
4/14/2021 12:45:00 AM 8.66 47.588 0.067 7.09 2.92 10.71
4/14/2021 1:00:00 AM 8.61 47.498 0.067 7.07 2.98 10.72
4/14/2021 1:15:00 AM 8.56 47.408 0.068 7.07 3.12 10.74
4/14/2021 1:30:00 AM 8.5 47.3 0.067 7.07 2.84 10.75
4/14/2021 1:45:00 AM 8.44 47.192 0.068 7.07 3.09 10.76
4/14/2021 2:00:00 AM 8.38 47.084 0.067 7.08 3.15 10.78
4/14/2021 2:15:00 AM 8.33 46.994 0.067 7.07 2.92 10.8
4/14/2021 2:30:00 AM 8.29 46.922 0.067 7.07 2.95 10.81
4/14/2021 2:45:00 AM 8.25 46.85 0.067 7.08 2.9 10.82
4/14/2021 3:00:00 AM 8.22 46.796 0.067 7.07 2.99 10.83
4/14/2021 3:15:00 AM 8.19 46.742 0.067 7.08 3.1 10.84
4/14/2021 3:30:00 AM 8.16 46.688 0.067 7.08 2.94 10.85
4/14/2021 3:45:00 AM 8.13 46.634 0.067 7.07 3.17 10.86
4/14/2021 4:00:00 AM 8.08 46.544 0.067 7.08 3.04 10.87
4/14/2021 4:15:00 AM 8.03 46.454 0.067 7.08 2.88 10.88
4/14/2021 4:30:00 AM 7.98 46.364 0.067 7.08 3.04 10.9
4/14/2021 4:45:00 AM 7.93 46.274 0.066 7.07 3.15 10.9
4/14/2021 5:00:00 AM 7.9 46.22 0.066 7.07 3.18 10.92
4/14/2021 5:15:00 AM 7.86 46.148 0.066 7.07 3.29 10.92
4/14/2021 5:30:00 AM 7.83 46.094 0.066 7.06 3.01 10.94
4/14/2021 5:45:00 AM 7.79 46.022 0.066 7.07 2.86 10.95
4/14/2021 6:00:00 AM 7.75 45.95 0.066 7.07 2.76 10.96
4/14/2021 6:15:00 AM 7.71 45.878 0.066 7.08 3.29 10.97
4/14/2021 6:30:00 AM 7.67 45.806 0.066 7.08 2.95 10.99
4/14/2021 6:45:00 AM 7.63 45.734 0.066 7.08 3.06 11.01
4/14/2021 7:00:00 AM 7.59 45.662 0.066 7.09 2.95 11.06
4/14/2021 7:15:00 AM 7.56 45.608 0.066 7.09 2.84 11.1
4/14/2021 7:30:00 AM 7.52 45.536 0.066 7.05 2.88 11.17
4/14/2021 7:45:00 AM 7.5 45.5 0.066 7.1 2.65 11.24
4/14/2021 8:00:00 AM 7.5 45.5 0.065 7.11 2.79 11.31
4/14/2021 8:15:00 AM 7.53 45.554 0.066 7.14 2.87 11.39
4/14/2021 8:30:00 AM 7.56 45.608 0.065 7.17 2.75 11.45
4/14/2021 8:45:00 AM 7.59 45.662 0.066 7.19 2.82 11.49
4/14/2021 9:00:00 AM 7.6 45.68 0.068 7.21 2.88 11.48
4/14/2021 9:15:00 AM 7.69 45.842 0.068 7.25 2.72 11.52
4/14/2021 9:30:00 AM 7.75 45.95 0.068 7.29 2.58 11.54
4/14/2021 9:45:00 AM 7.9 46.22 0.067 7.31 2.94 11.56
4/14/2021 10:00:00 AM 8 46.4 0.066 7.34 2.86 11.56
4/14/2021 10:15:00 AM 8.07 46.526 0.066 7.35 2.89 11.53
4/14/2021 10:30:00 AM 8.25 46.85 0.066 7.37 2.74 11.53
4/14/2021 10:45:00 AM 8.39 47.102 0.065 7.38 2.7 11.5
4/14/2021 11:00:00 AM 8.47 47.246 0.065 7.37 2.71 11.46
4/14/2021 11:15:00 AM 8.76 47.768 0.065 7.37 2.66 11.44
4/14/2021 11:30:00 AM 9.01 48.218 0.064 7.39 2.73 11.38
4/14/2021 11:45:00 AM 9.26 48.668 0.064 7.38 2.72 11.32
4/14/2021 12:00:00 PM 9.46 49.028 0.064 7.38 2.73 11.26
4/14/2021 12:15:00 PM 9.7 49.46 0.064 7.37 2.87 11.18
4/14/2021 12:30:00 PM 10.03 50.054 0.064 7.38 2.72 11.1
4/14/2021 12:45:00 PM 10.18 50.324 0.064 7.39 2.68 11.01
4/14/2021 1:00:00 PM 10.39 50.702 0.063 7.4 2.53 10.98
4/14/2021 1:15:00 PM 10.67 51.206 0.063 7.43 2.6 10.95
4/14/2021 1:30:00 PM 11 51.8 0.063 7.44 2.66 10.89
4/14/2021 1:45:00 PM 11.32 52.376 0.063 7.46 2.84 10.83
4/14/2021 2:00:00 PM 11.62 52.916 0.063 7.47 2.82 10.78
4/14/2021 2:15:00 PM 11.7 53.06 0.063 7.47 2.83 10.7
4/14/2021 2:30:00 PM 11.74 53.132 0.063 7.46 2.98 10.61
4/14/2021 2:45:00 PM 11.8 53.24 0.063 7.47 2.82 10.61
4/14/2021 3:00:00 PM 11.77 53.186 0.063 7.46 2.73 10.59
4/14/2021 3:15:00 PM 11.83 53.294 0.063 7.48 3.07 10.58
4/14/2021 3:30:00 PM 11.85 53.33 0.063 7.47 2.76 10.57
4/14/2021 3:45:00 PM 11.89 53.402 0.063 7.48 2.84 10.56
4/14/2021 4:00:00 PM 11.86 53.348 0.063 7.47 2.86 10.51
4/14/2021 4:15:00 PM 11.91 53.438 0.063 7.47 2.95 10.51
4/14/2021 4:30:00 PM 11.86 53.348 0.063 7.46 2.78 10.47
4/14/2021 4:45:00 PM 11.78 53.204 0.063 7.43 2.89 10.41
4/14/2021 5:00:00 PM 11.74 53.132 0.063 7.41 2.97 10.38
4/14/2021 5:15:00 PM 11.67 53.006 0.063 7.4 2.76 10.4
4/14/2021 5:30:00 PM 11.65 52.97 0.063 7.4 2.77 10.42
4/14/2021 5:45:00 PM 11.66 52.988 0.063 7.4 2.89 10.41
4/14/2021 6:00:00 PM 11.59 52.862 0.063 7.39 2.95 10.39
4/14/2021 6:15:00 PM 11.51 52.718 0.063 7.37 2.86 10.38
4/14/2021 6:30:00 PM 11.38 52.484 0.063 7.33 2.86 10.33
4/14/2021 6:45:00 PM 11.23 52.214 0.063 7.29 2.85 10.28
4/14/2021 7:00:00 PM 11.1 51.98 0.063 7.27 2.89 10.27
4/14/2021 7:15:00 PM 10.98 51.764 0.063 7.24 3.09 10.25
4/14/2021 7:30:00 PM 10.86 51.548 0.064 7.21 3.02 10.23
4/14/2021 7:45:00 PM 10.75 51.35 0.064 7.18 3.11 10.21
4/14/2021 8:00:00 PM 10.64 51.152 0.064 7.15 2.9 10.19
4/14/2021 8:15:00 PM 10.54 50.972 0.064 7.13 2.92 10.19
4/14/2021 8:30:00 PM 10.44 50.792 0.064 7.12 2.93 10.19
4/14/2021 8:45:00 PM 10.34 50.612 0.064 7.13 3.53 10.21
4/14/2021 9:00:00 PM 10.24 50.432 0.064 7.13 3.12 10.23
4/14/2021 9:15:00 PM 10.14 50.252 0.064 7.13 2.87 10.25
4/14/2021 9:30:00 PM 10.02 50.036 0.064 7.14 3.2 10.28
4/14/2021 9:45:00 PM 9.9 49.82 0.064 7.11 3.12 10.31
4/14/2021 10:00:00 PM 9.78 49.604 0.064 7.14 2.75 10.34
4/14/2021 10:15:00 PM 9.67 49.406 0.064 7.15 3.11 10.37
4/14/2021 10:30:00 PM 9.56 49.208 0.063 7.12 2.28 10.39
4/14/2021 10:45:00 PM 9.45 49.01 0.064 7.1 3.3 10.42
4/14/2021 11:00:00 PM 9.36 48.848 0.064 7.1 3.1 10.45
4/14/2021 11:15:00 PM 9.27 48.686 0.064 7.1 2.99 10.47
4/14/2021 11:30:00 PM 9.2 48.56 0.064 7.09 2.97 10.5
4/14/2021 11:45:00 PM 9.12 48.416 0.064 7.08 3.13 10.52
4/15/2021 12:00:00 AM 9.05 48.29 0.064 7.06 3.2 10.52
4/15/2021 12:15:00 AM 8.98 48.164 0.064 7.05 3 10.54
4/15/2021 12:30:00 AM 8.91 48.038 0.064 7.04 3.1 10.56
4/15/2021 12:45:00 AM 8.84 47.912 0.064 7.05 3.02 10.59
4/15/2021 1:00:00 AM 8.76 47.768 0.064 7.05 3.03 10.61
4/15/2021 1:15:00 AM 8.68 47.624 0.064 7.05 3.02 10.63
4/15/2021 1:30:00 AM 8.61 47.498 0.064 7.05 2.76 10.64
4/15/2021 1:45:00 AM 8.55 47.39 0.064 7.04 2.96 10.66
4/15/2021 2:00:00 AM 8.49 47.282 0.064 7.05 2.98 10.68
4/15/2021 2:15:00 AM 8.43 47.174 0.064 7.05 2.98 10.69
4/15/2021 2:30:00 AM 8.38 47.084 0.064 7.05 2.97 10.7
4/15/2021 2:45:00 AM 8.33 46.994 0.064 7.05 3.04 10.72
4/15/2021 3:00:00 AM 8.28 46.904 0.064 7.05 3.08 10.73
4/15/2021 3:15:00 AM 8.22 46.796 0.064 7.07 2.94 10.74
4/15/2021 3:30:00 AM 8.16 46.688 0.064 7.08 3.15 10.76
4/15/2021 3:45:00 AM 8.11 46.598 0.063 7.09 2.92 10.77
4/15/2021 4:00:00 AM 8.06 46.508 0.063 7.08 3.07 10.78
4/15/2021 4:15:00 AM 8.02 46.436 0.063 7.08 2.99 10.79
4/15/2021 4:30:00 AM 7.97 46.346 0.063 7.08 3.08 10.81
4/15/2021 4:45:00 AM 7.91 46.238 0.063 7.08 2.94 10.82
4/15/2021 5:00:00 AM 7.86 46.148 0.063 7.08 2.88 10.83
4/15/2021 5:15:00 AM 7.82 46.076 0.063 7.08 2.81 10.85
4/15/2021 5:30:00 AM 7.78 46.004 0.063 7.08 3.07 10.85
4/15/2021 5:45:00 AM 7.74 45.932 0.063 7.08 2.84 10.87
4/15/2021 6:00:00 AM 7.71 45.878 0.063 7.08 2.89 10.87
4/15/2021 6:15:00 AM 7.67 45.806 0.063 7.08 3.24 10.89
4/15/2021 6:30:00 AM 7.64 45.752 0.063 7.08 3.06 10.9
4/15/2021 6:45:00 AM 7.62 45.716 0.063 7.08 2.94 10.91
4/15/2021 7:00:00 AM 7.59 45.662 0.063 7.04 3.32 10.92
4/15/2021 7:15:00 AM 7.55 45.59 0.063 7.03 2.89 10.95
4/15/2021 7:30:00 AM 7.54 45.572 0.063 7.04 2.87 10.96
4/15/2021 7:45:00 AM 7.53 45.554 0.063 7.04 2.88 10.98
4/15/2021 8:00:00 AM 7.51 45.518 0.063 7.05 2.78 11.01
4/15/2021 8:15:00 AM 7.5 45.5 0.063 7.07 2.76 11.07
4/15/2021 8:30:00 AM 7.51 45.518 0.063 7.09 2.84 11.11
4/15/2021 8:45:00 AM 7.5 45.5 0.063 7.12 2.77 11.15
4/15/2021 9:00:00 AM 7.51 45.518 0.062 7.14 2.82 11.22
4/15/2021 9:15:00 AM 7.51 45.518 0.062 7.15 2.72 11.25
4/15/2021 9:30:00 AM 7.53 45.554 0.062 7.17 2.74 11.3
4/15/2021 9:45:00 AM 7.53 45.554 0.062 7.19 2.69 11.34
4/15/2021 10:00:00 AM 7.53 45.554 0.062 7.2 2.78 11.36
4/15/2021 10:15:00 AM 7.55 45.59 0.062 7.23 3.11 11.41
4/15/2021 10:30:00 AM 7.61 45.698 0.061 7.24 2.78 11.44
4/15/2021 10:45:00 AM 7.7 45.86 0.061 7.27 2.84 11.46
4/15/2021 11:00:00 AM 7.73 45.914 0.061 7.28 2.84 11.45
4/15/2021 11:15:00 AM 7.79 46.022 0.061 7.29 2.75 11.47
4/15/2021 11:30:00 AM 7.87 46.166 0.061 7.31 2.8 11.48
4/15/2021 11:45:00 AM 7.86 46.148 0.061 7.31 2.61 11.44
4/15/2021 12:00:00 PM 7.81 46.058 0.061 7.28 2.85 11.34
4/15/2021 12:15:00 PM 7.77 45.986 0.061 7.26 2.8 11.28
4/15/2021 12:30:00 PM 7.74 45.932 0.061 7.24 2.72 11.27
4/15/2021 12:45:00 PM 7.8 46.04 0.061 7.25 2.76 11.34
4/15/2021 1:00:00 PM 7.82 46.076 0.061 7.27 2.66 11.36
4/15/2021 1:15:00 PM 7.82 46.076 0.061 7.29 2.82 11.33
4/15/2021 1:30:00 PM 7.8 46.04 0.061 7.29 2.82 11.31
4/15/2021 1:45:00 PM 7.75 45.95 0.061 7.27 2.77 11.3
4/15/2021 2:00:00 PM 7.73 45.914 0.061 7.27 2.79 11.31
4/15/2021 2:15:00 PM 7.71 45.878 0.061 7.28 2.64 11.32
4/15/2021 2:30:00 PM 7.69 45.842 0.061 7.27 2.7 11.31
4/15/2021 2:45:00 PM 7.66 45.788 0.061 7.26 2.75 11.3
4/15/2021 3:00:00 PM 7.64 45.752 0.061 7.25 2.86 11.29
4/15/2021 3:15:00 PM 7.6 45.68 0.061 7.24 2.65 11.27
4/15/2021 3:30:00 PM 7.59 45.662 0.061 7.24 2.78 11.31
4/15/2021 3:45:00 PM 7.58 45.644 0.061 7.26 2.82 11.35
4/15/2021 4:00:00 PM 7.57 45.626 0.061 7.26 2.79 11.35
4/15/2021 4:15:00 PM 7.56 45.608 0.061 7.27 2.75 11.38
4/15/2021 4:30:00 PM 7.53 45.554 0.061 7.26 2.74 11.37
4/15/2021 4:45:00 PM 7.53 45.554 0.061 7.27 2.54 11.39
4/15/2021 5:00:00 PM 7.56 45.608 0.061 7.29 2.74 11.44
4/15/2021 5:15:00 PM 7.6 45.68 0.061 7.3 2.81 11.46
4/15/2021 5:30:00 PM 7.59 45.662 0.061 7.3 2.75 11.4
4/15/2021 5:45:00 PM 7.57 45.626 0.061 7.28 2.87 11.36
4/15/2021 6:00:00 PM 7.53 45.554 0.061 7.27 2.79 11.37
4/15/2021 6:15:00 PM 7.52 45.536 0.061 7.26 2.81 11.34
4/15/2021 6:30:00 PM 7.51 45.518 0.061 7.24 2.86 11.31
4/15/2021 6:45:00 PM 7.52 45.536 0.061 7.23 2.83 11.29
4/15/2021 7:00:00 PM 7.5 45.5 0.061 7.23 2.9 11.27
4/15/2021 7:15:00 PM 7.47 45.446 0.061 7.21 2.85 11.22
4/15/2021 7:30:00 PM 7.42 45.356 0.061 7.18 2.87 11.16
4/15/2021 7:45:00 PM 7.36 45.248 0.061 7.16 2.74 11.12
4/15/2021 8:00:00 PM 7.3 45.14 0.061 7.13 2.97 11.09
4/15/2021 8:15:00 PM 7.24 45.032 0.061 7.13 2.96 11.07
4/15/2021 8:30:00 PM 7.18 44.924 0.061 7.11 2.9 11.07
4/15/2021 8:45:00 PM 7.13 44.834 0.061 7.11 2.94 11.07
4/15/2021 9:00:00 PM 7.07 44.726 0.062 7.1 2.91 11.08
4/15/2021 9:15:00 PM 7.02 44.636 0.061 7.1 2.9 11.1
4/15/2021 9:30:00 PM 6.98 44.564 0.062 7.09 3.03 11.1
4/15/2021 9:45:00 PM 6.93 44.474 0.062 7.08 2.76 11.12
4/15/2021 10:00:00 PM 6.88 44.384 0.062 7.08 2.88 11.13
4/15/2021 10:15:00 PM 6.83 44.294 0.062 7.08 2.93 11.15
4/15/2021 10:30:00 PM 6.78 44.204 0.062 7.08 2.93 11.16
4/15/2021 10:45:00 PM 6.74 44.132 0.062 7.08 3.24 11.17
4/15/2021 11:00:00 PM 6.7 44.06 0.062 7.07 2.95 11.18
4/15/2021 11:15:00 PM 6.67 44.006 0.062 7.07 2.92 11.19
4/15/2021 11:30:00 PM 6.64 43.952 0.062 7.09 2.82 11.21
4/15/2021 11:45:00 PM 6.6 43.88 0.062 7.09 3.06 11.21
4/16/2021 12:00:00 AM 6.57 43.826 0.062 7.08 2.9 11.22
4/16/2021 12:15:00 AM 6.53 43.754 0.062 7.08 2.81 11.23
4/16/2021 12:30:00 AM 6.5 43.7 0.062 7.08 2.81 11.24
4/16/2021 12:45:00 AM 6.47 43.646 0.062 7.07 2.9 11.25
4/16/2021 1:00:00 AM 6.44 43.592 0.062 7.03 2.99 11.26
4/16/2021 1:15:00 AM 6.4 43.52 0.062 7.04 2.71 11.26
4/16/2021 1:30:00 AM 6.38 43.484 0.062 7.06 2.9 11.26
4/16/2021 1:45:00 AM 6.36 43.448 0.062 7.06 2.74 11.28
4/16/2021 2:00:00 AM 6.34 43.412 0.062 7.06 2.97 11.28
4/16/2021 2:15:00 AM 6.31 43.358 0.062 7.06 2.86 11.29
4/16/2021 2:30:00 AM 6.29 43.322 0.062 7.05 2.79 11.3
4/16/2021 2:45:00 AM 6.26 43.268 0.062 7.05 2.77 11.3
4/16/2021 3:00:00 AM 6.24 43.232 0.062 7.05 2.9 11.3
4/16/2021 3:15:00 AM 6.2 43.16 0.062 7.05 2.89 11.31
4/16/2021 3:30:00 AM 6.18 43.124 0.061 7.05 3 11.32
4/16/2021 3:45:00 AM 6.15 43.07 0.061 7.05 2.87 11.33
4/16/2021 4:00:00 AM 6.12 43.016 0.061 7.05 2.91 11.33
4/16/2021 4:15:00 AM 6.08 42.944 0.061 7.05 2.8 11.34
4/16/2021 4:30:00 AM 6.02 42.836 0.061 7.05 2.72 11.35
4/16/2021 4:45:00 AM 5.92 42.656 0.061 7.05 3.19 11.36
4/16/2021 5:00:00 AM 5.86 42.548 0.061 7.04 2.87 11.38
4/16/2021 5:15:00 AM 5.8 42.44 0.061 7.04 3.02 11.39
4/16/2021 5:30:00 AM 5.78 42.404 0.061 7.03 2.92 11.41
4/16/2021 5:45:00 AM 5.77 42.386 0.061 7.04 2.81 11.43
4/16/2021 6:00:00 AM 5.75 42.35 0.061 7.04 2.9 11.44
4/16/2021 6:15:00 AM 5.74 42.332 0.061 7.05 2.97 11.45
4/16/2021 6:30:00 AM 5.73 42.314 0.061 7.04 2.77 11.46
4/16/2021 6:45:00 AM 5.72 42.296 0.061 7.05 3.21 11.47
4/16/2021 7:00:00 AM 5.73 42.314 0.061 7.05 2.96 11.48
4/16/2021 7:15:00 AM 5.73 42.314 0.061 7.06 2.77 11.5
4/16/2021 7:30:00 AM 5.74 42.332 0.061 7.06 2.72 11.54
4/16/2021 7:45:00 AM 5.76 42.368 0.061 7.08 2.84 11.58
4/16/2021 8:00:00 AM 5.78 42.404 0.061 7.09 2.97 11.61
4/16/2021 8:15:00 AM 5.8 42.44 0.061 7.11 2.85 11.65
4/16/2021 8:30:00 AM 5.82 42.476 0.061 7.12 2.86 11.65
4/16/2021 8:45:00 AM 5.84 42.512 0.061 7.13 2.64 11.69
4/16/2021 9:00:00 AM 5.87 42.566 0.061 7.15 2.61 11.71
4/16/2021 9:15:00 AM 5.93 42.674 0.061 7.17 2.59 11.76
4/16/2021 9:30:00 AM 6 42.8 0.061 7.19 2.62 11.81
4/16/2021 9:45:00 AM 6.08 42.944 0.061 7.22 2.67 11.83
4/16/2021 10:00:00 AM 6.15 43.07 0.061 7.23 2.74 11.84
4/16/2021 10:15:00 AM 6.25 43.25 0.061 7.25 2.53 11.84
4/16/2021 10:30:00 AM 6.37 43.466 0.061 7.25 2.58 11.85
4/16/2021 10:45:00 AM 6.43 43.574 0.061 7.28 2.54